Darstellungsparameter: Aktuell verwendete Einstellungen:
Skalierung der Graphiken ... ?
xyx+y,   Skalierungsfaktor:      Skalierung: Modus: x, Faktor: 1
Darstellungszeitraum ... ?
Vom - - bis: - -   Zeitraum: 27.02.2020 - 26.03.2020
Min/Max/Avg-Anzeige ... ?
Zeige MMA aktuell
Zeige MMA Monat
Zeige MMA alles
Zeige --A aktuell
Zeige --A Monat
Zeige --A alles
Keine MMA-Anzeige
MMA:
Keine MMA-Graphiken
MMA-Basis: 27.02.2020 - 26.03.2020
Quicknavigation für Darstellung... ?
Tage:      1T, 2T, 3T, 5T -1T -2T -3T -5T +1T +2T +3T +5T
Wochen: 1W, 2W, 3W -1W -2W -3W +1W +2W +3W
Monate: 1M, 3M, 6M -1M -3M -6M +1M +3M +6M
Jahre:    1J, 3J, 5J, 10J -1J -3J -5J -10J +1J +3J +5J +10J
Nutze für die Darstellung ... ?
Originaldaten oder Mittelwerte auf ...
Stundenbasis Tagesbasis Wochenbasis
Monatsbasis Jahresbasis      Datenbasis: Original-Daten
Darstellen als:
Statistik (Auto) Statistik J:M      Darstellung:
Zur Graphik,    zurück zur Übersicht aller Sensoren.
 
Tabellarische Datenbersicht: ?
 
Sensor: Nr:Datum:Temp:Feuchte:
Aussen-T/F 1 27-02-2020 00:08:17 2.9 C 37 %
2 27-02-2020 00:18:17 3.1 C 37 %
3 27-02-2020 00:28:17 2.8 C 37 %
4 27-02-2020 00:38:18 3.1 C 36 %
5 27-02-2020 00:48:18 2.9 C 37 %
6 27-02-2020 00:58:18 2.8 C 37 %
7 27-02-2020 01:08:18 2.3 C 38 %
8 27-02-2020 01:18:18 2.2 C 38 %
9 27-02-2020 01:28:18 2.2 C 38 %
10 27-02-2020 01:38:18 2 C 38 %
11 27-02-2020 01:48:17 2.6 C 38 %
12 27-02-2020 01:58:17 2.7 C 38 %
13 27-02-2020 02:08:18 2.6 C 38 %
14 27-02-2020 02:18:17 2.9 C 37 %
15 27-02-2020 02:28:17 2.9 C 37 %
16 27-02-2020 02:38:17 2.5 C 38 %
17 27-02-2020 02:48:17 2.7 C 38 %
18 27-02-2020 02:58:17 3.1 C 36 %
19 27-02-2020 03:08:18 3.1 C 37 %
20 27-02-2020 03:18:17 2.6 C 40 %
21 27-02-2020 03:28:17 2.6 C 40 %
22 27-02-2020 03:38:17 2.6 C 40 %
23 27-02-2020 03:48:17 2.7 C 40 %
24 27-02-2020 03:58:17 2.7 C 40 %
25 27-02-2020 04:08:18 2.7 C 40 %
Sensor: Nr:Datum:Temp:Feuchte:
Aussen-T/F 26 27-02-2020 04:18:18 2.7 C 40 %
27 27-02-2020 04:28:18 2.6 C 40 %
28 27-02-2020 04:38:18 2.7 C 39 %
29 27-02-2020 04:48:17 2.3 C 40 %
30 27-02-2020 04:58:17 2.3 C 39 %
31 27-02-2020 05:08:18 2.1 C 40 %
32 27-02-2020 05:18:17 2.3 C 40 %
33 27-02-2020 05:28:18 2 C 40 %
34 27-02-2020 05:38:17 2 C 40 %
35 27-02-2020 05:48:17 2.3 C 40 %
36 27-02-2020 05:58:17 2.4 C 39 %
37 27-02-2020 06:08:17 2.2 C 39 %
38 27-02-2020 06:18:17 2.2 C 38 %
39 27-02-2020 06:28:17 2.3 C 38 %
40 27-02-2020 06:38:18 2.3 C 38 %
41 27-02-2020 06:48:17 2.3 C 38 %
42 27-02-2020 06:58:17 2.1 C 38 %
43 27-02-2020 07:08:18 2.3 C 38 %
44 27-02-2020 07:18:18 2.3 C 38 %
45 27-02-2020 07:28:18 2.4 C 39 %
46 27-02-2020 07:38:18 2.5 C 38 %
47 27-02-2020 07:48:17 2.4 C 39 %
48 27-02-2020 07:58:17 2.6 C 39 %
49 27-02-2020 08:08:17 2.5 C 39 %
50 27-02-2020 08:18:17 2.6 C 40 %
Sensor: Nr:Datum:Temp:Feuchte:
Aussen-T/F 51 27-02-2020 08:28:17 2.9 C 40 %
52 27-02-2020 08:38:17 3.2 C 38 %
53 27-02-2020 08:48:17 3.5 C 37 %
54 27-02-2020 08:58:17 3.8 C 37 %
55 27-02-2020 09:08:17 4.2 C 35 %
56 27-02-2020 09:18:17 4.3 C 35 %
57 27-02-2020 09:28:17 4.6 C 35 %
58 27-02-2020 09:38:17 4.7 C 35 %
59 27-02-2020 09:48:17 4.9 C 35 %
60 27-02-2020 09:58:17 5.2 C 34 %
61 27-02-2020 10:08:17 5.1 C 34 %
62 27-02-2020 10:18:17 5.3 C 33 %
63 27-02-2020 10:28:17 5.2 C 33 %
64 27-02-2020 10:38:17 5.4 C 33 %
65 27-02-2020 10:48:17 5.4 C 33 %
66 27-02-2020 10:58:17 5 C 33 %
67 27-02-2020 11:08:17 4.6 C 35 %
68 27-02-2020 11:18:17 4.2 C 35 %
69 27-02-2020 11:28:17 3.7 C 36 %
70 27-02-2020 11:38:17 3.7 C 38 %
71 27-02-2020 11:48:18 3.9 C 39 %
72 27-02-2020 11:58:18 3.9 C 39 %
73 27-02-2020 12:08:18 3.8 C 39 %
74 27-02-2020 12:18:18 3.9 C 39 %
75 27-02-2020 12:28:18 3.8 C 40 %
Sensor: Nr:Datum:Temp:Feuchte:
Aussen-T/F 76 27-02-2020 12:38:18 3.8 C 40 %
77 27-02-2020 12:48:17 3.5 C 40 %
78 27-02-2020 12:58:17 3.4 C 41 %
79 27-02-2020 13:08:18 3.3 C 41 %
80 27-02-2020 13:18:18 3.2 C 41 %
81 27-02-2020 13:28:18 3 C 42 %
82 27-02-2020 13:38:17 2.8 C 42 %
83 27-02-2020 13:48:17 2.6 C 43 %
84 27-02-2020 13:58:17 2.6 C 43 %
85 27-02-2020 14:08:17 2.6 C 44 %
86 27-02-2020 14:18:17 2.7 C 44 %
87 27-02-2020 14:28:17 2.5 C 44 %
88 27-02-2020 14:38:18 2.5 C 44 %
89 27-02-2020 14:48:18 2.5 C 44 %
90 27-02-2020 14:58:18 2.4 C 44 %
91 27-02-2020 15:08:18 2.3 C 44 %
92 27-02-2020 15:18:18 2.2 C 44 %
93 27-02-2020 15:28:18 2.3 C 45 %
94 27-02-2020 15:38:18 2.1 C 44 %
95 27-02-2020 15:48:17 2.1 C 45 %
96 27-02-2020 15:58:17 1.8 C 46 %
97 27-02-2020 16:08:17 1.6 C 46 %
98 27-02-2020 16:18:17 1.1 C 46 %
99 27-02-2020 16:28:17 0.8 C 47 %
100 27-02-2020 16:38:18 0.4 C 48 %
Sensor: Nr:Datum:Temp:Feuchte:
Aussen-T/F 101 27-02-2020 16:48:17 0.2 C 48 %
102 27-02-2020 16:58:17 0.2 C 48 %
103 27-02-2020 17:08:18 0 C 49 %
104 27-02-2020 17:18:18 0 C 48 %
105 27-02-2020 17:28:18 0 C 48 %
106 27-02-2020 17:38:17 0 C 48 %
107 27-02-2020 17:48:17 0 C 48 %
108 27-02-2020 17:58:17 0 C 48 %
109 27-02-2020 18:08:18 0.1 C 48 %
110 27-02-2020 18:18:17 0.1 C 48 %
111 27-02-2020 18:28:17 0.1 C 48 %
112 27-02-2020 18:38:17 0.1 C 48 %
113 27-02-2020 18:48:18 0.1 C 48 %
114 27-02-2020 18:58:18 0.1 C 48 %
115 27-02-2020 19:08:18 0.3 C 48 %
116 27-02-2020 19:18:18 0.4 C 48 %
117 27-02-2020 19:28:18 0.3 C 48 %
118 27-02-2020 19:38:18 0.6 C 48 %
119 27-02-2020 19:48:18 0.6 C 48 %
120 27-02-2020 19:58:18 0.6 C 48 %
121 27-02-2020 20:08:18 0.7 C 48 %
122 27-02-2020 20:18:18 0.6 C 48 %
123 27-02-2020 20:28:18 0.8 C 48 %
124 27-02-2020 20:38:17 0.6 C 48 %
125 27-02-2020 20:48:17 0.5 C 48 %
Sensor: Nr:Datum:Temp:Feuchte:
Aussen-T/F 126 27-02-2020 20:58:17 0.6 C 48 %
127 27-02-2020 21:08:17 0.6 C 48 %
128 27-02-2020 21:18:17 0.7 C 47 %
129 27-02-2020 21:28:17 0.7 C 47 %
130 27-02-2020 21:38:17 0.7 C 47 %
131 27-02-2020 21:48:17 0.7 C 47 %
132 27-02-2020 21:58:17 0.7 C 48 %
133 27-02-2020 22:08:18 0.7 C 48 %
134 27-02-2020 22:18:17 0.6 C 48 %
135 27-02-2020 22:28:18 0.7 C 49 %
136 27-02-2020 22:38:18 1 C 47 %
137 27-02-2020 22:48:17 1 C 45 %
138 27-02-2020 22:58:18 1 C 46 %
139 27-02-2020 23:08:18 1.1 C 46 %
140 27-02-2020 23:18:18 1.4 C 46 %
141 27-02-2020 23:28:18 1.6 C 45 %
142 27-02-2020 23:38:18 1.5 C 44 %
143 27-02-2020 23:48:18 1.7 C 44 %
144 27-02-2020 23:58:18 1.6 C 43 %
145 28-02-2020 00:08:18 1.7 C 43 %
146 28-02-2020 00:18:17 1.9 C 43 %
147 28-02-2020 00:28:17 1.7 C 43 %
148 28-02-2020 00:38:18 1.6 C 45 %
149 28-02-2020 00:48:17 1.5 C 45 %
150 28-02-2020 00:58:17 1.7 C 45 %
Sensor: Nr:Datum:Temp:Feuchte:
Aussen-T/F 151 28-02-2020 01:08:17 1.4 C 46 %
152 28-02-2020 01:18:17 1.4 C 46 %
153 28-02-2020 01:28:17 1.3 C 46 %
154 28-02-2020 01:38:17 1.5 C 45 %
155 28-02-2020 01:48:18 1.5 C 45 %
156 28-02-2020 01:58:18 1.4 C 45 %
157 28-02-2020 02:08:18 1.4 C 46 %
158 28-02-2020 02:18:18 1.4 C 45 %
159 28-02-2020 02:28:18 1.5 C 45 %
160 28-02-2020 02:38:18 1.4 C 44 %
161 28-02-2020 02:48:17 1.4 C 44 %
162 28-02-2020 02:58:18 1.4 C 43 %
163 28-02-2020 03:08:18 1.5 C 42 %
164 28-02-2020 03:18:18 1.3 C 43 %
165 28-02-2020 03:28:18 1.1 C 43 %
166 28-02-2020 03:38:18 1 C 43 %
167 28-02-2020 03:48:17 0.9 C 44 %
168 28-02-2020 03:58:17 1.1 C 44 %
169 28-02-2020 04:08:17 1.2 C 43 %
170 28-02-2020 04:18:17 1.3 C 43 %
171 28-02-2020 04:28:18 1.3 C 43 %
172 28-02-2020 04:38:18 1.3 C 43 %
173 28-02-2020 04:48:17 1.3 C 43 %
174 28-02-2020 04:58:17 1.4 C 42 %
175 28-02-2020 05:08:17 1.2 C 42 %
Sensor: Nr:Datum:Temp:Feuchte:
Aussen-T/F 176 28-02-2020 05:18:17 1 C 43 %
177 28-02-2020 05:28:17 0.9 C 45 %
178 28-02-2020 05:38:17 1 C 43 %
179 28-02-2020 05:48:17 1.1 C 42 %
180 28-02-2020 05:58:17 1.1 C 43 %
181 28-02-2020 06:08:17 0.8 C 44 %
182 28-02-2020 06:18:17 0.6 C 45 %
183 28-02-2020 06:28:17 0.8 C 44 %
184 28-02-2020 06:38:18 0.8 C 43 %
185 28-02-2020 06:48:18 0.7 C 44 %
186 28-02-2020 06:58:18 0.5 C 43 %
187 28-02-2020 07:08:18 0.6 C 43 %
188 28-02-2020 07:18:17 0.2 C 45 %
189 28-02-2020 07:28:17 0.7 C 43 %
190 28-02-2020 07:38:17 0.7 C 43 %
191 28-02-2020 07:48:18 0.4 C 44 %
192 28-02-2020 07:58:18 0.4 C 44 %
193 28-02-2020 08:08:18 0.2 C 45 %
194 28-02-2020 08:18:18 0.4 C 44 %
195 28-02-2020 08:28:18 0.2 C 45 %
196 28-02-2020 08:38:17 0.7 C 44 %
197 28-02-2020 08:48:17 0.8 C 43 %
198 28-02-2020 08:58:17 1.1 C 42 %
199 28-02-2020 09:08:17 1.4 C 41 %
200 28-02-2020 09:18:17 1.3 C 42 %
Sensor: Nr:Datum:Temp:Feuchte:
Aussen-T/F 201 28-02-2020 09:28:17 1.5 C 41 %
202 28-02-2020 09:38:17 1.7 C 41 %
203 28-02-2020 09:48:18 1.8 C 41 %
204 28-02-2020 09:58:18 1.9 C 41 %
205 28-02-2020 10:08:18 2.1 C 40 %
206 28-02-2020 10:18:18 2.5 C 40 %
207 28-02-2020 10:28:18 2.8 C 39 %
208 28-02-2020 10:38:17 3.2 C 37 %
209 28-02-2020 10:48:17 3.1 C 37 %
210 28-02-2020 10:58:17 3.3 C 37 %
211 28-02-2020 11:08:17 3.6 C 37 %
212 28-02-2020 11:18:17 3.8 C 37 %
213 28-02-2020 11:28:17 4.2 C 36 %
214 28-02-2020 11:38:17 4.5 C 36 %
215 28-02-2020 11:48:18 3.8 C 37 %
216 28-02-2020 11:58:18 4.1 C 35 %
217 28-02-2020 12:08:18 4.3 C 35 %
218 28-02-2020 12:18:18 4.3 C 36 %
219 28-02-2020 12:28:18 4.6 C 35 %
220 28-02-2020 12:38:18 5.1 C 34 %
221 28-02-2020 12:48:18 6.3 C 33 %
222 28-02-2020 12:58:18 6.5 C 33 %
223 28-02-2020 13:08:18 6.8 C 32 %
224 28-02-2020 13:18:18 7.2 C 31 %
225 28-02-2020 13:28:18 6.7 C 31 %
Sensor: Nr:Datum:Temp:Feuchte:
Aussen-T/F 226 28-02-2020 13:38:18 7 C 30 %
227 28-02-2020 13:48:17 7.8 C 29 %
228 28-02-2020 13:58:17 8 C 28 %
229 28-02-2020 14:08:18 8.1 C 27 %
230 28-02-2020 14:18:18 8 C 28 %
231 28-02-2020 14:28:18 8.2 C 28 %
232 28-02-2020 14:38:18 8.1 C 27 %
233 28-02-2020 14:48:17 8.3 C 27 %
234 28-02-2020 14:58:18 7.7 C 27 %
235 28-02-2020 15:08:18 8 C 27 %
236 28-02-2020 15:18:17 8 C 27 %
237 28-02-2020 15:28:17 8.8 C 26 %
238 28-02-2020 15:38:18 8.5 C 25 %
239 28-02-2020 15:48:18 7.8 C 26 %
240 28-02-2020 15:58:18 7.8 C 26 %
241 28-02-2020 16:08:18 7.3 C 26 %
242 28-02-2020 16:18:18 7.5 C 27 %
243 28-02-2020 16:28:18 7 C 30 %
244 28-02-2020 16:38:18 6.8 C 31 %
245 28-02-2020 16:48:17 6.6 C 32 %
246 28-02-2020 16:58:18 6.7 C 31 %
247 28-02-2020 17:08:18 6.1 C 32 %
248 28-02-2020 17:18:18 5.8 C 35 %
249 28-02-2020 17:28:18 5.1 C 35 %
250 28-02-2020 17:38:18 5.2 C 35 %
Sensor: Nr:Datum:Temp:Feuchte:
Aussen-T/F 251 28-02-2020 17:48:17 4.8 C 37 %
252 28-02-2020 17:58:18 4.6 C 37 %
253 28-02-2020 18:08:17 4.5 C 37 %
254 28-02-2020 18:18:17 4.5 C 37 %
255 28-02-2020 18:28:17 4.7 C 36 %
256 28-02-2020 18:38:18 5.1 C 34 %
257 28-02-2020 18:48:17 5.1 C 33 %
258 28-02-2020 18:58:17 4.9 C 35 %
259 28-02-2020 19:08:17 5 C 32 %
260 28-02-2020 19:18:17 5 C 32 %
261 28-02-2020 19:28:18 4.8 C 35 %
262 28-02-2020 19:38:17 5.3 C 33 %
263 28-02-2020 19:48:17 5 C 34 %
264 28-02-2020 19:58:17 5 C 34 %
265 28-02-2020 20:08:17 4.7 C 35 %
266 28-02-2020 20:18:18 4.9 C 33 %
267 28-02-2020 20:28:18 4.5 C 35 %
268 28-02-2020 20:38:18 4.4 C 36 %
269 28-02-2020 20:48:17 4.1 C 36 %
270 28-02-2020 20:58:17 4 C 38 %
271 28-02-2020 21:08:18 3.7 C 40 %
272 28-02-2020 21:18:18 3.7 C 41 %
273 28-02-2020 21:28:18 3.8 C 40 %
274 28-02-2020 21:38:18 3.8 C 40 %
275 28-02-2020 21:48:17 4.2 C 37 %
Sensor: Nr:Datum:Temp:Feuchte:
Aussen-T/F 276 28-02-2020 21:58:17 4 C 38 %
277 28-02-2020 22:08:18 3.9 C 39 %
278 28-02-2020 22:18:18 3.7 C 40 %
279 28-02-2020 22:28:18 3.7 C 41 %
280 28-02-2020 22:38:17 3.6 C 42 %
281 28-02-2020 22:48:17 3.5 C 44 %
282 28-02-2020 22:58:17 3.6 C 45 %
283 28-02-2020 23:08:17 3.4 C 46 %
284 28-02-2020 23:18:17 3.5 C 46 %
285 28-02-2020 23:28:18 3.6 C 45 %
286 28-02-2020 23:38:18 3.8 C 43 %
287 28-02-2020 23:48:18 3.9 C 44 %
288 28-02-2020 23:58:18 3.9 C 44 %
289 29-02-2020 00:08:18 4.3 C 42 %
290 29-02-2020 00:18:18 4.5 C 42 %
291 29-02-2020 00:28:18 4.7 C 41 %
292 29-02-2020 00:38:18 5.1 C 40 %
293 29-02-2020 00:48:17 5 C 41 %
294 29-02-2020 00:58:17 4.8 C 42 %
295 29-02-2020 01:08:18 5 C 42 %
296 29-02-2020 01:18:18 4.8 C 43 %
297 29-02-2020 01:28:18 4.9 C 45 %
298 29-02-2020 01:38:18 5 C 44 %
299 29-02-2020 01:48:17 5.1 C 45 %
300 29-02-2020 01:58:17 5.1 C 45 %
Sensor: Nr:Datum:Temp:Feuchte:
Aussen-T/F 301 29-02-2020 02:08:18 5.2 C 44 %
302 29-02-2020 02:18:18 5.2 C 45 %
303 29-02-2020 02:28:18 5.3 C 45 %
304 29-02-2020 02:38:18 5.6 C 44 %
305 29-02-2020 02:48:17 5.9 C 43 %
306 29-02-2020 02:58:17 7 C 41 %
307 29-02-2020 03:08:18 7.5 C 40 %
308 29-02-2020 03:18:18 7.8 C 39 %
309 29-02-2020 03:28:18 8.5 C 38 %
310 29-02-2020 03:38:18 8.3 C 38 %
311 29-02-2020 03:48:17 8.8 C 38 %
312 29-02-2020 03:58:17 8.9 C 38 %
313 29-02-2020 04:08:18 9.1 C 37 %
314 29-02-2020 04:18:17 9.4 C 37 %
315 29-02-2020 04:28:18 9.5 C 37 %
316 29-02-2020 04:38:18 9 C 37 %
317 29-02-2020 04:48:17 9.3 C 37 %
318 29-02-2020 04:58:17 9 C 37 %
319 29-02-2020 05:08:18 9.1 C 37 %
320 29-02-2020 05:18:17 9 C 37 %
321 29-02-2020 05:28:17 9.2 C 36 %
322 29-02-2020 05:38:17 8.6 C 37 %
323 29-02-2020 05:48:18 8.8 C 37 %
324 29-02-2020 05:58:18 9.1 C 36 %
325 29-02-2020 06:08:17 8.8 C 37 %
Sensor: Nr:Datum:Temp:Feuchte:
Aussen-T/F 326 29-02-2020 06:18:17 8.4 C 37 %
327 29-02-2020 06:28:17 8.6 C 37 %
328 29-02-2020 06:38:17 8.7 C 37 %
329 29-02-2020 06:48:17 8.6 C 37 %
330 29-02-2020 06:58:17 8.4 C 37 %
331 29-02-2020 07:08:17 8.1 C 37 %
332 29-02-2020 07:18:17 8 C 37 %
333 29-02-2020 07:28:17 8.3 C 37 %
334 29-02-2020 07:38:17 7.8 C 38 %
335 29-02-2020 07:48:17 7.6 C 38 %
336 29-02-2020 07:58:17 7.3 C 39 %
337 29-02-2020 08:08:17 7.6 C 38 %
338 29-02-2020 08:18:17 7.4 C 39 %
339 29-02-2020 08:28:17 7.5 C 39 %
340 29-02-2020 08:38:17 7.4 C 39 %
341 29-02-2020 08:48:17 7.6 C 39 %
342 29-02-2020 08:58:17 8 C 38 %
343 29-02-2020 09:08:17 8.3 C 37 %
344 29-02-2020 09:18:17 8.9 C 36 %
345 29-02-2020 09:28:17 9.2 C 36 %
346 29-02-2020 09:38:17 9.6 C 35 %
347 29-02-2020 09:48:17 10 C 33 %
348 29-02-2020 09:58:17 10 C 32 %
349 29-02-2020 10:08:17 10 C 32 %
350 29-02-2020 10:18:17 9.9 C 33 %
Sensor: Nr:Datum:Temp:Feuchte:
Aussen-T/F 351 29-02-2020 10:28:17 10.1 C 31 %
352 29-02-2020 10:38:18 10.4 C 31 %
353 29-02-2020 10:48:17 10.7 C 31 %
354 29-02-2020 10:58:17 10.7 C 31 %
355 29-02-2020 11:08:18 11.1 C 30 %
356 29-02-2020 11:18:17 12.1 C 30 %
357 29-02-2020 11:28:17 13.9 C 25 %
358 29-02-2020 11:38:17 13.7 C 23 %
359 29-02-2020 11:48:17 13.4 C 24 %
360 29-02-2020 11:58:17 14.3 C 23 %
361 29-02-2020 12:08:17 15.5 C 20 %
362 29-02-2020 12:18:18 15.4 C 20 %
363 29-02-2020 12:28:18 15.1 C 20 %
364 29-02-2020 12:38:17 16.2 C 20 %
365 29-02-2020 12:48:17 15.1 C 20 %
366 29-02-2020 12:58:17 15.4 C 20 %
367 29-02-2020 13:08:17 15.5 C 20 %
368 29-02-2020 13:18:17 15 C 20 %
369 29-02-2020 13:28:17 14.8 C 20 %
370 29-02-2020 13:38:18 15.4 C 20 %
371 29-02-2020 13:48:18 15.6 C 20 %
372 29-02-2020 13:58:18 16.4 C 20 %
373 29-02-2020 14:08:18 15.1 C 20 %
374 29-02-2020 14:18:17 15.1 C 20 %
375 29-02-2020 14:28:17 14.8 C 21 %
Sensor: Nr:Datum:Temp:Feuchte:
Aussen-T/F 376 29-02-2020 14:38:17 13.1 C 26 %
377 29-02-2020 14:48:17 12 C 32 %
378 29-02-2020 14:58:17 10.5 C 38 %
379 29-02-2020 15:08:17 10.4 C 39 %
380 29-02-2020 15:18:17 10.8 C 39 %
381 29-02-2020 15:28:17 10.6 C 40 %
382 29-02-2020 15:38:18 10.4 C 39 %
383 29-02-2020 15:48:17 10.7 C 37 %
384 29-02-2020 15:58:17 11.3 C 35 %
385 29-02-2020 16:08:18 12.6 C 32 %
386 29-02-2020 16:18:17 12 C 32 %
387 29-02-2020 16:28:18 10.7 C 35 %
388 29-02-2020 16:38:18 10.1 C 37 %
389 29-02-2020 16:48:17 9.9 C 37 %
390 29-02-2020 16:58:17 9.5 C 36 %
391 29-02-2020 17:08:18 9 C 35 %
392 29-02-2020 17:18:17 8.9 C 35 %
393 29-02-2020 17:28:18 8.8 C 34 %
394 29-02-2020 17:38:18 8.6 C 34 %
395 29-02-2020 17:48:18 8.6 C 35 %
396 29-02-2020 17:58:18 8.7 C 34 %
397 29-02-2020 18:08:18 8.6 C 35 %
398 29-02-2020 18:18:18 8.2 C 35 %
399 29-02-2020 18:28:18 8.1 C 35 %
400 29-02-2020 18:38:18 8 C 35 %
Sensor: Nr:Datum:Temp:Feuchte:
Aussen-T/F 401 29-02-2020 18:48:17 6.7 C 36 %
402 29-02-2020 18:58:17 5.9 C 36 %
403 29-02-2020 19:08:17 5.9 C 37 %
404 29-02-2020 19:18:18 6 C 36 %
405 29-02-2020 19:28:18 6.3 C 35 %
406 29-02-2020 19:38:18 6.7 C 34 %
407 29-02-2020 19:48:18 6.6 C 34 %
408 29-02-2020 19:58:18 6.7 C 34 %
409 29-02-2020 20:08:18 6.6 C 34 %
410 29-02-2020 20:18:18 6.3 C 34 %
411 29-02-2020 20:28:18 6.3 C 34 %
412 29-02-2020 20:38:18 5.9 C 35 %
413 29-02-2020 20:48:18 5.7 C 35 %
414 29-02-2020 20:58:18 5.3 C 35 %
415 29-02-2020 21:08:18 5.2 C 35 %
416 29-02-2020 21:18:17 5.7 C 34 %
417 29-02-2020 21:28:17 5 C 35 %
418 29-02-2020 21:38:17 5 C 35 %
419 29-02-2020 21:48:17 4.3 C 36 %
420 29-02-2020 21:58:17 3.9 C 38 %
421 29-02-2020 22:08:17 3.7 C 38 %
422 29-02-2020 22:18:18 3.4 C 39 %
423 29-02-2020 22:28:18 3.3 C 40 %
424 29-02-2020 22:38:18 3.3 C 41 %
425 29-02-2020 22:48:17 3.7 C 40 %
Sensor: Nr:Datum:Temp:Feuchte:
Aussen-T/F 426 29-02-2020 22:58:18 4 C 39 %
427 29-02-2020 23:08:18 4.2 C 38 %
428 29-02-2020 23:18:18 4.4 C 38 %
429 29-02-2020 23:28:18 4.5 C 38 %
430 29-02-2020 23:38:18 4.7 C 38 %
431 29-02-2020 23:48:18 5.4 C 36 %
432 29-02-2020 23:58:18 6.3 C 35 %
433 01-03-2020 00:08:18 6.6 C 35 %
434 01-03-2020 00:18:18 6.6 C 35 %
435 01-03-2020 00:28:18 6.3 C 35 %
436 01-03-2020 00:38:18 6.2 C 35 %
437 01-03-2020 00:48:17 6.2 C 35 %
438 01-03-2020 00:58:18 6.2 C 35 %
439 01-03-2020 01:08:17 6.1 C 35 %
440 01-03-2020 01:18:18 6 C 35 %
441 01-03-2020 01:28:18 5.7 C 35 %
442 01-03-2020 01:38:18 5.5 C 36 %
443 01-03-2020 01:48:17 5.8 C 36 %
444 01-03-2020 01:58:17 5.8 C 35 %
445 01-03-2020 02:08:17 5.3 C 36 %
446 01-03-2020 02:18:17 5.8 C 36 %
447 01-03-2020 02:28:17 5.7 C 36 %
448 01-03-2020 02:38:17 5.8 C 36 %
449 01-03-2020 02:48:17 6.2 C 35 %
450 01-03-2020 02:58:17 6.5 C 35 %
Sensor: Nr:Datum:Temp:Feuchte:
Aussen-T/F 451 01-03-2020 03:08:18 6.5 C 35 %
452 01-03-2020 03:18:17 6.6 C 35 %
453 01-03-2020 03:28:17 6.7 C 35 %
454 01-03-2020 03:38:18 6.5 C 35 %
455 01-03-2020 03:48:17 6.4 C 35 %
456 01-03-2020 03:58:17 6.8 C 35 %
457 01-03-2020 04:08:17 6.6 C 35 %
458 01-03-2020 04:18:17 6.9 C 34 %
459 01-03-2020 04:28:17 7 C 33 %
460 01-03-2020 04:38:18 6.9 C 34 %
461 01-03-2020 04:48:17 7.1 C 33 %
462 01-03-2020 04:58:17 7 C 33 %
463 01-03-2020 05:08:17 7.1 C 33 %
464 01-03-2020 05:18:18 6.8 C 34 %
465 01-03-2020 05:28:18 7.2 C 32 %
466 01-03-2020 05:38:18 6.8 C 34 %
467 01-03-2020 05:48:17 6.9 C 34 %
468 01-03-2020 05:58:18 6.6 C 34 %
469 01-03-2020 06:08:18 6.7 C 34 %
470 01-03-2020 06:18:17 6.8 C 34 %
471 01-03-2020 06:28:17 7 C 33 %
472 01-03-2020 06:38:17 7.1 C 33 %
473 01-03-2020 06:48:17 6.4 C 35 %
474 01-03-2020 06:58:17 5.9 C 36 %
475 01-03-2020 07:08:17 5.4 C 38 %
Sensor: Nr:Datum:Temp:Feuchte:
Aussen-T/F 476 01-03-2020 07:18:17 5.4 C 39 %
477 01-03-2020 07:28:18 5.2 C 39 %
478 01-03-2020 07:38:18 5.1 C 41 %
479 01-03-2020 07:48:18 5.2 C 41 %
480 01-03-2020 07:58:18 5.2 C 42 %
481 01-03-2020 08:08:18 5.2 C 42 %
482 01-03-2020 08:18:17 5.3 C 42 %
483 01-03-2020 08:28:17 5 C 40 %
484 01-03-2020 08:38:17 4.7 C 41 %
485 01-03-2020 08:48:17 4 C 41 %
486 01-03-2020 08:58:17 4 C 42 %
487 01-03-2020 09:08:17 4.1 C 42 %
488 01-03-2020 09:18:17 4.3 C 41 %
489 01-03-2020 09:28:17 4.8 C 40 %
490 01-03-2020 09:38:17 4.8 C 41 %
491 01-03-2020 09:48:18 4.7 C 41 %
492 01-03-2020 09:58:18 4.8 C 41 %
493 01-03-2020 10:08:17 5.3 C 40 %
494 01-03-2020 10:18:17 5.7 C 39 %
495 01-03-2020 10:28:17 7.1 C 36 %
496 01-03-2020 10:38:17 7.6 C 36 %
497 01-03-2020 10:48:17 7.8 C 35 %
498 01-03-2020 10:58:17 8 C 34 %
499 01-03-2020 11:08:17 8.1 C 33 %
500 01-03-2020 11:18:17 8.6 C 33 %
Sensor: Nr:Datum:Temp:Feuchte:
Aussen-T/F 501 01-03-2020 11:28:18 10 C 30 %
502 01-03-2020 11:38:18 10.2 C 28 %
503 01-03-2020 11:48:17 8.8 C 29 %
504 01-03-2020 11:58:17 10.2 C 27 %
505 01-03-2020 12:08:17 8.9 C 30 %
506 01-03-2020 12:18:17 9.3 C 28 %
507 01-03-2020 12:28:17 9.7 C 27 %
508 01-03-2020 12:38:18 9.2 C 28 %
509 01-03-2020 12:48:18 11.4 C 26 %
510 01-03-2020 12:58:18 12.3 C 21 %
511 01-03-2020 13:08:18 11.4 C 24 %
512 01-03-2020 13:18:17 10.4 C 25 %
513 01-03-2020 13:28:17 10.4 C 25 %
514 01-03-2020 13:38:17 10.6 C 22 %
515 01-03-2020 13:48:17 10.2 C 22 %
516 01-03-2020 13:58:17 10.8 C 22 %
517 01-03-2020 14:08:18 10.1 C 23 %
518 01-03-2020 14:18:18 9.9 C 25 %
519 01-03-2020 14:28:18 10.9 C 25 %
520 01-03-2020 14:38:18 10.5 C 23 %
521 01-03-2020 14:48:17 10.9 C 25 %
522 01-03-2020 14:58:18 10.1 C 25 %
523 01-03-2020 15:08:18 10.1 C 25 %
524 01-03-2020 15:18:17 12.6 C 20 %
525 01-03-2020 15:28:17 11.9 C 22 %
Sensor: Nr:Datum:Temp:Feuchte:
Aussen-T/F 526 01-03-2020 15:38:18 12 C 20 %
527 01-03-2020 15:48:18 12.8 C 20 %
528 01-03-2020 15:58:18 11.7 C 21 %
529 01-03-2020 16:08:18 10.8 C 25 %
530 01-03-2020 16:18:18 10.5 C 25 %
531 01-03-2020 16:28:18 10.7 C 25 %
532 01-03-2020 16:38:18 10.3 C 30 %
533 01-03-2020 16:48:18 10.2 C 29 %
534 01-03-2020 16:58:18 9.7 C 31 %
535 01-03-2020 17:08:18 8.4 C 35 %
536 01-03-2020 17:18:17 7.8 C 39 %
537 01-03-2020 17:28:17 7.6 C 42 %
538 01-03-2020 17:38:17 7.3 C 43 %
539 01-03-2020 17:48:17 7 C 44 %
540 01-03-2020 17:58:17 6.9 C 45 %
541 01-03-2020 18:08:18 6.8 C 45 %
542 01-03-2020 18:18:18 6.7 C 45 %
543 01-03-2020 18:28:18 6.7 C 45 %
544 01-03-2020 18:38:18 6.7 C 45 %
545 01-03-2020 18:48:18 6.6 C 45 %
546 01-03-2020 18:58:18 6.5 C 45 %
547 01-03-2020 19:08:18 6.5 C 45 %
548 01-03-2020 19:18:17 6.5 C 45 %
549 01-03-2020 19:28:17 6.4 C 45 %
550 01-03-2020 19:38:17 6.3 C 45 %
Sensor: Nr:Datum:Temp:Feuchte:
Aussen-T/F 551 01-03-2020 19:48:17 6.3 C 45 %
552 01-03-2020 19:58:17 6.2 C 45 %
553 01-03-2020 20:08:17 6.3 C 45 %
554 01-03-2020 20:18:17 6.2 C 45 %
555 01-03-2020 20:28:17 6 C 45 %
556 01-03-2020 20:38:17 5.8 C 45 %
557 01-03-2020 20:48:17 5.7 C 45 %
558 01-03-2020 20:58:17 5.6 C 45 %
559 01-03-2020 21:08:17 5.6 C 45 %
560 01-03-2020 21:18:17 5.5 C 45 %
561 01-03-2020 21:28:17 5.4 C 45 %
562 01-03-2020 21:38:17 5.7 C 45 %
563 01-03-2020 21:48:17 5.8 C 45 %
564 01-03-2020 21:58:17 5.9 C 45 %
565 01-03-2020 22:08:17 6 C 45 %
566 01-03-2020 22:18:17 6 C 45 %
567 01-03-2020 22:28:17 6.1 C 45 %
568 01-03-2020 22:38:18 6.2 C 45 %
569 01-03-2020 22:48:17 6.2 C 45 %
570 01-03-2020 22:58:17 6.3 C 45 %
571 01-03-2020 23:08:18 6.4 C 45 %
572 01-03-2020 23:18:18 5.8 C 45 %
573 01-03-2020 23:28:18 4.3 C 40 %
574 01-03-2020 23:38:18 3.1 C 41 %
575 01-03-2020 23:48:18 2.9 C 44 %
Sensor: Nr:Datum:Temp:Feuchte:
Aussen-T/F 576 01-03-2020 23:58:18 3.1 C 44 %
577 02-03-2020 00:08:18 3.3 C 44 %
578 02-03-2020 00:18:17 3.3 C 43 %
579 02-03-2020 00:28:17 3.5 C 43 %
580 02-03-2020 00:38:17 3.5 C 43 %
581 02-03-2020 00:48:17 3.7 C 42 %
582 02-03-2020 00:58:18 3.6 C 42 %
583 02-03-2020 01:08:18 3.7 C 42 %
584 02-03-2020 01:18:17 3.9 C 41 %
585 02-03-2020 01:28:17 3.8 C 42 %
586 02-03-2020 01:38:17 3.8 C 41 %
587 02-03-2020 01:48:18 4 C 40 %
588 02-03-2020 01:58:18 3.5 C 42 %
589 02-03-2020 02:08:18 3.7 C 42 %
590 02-03-2020 02:18:17 3.6 C 42 %
591 02-03-2020 02:28:17 3.5 C 42 %
592 02-03-2020 02:38:17 4 C 40 %
593 02-03-2020 02:48:17 3.8 C 41 %
594 02-03-2020 02:58:18 3.5 C 42 %
595 02-03-2020 03:08:18 3.3 C 43 %
596 02-03-2020 03:18:18 3.4 C 42 %
597 02-03-2020 03:28:18 2.9 C 44 %
598 02-03-2020 03:38:18 2.4 C 45 %
599 02-03-2020 03:48:18 2.9 C 45 %
600 02-03-2020 03:58:18 2.6 C 45 %
Sensor: Nr:Datum:Temp:Feuchte:
Aussen-T/F 601 02-03-2020 04:08:18 2.3 C 45 %
602 02-03-2020 04:18:17 2 C 46 %
603 02-03-2020 04:28:17 2.2 C 46 %
604 02-03-2020 04:38:18 2.3 C 47 %
605 02-03-2020 04:48:18 2.2 C 46 %
606 02-03-2020 04:58:18 1.9 C 48 %
607 02-03-2020 05:08:18 1.7 C 48 %
608 02-03-2020 05:18:17 1.5 C 48 %
609 02-03-2020 05:28:17 1.3 C 48 %
610 02-03-2020 05:38:18 1.4 C 48 %
611 02-03-2020 05:48:18 1.4 C 48 %
612 02-03-2020 05:58:18 1.3 C 48 %
613 02-03-2020 06:08:18 1.1 C 48 %
614 02-03-2020 06:18:18 1.3 C 48 %
615 02-03-2020 06:28:18 1.3 C 48 %
616 02-03-2020 06:38:18 1.4 C 48 %
617 02-03-2020 06:48:17 1.4 C 48 %
618 02-03-2020 06:58:17 1.5 C 48 %
619 02-03-2020 07:08:18 1.5 C 48 %
620 02-03-2020 07:18:18 1.7 C 48 %
621 02-03-2020 07:28:18 1.8 C 48 %
622 02-03-2020 07:38:18 2.1 C 47 %
623 02-03-2020 07:48:18 2.3 C 47 %
624 02-03-2020 07:58:18 2.5 C 47 %
625 02-03-2020 08:08:18 2.5 C 47 %
Sensor: Nr:Datum:Temp:Feuchte:
Aussen-T/F 626 02-03-2020 08:18:17 2.7 C 47 %
627 02-03-2020 08:28:17 3 C 46 %
628 02-03-2020 08:38:18 3.2 C 46 %
629 02-03-2020 08:48:18 3.5 C 46 %
630 02-03-2020 08:58:18 3.8 C 45 %
631 02-03-2020 09:08:17 4.1 C 43 %
632 02-03-2020 09:18:17 4.5 C 42 %
633 02-03-2020 09:28:17 4.9 C 40 %
634 02-03-2020 09:38:17 5.4 C 39 %
635 02-03-2020 09:48:17 5.7 C 39 %
636 02-03-2020 09:58:17 6.1 C 38 %
637 02-03-2020 10:08:17 6.6 C 37 %
638 02-03-2020 10:18:17 6.9 C 36 %
639 02-03-2020 10:28:17 7.4 C 35 %
640 02-03-2020 10:38:18 8.2 C 34 %
641 02-03-2020 10:48:17 8.9 C 34 %
642 02-03-2020 10:58:17 9 C 33 %
643 02-03-2020 11:08:17 9 C 33 %
644 02-03-2020 11:18:17 11.5 C 30 %
645 02-03-2020 11:28:17 13 C 26 %
646 02-03-2020 11:38:17 13.9 C 25 %
647 02-03-2020 11:48:17 11.8 C 27 %
648 02-03-2020 11:58:17 13.6 C 24 %
649 02-03-2020 12:08:17 13.3 C 21 %
650 02-03-2020 12:18:17 13.2 C 21 %
Sensor: Nr:Datum:Temp:Feuchte:
Aussen-T/F 651 02-03-2020 12:28:17 12.3 C 23 %
652 02-03-2020 12:38:18 13 C 23 %
653 02-03-2020 12:48:18 11.8 C 24 %
654 02-03-2020 12:58:18 11.7 C 25 %
655 02-03-2020 13:08:18 12.4 C 23 %
656 02-03-2020 13:18:18 14.7 C 20 %
657 02-03-2020 13:28:18 14.2 C 20 %
658 02-03-2020 13:38:17 15.6 C 20 %
659 02-03-2020 13:48:17 14.1 C 20 %
660 02-03-2020 13:58:17 12.3 C 21 %
661 02-03-2020 14:08:17 11.8 C 23 %
662 02-03-2020 14:18:17 12.1 C 23 %
663 02-03-2020 14:28:17 11.7 C 25 %
664 02-03-2020 14:38:17 11.2 C 25 %
665 02-03-2020 14:48:17 10.9 C 25 %
666 02-03-2020 14:58:17 10.8 C 26 %
667 02-03-2020 15:08:18 10.9 C 26 %
668 02-03-2020 15:18:18 10.9 C 26 %
669 02-03-2020 15:28:18 10.2 C 26 %
670 02-03-2020 15:38:18 9.2 C 30 %
671 02-03-2020 15:48:17 8.7 C 33 %
672 02-03-2020 15:58:18 8.4 C 36 %
673 02-03-2020 16:08:18 8 C 40 %
674 02-03-2020 16:18:18 7.6 C 41 %
675 02-03-2020 16:28:18 7.3 C 42 %
Sensor: Nr:Datum:Temp:Feuchte:
Aussen-T/F 676 02-03-2020 16:38:18 7.2 C 43 %
677 02-03-2020 16:48:17 7.1 C 43 %
678 02-03-2020 16:58:17 7 C 44 %
679 02-03-2020 17:08:17 6.9 C 45 %
680 02-03-2020 17:18:17 6.6 C 45 %
681 02-03-2020 17:28:17 6.6 C 45 %
682 02-03-2020 17:38:18 6.4 C 45 %
683 02-03-2020 17:48:17 6.3 C 45 %
684 02-03-2020 17:58:18 6.3 C 45 %
685 02-03-2020 18:08:18 6.2 C 45 %
686 02-03-2020 18:18:18 6.1 C 45 %
687 02-03-2020 18:28:18 6 C 45 %
688 02-03-2020 18:38:18 5.9 C 46 %
689 02-03-2020 18:48:17 5.9 C 46 %
690 02-03-2020 18:58:18 5.8 C 46 %
691 02-03-2020 19:08:18 5.7 C 46 %
692 02-03-2020 19:18:18 5.7 C 46 %
693 02-03-2020 19:28:18 5.7 C 46 %
694 02-03-2020 19:38:18 5.7 C 46 %
695 02-03-2020 19:48:17 5.7 C 45 %
696 02-03-2020 19:58:18 5.7 C 45 %
697 02-03-2020 20:08:18 5.7 C 45 %
698 02-03-2020 20:18:17 5.7 C 45 %
699 02-03-2020 20:28:18 5.6 C 45 %
700 02-03-2020 20:38:18 5.6 C 45 %
Sensor: Nr:Datum:Temp:Feuchte:
Aussen-T/F 701 02-03-2020 20:48:17 5.6 C 45 %
702 02-03-2020 20:58:17 5.5 C 45 %
703 02-03-2020 21:08:18 5.4 C 45 %
704 02-03-2020 21:18:18 5.4 C 45 %
705 02-03-2020 21:28:18 5.4 C 45 %
706 02-03-2020 21:38:18 5.4 C 45 %
707 02-03-2020 21:48:18 5.4 C 45 %
708 02-03-2020 21:58:18 5.4 C 45 %
709 02-03-2020 22:08:18 5.4 C 45 %
710 02-03-2020 22:18:17 5.4 C 45 %
711 02-03-2020 22:28:17 5.5 C 45 %
712 02-03-2020 22:38:17 5.4 C 45 %
713 02-03-2020 22:48:17 5.5 C 45 %
714 02-03-2020 22:58:17 5.5 C 45 %
715 02-03-2020 23:08:17 5.5 C 45 %
716 02-03-2020 23:18:17 5.2 C 45 %
717 02-03-2020 23:28:17 5.2 C 45 %
718 02-03-2020 23:38:17 5.2 C 45 %
719 02-03-2020 23:48:17 5.3 C 45 %
720 02-03-2020 23:58:17 5.3 C 45 %
721 03-03-2020 00:08:18 5.2 C 45 %
722 03-03-2020 00:18:18 5.1 C 44 %
723 03-03-2020 00:28:18 5 C 44 %
724 03-03-2020 00:38:18 5 C 44 %
725 03-03-2020 00:48:17 4.9 C 45 %
Sensor: Nr:Datum:Temp:Feuchte:
Aussen-T/F 726 03-03-2020 00:58:17 4.9 C 45 %
727 03-03-2020 01:08:17 5.1 C 44 %
728 03-03-2020 01:18:17 5 C 43 %
729 03-03-2020 01:28:17 5 C 43 %
730 03-03-2020 01:38:18 4.6 C 41 %
731 03-03-2020 01:48:17 4.5 C 42 %
732 03-03-2020 01:58:17 4.4 C 43 %
733 03-03-2020 02:08:17 4.4 C 43 %
734 03-03-2020 02:18:17 4.2 C 42 %
735 03-03-2020 02:28:17 4.1 C 41 %
736 03-03-2020 02:38:18 4.1 C 41 %
737 03-03-2020 02:48:18 4.1 C 41 %
738 03-03-2020 02:58:18 3.9 C 42 %
739 03-03-2020 03:08:17 3.8 C 41 %
740 03-03-2020 03:18:17 3.7 C 40 %
741 03-03-2020 03:28:17 3.4 C 41 %
742 03-03-2020 03:38:18 3.5 C 41 %
743 03-03-2020 03:48:18 3 C 42 %
744 03-03-2020 03:58:18 3.1 C 42 %
745 03-03-2020 04:08:17 2.8 C 43 %
746 03-03-2020 04:18:17 3.2 C 41 %
747 03-03-2020 04:28:17 3.2 C 41 %
748 03-03-2020 04:38:18 2.9 C 42 %
749 03-03-2020 04:48:17 2.9 C 43 %
750 03-03-2020 04:58:18 3.2 C 41 %
Sensor: Nr:Datum:Temp:Feuchte:
Aussen-T/F 751 03-03-2020 05:08:18 3.1 C 41 %
752 03-03-2020 05:18:18 2.7 C 43 %
753 03-03-2020 05:28:18 2.3 C 44 %
754 03-03-2020 05:38:17 2.6 C 43 %
755 03-03-2020 05:48:18 2.7 C 42 %
756 03-03-2020 05:58:18 2.4 C 44 %
757 03-03-2020 06:08:17 3 C 42 %
758 03-03-2020 06:18:18 3.1 C 41 %
759 03-03-2020 06:28:18 2.8 C 42 %
760 03-03-2020 06:38:17 2.6 C 43 %
761 03-03-2020 06:48:18 2.7 C 42 %
762 03-03-2020 06:58:18 2.8 C 42 %
763 03-03-2020 07:08:18 2.8 C 42 %
764 03-03-2020 07:18:18 2.6 C 43 %
765 03-03-2020 07:28:18 2.7 C 43 %
766 03-03-2020 07:38:18 2.6 C 43 %
767 03-03-2020 07:48:17 2.5 C 43 %
768 03-03-2020 07:58:17 2.5 C 43 %
769 03-03-2020 08:08:18 2.7 C 43 %
770 03-03-2020 08:18:18 3.3 C 41 %
771 03-03-2020 08:28:18 3.2 C 41 %
772 03-03-2020 08:38:17 3.5 C 40 %
773 03-03-2020 08:48:17 3.6 C 40 %
774 03-03-2020 08:58:18 3.4 C 40 %
775 03-03-2020 09:08:18 3.5 C 40 %
Sensor: Nr:Datum:Temp:Feuchte:
Aussen-T/F 776 03-03-2020 09:18:17 3.2 C 40 %
777 03-03-2020 09:28:17 3.5 C 40 %
778 03-03-2020 09:38:17 3.6 C 40 %
779 03-03-2020 09:48:18 4.1 C 39 %
780 03-03-2020 09:58:18 4.6 C 38 %
781 03-03-2020 10:08:18 5.3 C 36 %
782 03-03-2020 10:18:18 5.1 C 36 %
783 03-03-2020 10:28:18 5.2 C 35 %
784 03-03-2020 10:38:18 5.4 C 35 %
785 03-03-2020 10:48:17 4.9 C 35 %
786 03-03-2020 10:58:18 5 C 35 %
787 03-03-2020 11:08:17 5.2 C 35 %
788 03-03-2020 11:18:17 5.2 C 35 %
789 03-03-2020 11:28:17 5.3 C 35 %
790 03-03-2020 11:38:17 5.1 C 35 %
791 03-03-2020 11:48:17 5.8 C 35 %
792 03-03-2020 11:58:17 5.7 C 35 %
793 03-03-2020 12:08:17 6.1 C 35 %
794 03-03-2020 12:18:17 6.4 C 34 %
795 03-03-2020 12:28:17 6.6 C 34 %
796 03-03-2020 12:38:17 6.5 C 33 %
797 03-03-2020 12:48:17 7.1 C 33 %
798 03-03-2020 12:58:17 6.6 C 33 %
799 03-03-2020 13:08:17 6.6 C 33 %
800 03-03-2020 13:18:17 9.6 C 28 %
Sensor: Nr:Datum:Temp:Feuchte:
Aussen-T/F 801 03-03-2020 13:28:18 9.8 C 27 %
802 03-03-2020 13:38:18 8.9 C 27 %
803 03-03-2020 13:48:17 9.7 C 25 %
804 03-03-2020 13:58:17 6.2 C 31 %
805 03-03-2020 14:08:18 5.8 C 35 %
806 03-03-2020 14:18:18 5.4 C 39 %
807 03-03-2020 14:28:18 5.7 C 38 %
808 03-03-2020 14:38:18 5 C 37 %
809 03-03-2020 14:48:18 4.7 C 39 %
810 03-03-2020 14:58:18 4.7 C 40 %
811 03-03-2020 15:08:18 4.7 C 39 %
812 03-03-2020 15:18:18 6.8 C 36 %
813 03-03-2020 15:28:18 6.9 C 35 %
814 03-03-2020 15:38:18 8.9 C 32 %
815 03-03-2020 15:48:17 8.9 C 30 %
816 03-03-2020 15:58:17 7.4 C 32 %
817 03-03-2020 16:08:18 11.8 C 23 %
818 03-03-2020 16:18:18 9.3 C 25 %
819 03-03-2020 16:28:18 7.4 C 30 %
820 03-03-2020 16:38:18 7.2 C 30 %
821 03-03-2020 16:48:17 7.3 C 31 %
822 03-03-2020 16:58:17 7.6 C 30 %
823 03-03-2020 17:08:17 6.7 C 32 %
824 03-03-2020 17:18:17 6.7 C 33 %
825 03-03-2020 17:28:18 6.5 C 34 %
Sensor: Nr:Datum:Temp:Feuchte:
Aussen-T/F 826 03-03-2020 17:38:18 6.4 C 34 %
827 03-03-2020 17:48:17 6 C 35 %
828 03-03-2020 17:58:18 5.4 C 36 %
829 03-03-2020 18:08:18 4.3 C 38 %
830 03-03-2020 18:18:18 4.4 C 39 %
831 03-03-2020 18:28:18 4 C 39 %
832 03-03-2020 18:38:18 3.7 C 41 %
833 03-03-2020 18:48:17 3.5 C 41 %
834 03-03-2020 18:58:17 3.6 C 41 %
835 03-03-2020 19:08:17 3.6 C 40 %
836 03-03-2020 19:18:17 3.8 C 40 %
837 03-03-2020 19:28:17 3.1 C 41 %
838 03-03-2020 19:38:17 3.2 C 41 %
839 03-03-2020 19:48:17 2.7 C 42 %
840 03-03-2020 19:58:17 2.3 C 42 %
841 03-03-2020 20:08:17 1.7 C 45 %
842 03-03-2020 20:18:17 1.8 C 47 %
843 03-03-2020 20:28:17 1.7 C 47 %
844 03-03-2020 20:38:17 1.3 C 46 %
845 03-03-2020 20:48:17 1.4 C 47 %
846 03-03-2020 20:58:17 1.3 C 47 %
847 03-03-2020 21:08:17 1.2 C 47 %
848 03-03-2020 21:18:17 1.6 C 48 %
849 03-03-2020 21:28:17 2 C 47 %
850 03-03-2020 21:38:17 2.1 C 45 %
Sensor: Nr:Datum:Temp:Feuchte:
Aussen-T/F 851 03-03-2020 21:48:17 2 C 45 %
852 03-03-2020 21:58:17 2.2 C 45 %
853 03-03-2020 22:08:17 1.9 C 46 %
854 03-03-2020 22:18:17 1.5 C 46 %
855 03-03-2020 22:28:17 1.4 C 47 %
856 03-03-2020 22:38:17 1.2 C 47 %
857 03-03-2020 22:48:17 1 C 47 %
858 03-03-2020 22:58:17 1.2 C 48 %
859 03-03-2020 23:08:17 1.7 C 48 %
860 03-03-2020 23:18:18 2.3 C 46 %
861 03-03-2020 23:28:18 2.4 C 44 %
862 03-03-2020 23:38:17 2.6 C 44 %
863 03-03-2020 23:48:17 2.7 C 43 %
864 03-03-2020 23:58:17 2.8 C 43 %
865 04-03-2020 00:08:17 3.1 C 42 %
866 04-03-2020 00:18:18 3 C 41 %
867 04-03-2020 00:28:18 2.9 C 42 %
868 04-03-2020 00:38:18 3.1 C 41 %
869 04-03-2020 00:48:17 2.5 C 42 %
870 04-03-2020 00:58:17 2.3 C 44 %
871 04-03-2020 01:08:17 2.6 C 43 %
872 04-03-2020 01:18:17 2.6 C 42 %
873 04-03-2020 01:28:17 2.4 C 42 %
874 04-03-2020 01:38:17 2.5 C 42 %
875 04-03-2020 01:48:17 2.6 C 42 %
Sensor: Nr:Datum:Temp:Feuchte:
Aussen-T/F 876 04-03-2020 01:58:17 2.6 C 42 %
877 04-03-2020 02:08:17 2.7 C 42 %
878 04-03-2020 02:18:17 2.8 C 42 %
879 04-03-2020 02:28:18 2.7 C 42 %
880 04-03-2020 02:38:18 3.2 C 41 %
881 04-03-2020 02:48:17 3.6 C 40 %
882 04-03-2020 02:58:18 3.4 C 40 %
883 04-03-2020 03:08:17 3.3 C 40 %
884 04-03-2020 03:18:17 3 C 41 %
885 04-03-2020 03:28:17 3.2 C 41 %
886 04-03-2020 03:38:17 2.9 C 42 %
887 04-03-2020 03:48:17 2.6 C 42 %
888 04-03-2020 03:58:18 2.5 C 44 %
889 04-03-2020 04:08:18 3.4 C 41 %
890 04-03-2020 04:18:18 3.4 C 41 %
891 04-03-2020 04:28:18 3.6 C 40 %
892 04-03-2020 04:38:18 3.6 C 40 %
893 04-03-2020 04:48:17 3.7 C 40 %
894 04-03-2020 04:58:18 3.5 C 41 %
895 04-03-2020 05:08:18 3.4 C 41 %
896 04-03-2020 05:18:18 3.2 C 42 %
897 04-03-2020 05:28:18 3.1 C 44 %
898 04-03-2020 05:38:18 3.2 C 44 %
899 04-03-2020 05:48:17 3.2 C 43 %
900 04-03-2020 05:58:18 3.2 C 43 %
Sensor: Nr:Datum:Temp:Feuchte:
Aussen-T/F 901 04-03-2020 06:08:18 3.3 C 43 %
902 04-03-2020 06:18:18 3.3 C 42 %
903 04-03-2020 06:28:18 3.4 C 42 %
904 04-03-2020 06:38:18 3.6 C 42 %
905 04-03-2020 06:48:17 3.6 C 42 %
906 04-03-2020 06:58:17 3.7 C 41 %
907 04-03-2020 07:08:17 3.7 C 41 %
908 04-03-2020 07:18:17 3.9 C 41 %
909 04-03-2020 07:28:17 3.9 C 41 %
910 04-03-2020 07:38:18 4 C 40 %
911 04-03-2020 07:48:17 3.9 C 41 %
912 04-03-2020 07:58:17 3.7 C 41 %
913 04-03-2020 08:08:18 3.3 C 42 %
914 04-03-2020 08:18:17 3.4 C 42 %
915 04-03-2020 08:28:17 3.8 C 41 %
916 04-03-2020 08:38:18 3.7 C 41 %
917 04-03-2020 08:48:18 4.1 C 40 %
918 04-03-2020 08:58:18 3.7 C 41 %
919 04-03-2020 09:08:18 3.9 C 41 %
920 04-03-2020 09:18:18 4.2 C 40 %
921 04-03-2020 09:28:18 4.6 C 40 %
922 04-03-2020 09:38:18 4.7 C 39 %
923 04-03-2020 09:48:17 5.1 C 38 %
924 04-03-2020 09:58:18 5.4 C 37 %
925 04-03-2020 10:08:18 5.6 C 37 %
Sensor: Nr:Datum:Temp:Feuchte:
Aussen-T/F 926 04-03-2020 10:18:18 5.8 C 37 %
927 04-03-2020 10:28:18 6 C 36 %
928 04-03-2020 10:38:17 6.6 C 36 %
929 04-03-2020 10:48:18 6.4 C 36 %
930 04-03-2020 10:58:18 6.5 C 36 %
931 04-03-2020 11:08:18 6.8 C 35 %
932 04-03-2020 11:18:18 7.7 C 34 %
933 04-03-2020 11:28:18 8.2 C 33 %
934 04-03-2020 11:38:18 8.3 C 32 %
935 04-03-2020 11:48:18 8.8 C 32 %
936 04-03-2020 11:58:18 9.5 C 31 %
937 04-03-2020 12:08:18 9.6 C 31 %
938 04-03-2020 12:18:18 10.1 C 30 %
939 04-03-2020 12:28:18 9 C 30 %
940 04-03-2020 12:38:18 9.9 C 29 %
941 04-03-2020 12:48:17 10.9 C 28 %
942 04-03-2020 12:58:17 9.1 C 29 %
943 04-03-2020 13:08:17 9.3 C 28 %
944 04-03-2020 13:18:17 9.4 C 28 %
945 04-03-2020 13:28:17 10.7 C 27 %
946 04-03-2020 13:38:18 9.5 C 28 %
947 04-03-2020 13:48:17 9.6 C 28 %
948 04-03-2020 13:58:17 10.2 C 26 %
949 04-03-2020 14:08:18 10.6 C 26 %
950 04-03-2020 14:18:18 9.6 C 27 %
Sensor: Nr:Datum:Temp:Feuchte:
Aussen-T/F 951 04-03-2020 14:28:18 9.6 C 27 %
952 04-03-2020 14:38:18 10.1 C 26 %
953 04-03-2020 14:48:18 9.5 C 28 %
954 04-03-2020 14:58:18 9 C 28 %
955 04-03-2020 15:08:18 9.4 C 28 %
956 04-03-2020 15:18:18 9.5 C 28 %
957 04-03-2020 15:28:18 9.7 C 27 %
958 04-03-2020 15:38:18 9.4 C 29 %
959 04-03-2020 15:48:17 9.5 C 28 %
960 04-03-2020 15:58:18 10.6 C 26 %
961 04-03-2020 16:08:17 10.1 C 26 %
962 04-03-2020 16:18:17 10.9 C 26 %
963 04-03-2020 16:28:17 10 C 26 %
964 04-03-2020 16:38:17 10.9 C 26 %
965 04-03-2020 16:48:17 11 C 25 %
966 04-03-2020 16:58:17 11.5 C 25 %
967 04-03-2020 17:08:17 10.6 C 25 %
968 04-03-2020 17:18:17 8.8 C 27 %
969 04-03-2020 17:28:18 8 C 29 %
970 04-03-2020 17:38:18 7.3 C 32 %
971 04-03-2020 17:48:17 6.4 C 35 %
972 04-03-2020 17:58:17 5.7 C 36 %
973 04-03-2020 18:08:17 5.2 C 37 %
974 04-03-2020 18:18:17 4.8 C 38 %
975 04-03-2020 18:28:17 4.7 C 39 %
Sensor: Nr:Datum:Temp:Feuchte:
Aussen-T/F 976 04-03-2020 18:38:17 4.5 C 39 %
977 04-03-2020 18:48:17 4.3 C 39 %
978 04-03-2020 18:58:17 4 C 39 %
979 04-03-2020 19:08:17 3.9 C 40 %
980 04-03-2020 19:18:17 4 C 40 %
981 04-03-2020 19:28:17 4.1 C 40 %
982 04-03-2020 19:38:17 4.1 C 40 %
983 04-03-2020 19:48:18 4 C 40 %
984 04-03-2020 19:58:18 3.7 C 41 %
985 04-03-2020 20:08:17 3.8 C 41 %
986 04-03-2020 20:18:17 3.7 C 41 %
987 04-03-2020 20:28:17 3.4 C 41 %
988 04-03-2020 20:38:17 3.1 C 42 %
989 04-03-2020 20:48:18 3.1 C 42 %
990 04-03-2020 20:58:18 2.9 C 43 %
991 04-03-2020 21:08:18 3.3 C 42 %
992 04-03-2020 21:18:18 3 C 42 %
993 04-03-2020 21:28:18 3.1 C 42 %
994 04-03-2020 21:38:18 3.3 C 42 %
995 04-03-2020 21:48:18 3.1 C 42 %
996 04-03-2020 21:58:18 3.1 C 42 %
997 04-03-2020 22:08:18 2.6 C 44 %
998 04-03-2020 22:18:17 2.5 C 45 %
999 04-03-2020 22:28:17 2.4 C 45 %
1000 04-03-2020 22:38:17 2.9 C 46 %
Sensor: Nr:Datum:Temp:Feuchte:
Aussen-T/F 1001 04-03-2020 22:48:17 2.9 C 46 %
1002 04-03-2020 22:58:17 3.2 C 45 %
1003 04-03-2020 23:08:17 3.3 C 43 %
1004 04-03-2020 23:18:17 3.6 C 43 %
1005 04-03-2020 23:28:18 3.5 C 43 %
1006 04-03-2020 23:38:18 3.6 C 43 %
1007 04-03-2020 23:48:18 3.7 C 45 %
1008 04-03-2020 23:58:18 3.6 C 45 %
1009 05-03-2020 00:08:18 3.6 C 46 %
1010 05-03-2020 00:18:18 3.6 C 46 %
1011 05-03-2020 00:28:18 3.8 C 47 %
1012 05-03-2020 00:38:17 3.8 C 47 %
1013 05-03-2020 00:48:17 3.6 C 47 %
1014 05-03-2020 00:58:17 3.5 C 47 %
1015 05-03-2020 01:08:17 3.5 C 47 %
1016 05-03-2020 01:18:17 3.5 C 47 %
1017 05-03-2020 01:28:17 3.4 C 47 %
1018 05-03-2020 01:38:17 3.4 C 47 %
1019 05-03-2020 01:48:18 3.5 C 47 %
1020 05-03-2020 01:58:18 3.5 C 47 %
1021 05-03-2020 02:08:18 3.6 C 46 %
1022 05-03-2020 02:18:18 3.7 C 46 %
1023 05-03-2020 02:28:18 3.7 C 45 %
1024 05-03-2020 02:38:18 3.7 C 44 %
1025 05-03-2020 02:48:18 3.9 C 43 %
Sensor: Nr:Datum:Temp:Feuchte:
Aussen-T/F 1026 05-03-2020 02:58:18 3.9 C 43 %
1027 05-03-2020 03:08:18 4 C 42 %
1028 05-03-2020 03:18:17 4.1 C 42 %
1029 05-03-2020 03:28:17 4 C 41 %
1030 05-03-2020 03:38:17 4.1 C 41 %
1031 05-03-2020 03:48:17 4 C 42 %
1032 05-03-2020 03:58:17 3.8 C 43 %
1033 05-03-2020 04:08:17 3.8 C 44 %
1034 05-03-2020 04:18:17 3.9 C 44 %
1035 05-03-2020 04:28:18 3.9 C 43 %
1036 05-03-2020 04:38:18 3.9 C 43 %
1037 05-03-2020 04:48:17 3.8 C 43 %
1038 05-03-2020 04:58:18 3.8 C 43 %
1039 05-03-2020 05:08:18 3.9 C 44 %
1040 05-03-2020 05:18:18 3.9 C 44 %
1041 05-03-2020 05:28:18 3.8 C 44 %
1042 05-03-2020 05:38:18 3.9 C 44 %
1043 05-03-2020 05:48:17 3.7 C 44 %
1044 05-03-2020 05:58:18 3.9 C 44 %
1045 05-03-2020 06:08:18 4 C 43 %
1046 05-03-2020 06:18:18 3.9 C 43 %
1047 05-03-2020 06:28:18 4 C 42 %
1048 05-03-2020 06:38:18 4 C 42 %
1049 05-03-2020 06:48:17 4.1 C 42 %
1050 05-03-2020 06:58:17 4.1 C 42 %
Sensor: Nr:Datum:Temp:Feuchte:
Aussen-T/F 1051 05-03-2020 07:08:18 4.2 C 42 %
1052 05-03-2020 07:18:17 4.3 C 42 %
1053 05-03-2020 07:28:18 4.4 C 42 %
1054 05-03-2020 07:38:18 4.5 C 41 %
1055 05-03-2020 07:48:17 4.7 C 41 %
1056 05-03-2020 07:58:17 4.8 C 41 %
1057 05-03-2020 08:08:18 4.7 C 41 %
1058 05-03-2020 08:18:18 4.8 C 41 %
1059 05-03-2020 08:28:18 4.8 C 41 %
1060 05-03-2020 08:38:17 5.1 C 40 %
1061 05-03-2020 08:48:17 5.3 C 40 %
1062 05-03-2020 08:58:17 5.4 C 40 %
1063 05-03-2020 09:08:17 5.9 C 40 %
1064 05-03-2020 09:18:17 6.1 C 38 %
1065 05-03-2020 09:28:17 6.4 C 38 %
1066 05-03-2020 09:38:17 6.4 C 38 %
1067 05-03-2020 09:48:17 6.6 C 38 %
1068 05-03-2020 09:58:17 6.6 C 38 %
1069 05-03-2020 10:08:18 6.9 C 38 %
1070 05-03-2020 10:18:17 6.4 C 38 %
1071 05-03-2020 10:28:17 6.3 C 38 %
1072 05-03-2020 10:38:18 6.2 C 38 %
1073 05-03-2020 10:48:18 6.3 C 39 %
1074 05-03-2020 10:58:18 6.7 C 38 %
1075 05-03-2020 11:08:17 7 C 38 %
Sensor: Nr:Datum:Temp:Feuchte:
Aussen-T/F 1076 05-03-2020 11:18:17 7.1 C 37 %
1077 05-03-2020 11:28:17 7.3 C 37 %
1078 05-03-2020 11:38:18 7.7 C 37 %
1079 05-03-2020 11:48:18 7.8 C 37 %
1080 05-03-2020 11:58:18 7.4 C 37 %
1081 05-03-2020 12:08:17 7.5 C 37 %
1082 05-03-2020 12:18:17 7.5 C 37 %
1083 05-03-2020 12:28:18 6.9 C 38 %
1084 05-03-2020 12:38:18 7.1 C 38 %
1085 05-03-2020 12:48:17 7 C 39 %
1086 05-03-2020 12:58:17 6.8 C 40 %
1087 05-03-2020 13:08:17 6.8 C 41 %
1088 05-03-2020 13:18:17 6.9 C 41 %
1089 05-03-2020 13:28:17 6.9 C 41 %
1090 05-03-2020 13:38:17 7 C 41 %
1091 05-03-2020 13:48:17 6.6 C 42 %
1092 05-03-2020 13:58:17 6.4 C 42 %
1093 05-03-2020 14:08:17 6.4 C 43 %
1094 05-03-2020 14:18:17 6.4 C 43 %
1095 05-03-2020 14:28:17 6.3 C 42 %
1096 05-03-2020 14:38:17 6.3 C 43 %
1097 05-03-2020 14:48:18 6.3 C 44 %
1098 05-03-2020 14:58:18 6.3 C 44 %
1099 05-03-2020 15:08:18 6.3 C 45 %
1100 05-03-2020 15:18:18 6.3 C 45 %
Sensor: Nr:Datum:Temp:Feuchte:
Aussen-T/F 1101 05-03-2020 15:28:18 6.3 C 45 %
1102 05-03-2020 15:38:18 6.4 C 45 %
1103 05-03-2020 15:48:17 6.5 C 45 %
1104 05-03-2020 15:58:17 6.7 C 45 %
1105 05-03-2020 16:08:17 6.7 C 44 %
1106 05-03-2020 16:18:17 6.7 C 43 %
1107 05-03-2020 16:28:17 6.5 C 43 %
1108 05-03-2020 16:38:17 6.4 C 43 %
1109 05-03-2020 16:48:18 6.3 C 44 %
1110 05-03-2020 16:58:18 6.2 C 45 %
1111 05-03-2020 17:08:17 6.1 C 45 %
1112 05-03-2020 17:18:17 6 C 45 %
1113 05-03-2020 17:28:17 6 C 45 %
1114 05-03-2020 17:38:17 5.9 C 46 %
1115 05-03-2020 17:48:17 5.9 C 46 %
1116 05-03-2020 17:58:17 5.9 C 46 %
1117 05-03-2020 18:08:18 5.8 C 46 %
1118 05-03-2020 18:18:17 5.9 C 46 %
1119 05-03-2020 18:28:17 5.8 C 46 %
1120 05-03-2020 18:38:17 5.7 C 46 %
1121 05-03-2020 18:48:17 5.7 C 46 %
1122 05-03-2020 18:58:17 5.7 C 46 %
1123 05-03-2020 19:08:18 5.7 C 46 %
1124 05-03-2020 19:18:17 5.6 C 46 %
1125 05-03-2020 19:28:17 5.5 C 46 %
Sensor: Nr:Datum:Temp:Feuchte:
Aussen-T/F 1126 05-03-2020 19:38:17 5.5 C 46 %
1127 05-03-2020 19:48:18 5.7 C 46 %
1128 05-03-2020 19:58:18 5.7 C 46 %
1129 05-03-2020 20:08:17 5.8 C 45 %
1130 05-03-2020 20:18:17 5.9 C 45 %
1131 05-03-2020 20:28:17 6.1 C 45 %
1132 05-03-2020 20:38:18 6.1 C 45 %
1133 05-03-2020 20:48:17 6 C 45 %
1134 05-03-2020 20:58:17 6 C 45 %
1135 05-03-2020 21:08:18 6.1 C 45 %
1136 05-03-2020 21:18:17 6.1 C 45 %
1137 05-03-2020 21:28:17 6.1 C 45 %
1138 05-03-2020 21:38:17 6.1 C 45 %
1139 05-03-2020 21:48:17 6 C 45 %
1140 05-03-2020 21:58:17 6.1 C 45 %
1141 05-03-2020 22:08:17 6 C 45 %
1142 05-03-2020 22:18:17 6.2 C 45 %
1143 05-03-2020 22:28:17 6.1 C 45 %
1144 05-03-2020 22:38:18 6 C 45 %
1145 05-03-2020 22:48:17 6.1 C 45 %
1146 05-03-2020 22:58:17 6 C 45 %
1147 05-03-2020 23:08:17 6.2 C 45 %
1148 05-03-2020 23:18:17 6.1 C 45 %
1149 05-03-2020 23:28:18 6.1 C 45 %
1150 05-03-2020 23:38:18 6.1 C 45 %
Sensor: Nr:Datum:Temp:Feuchte:
Aussen-T/F 1151 05-03-2020 23:48:18 6.1 C 45 %
1152 05-03-2020 23:58:18 6.1 C 44 %
1153 06-03-2020 00:08:17 6.1 C 44 %
1154 06-03-2020 00:18:17 6.2 C 44 %
1155 06-03-2020 00:28:18 6.2 C 44 %
1156 06-03-2020 00:38:18 6.2 C 44 %
1157 06-03-2020 00:48:17 6.3 C 44 %
1158 06-03-2020 00:58:17 6.4 C 44 %
1159 06-03-2020 01:08:18 6.6 C 44 %
1160 06-03-2020 01:18:17 6.7 C 44 %
1161 06-03-2020 01:28:17 7 C 43 %
1162 06-03-2020 01:38:18 7.1 C 43 %
1163 06-03-2020 01:48:17 7.3 C 40 %
1164 06-03-2020 01:58:18 6.9 C 40 %
1165 06-03-2020 02:08:18 6.9 C 40 %
1166 06-03-2020 02:18:18 6.9 C 40 %
1167 06-03-2020 02:28:18 6.5 C 40 %
1168 06-03-2020 02:38:17 6.4 C 41 %
1169 06-03-2020 02:48:17 6.4 C 40 %
1170 06-03-2020 02:58:17 6.4 C 40 %
1171 06-03-2020 03:08:17 6.2 C 40 %
1172 06-03-2020 03:18:18 6.2 C 40 %
1173 06-03-2020 03:28:18 6.4 C 40 %
1174 06-03-2020 03:38:18 6 C 40 %
1175 06-03-2020 03:48:17 5.8 C 41 %
Sensor: Nr:Datum:Temp:Feuchte:
Aussen-T/F 1176 06-03-2020 03:58:18 5.6 C 43 %
1177 06-03-2020 04:08:17 5.5 C 44 %
1178 06-03-2020 04:18:17 5.4 C 45 %
1179 06-03-2020 04:28:17 5.5 C 45 %
1180 06-03-2020 04:38:18 5.4 C 45 %
1181 06-03-2020 04:48:17 5.4 C 46 %
1182 06-03-2020 04:58:18 5.5 C 45 %
1183 06-03-2020 05:08:18 5.6 C 44 %
1184 06-03-2020 05:18:18 5.6 C 44 %
1185 06-03-2020 05:28:18 5.6 C 45 %
1186 06-03-2020 05:38:18 5.8 C 44 %
1187 06-03-2020 05:48:17 5.8 C 44 %
1188 06-03-2020 05:58:17 5.8 C 44 %
1189 06-03-2020 06:08:17 5.8 C 45 %
1190 06-03-2020 06:18:17 5.8 C 45 %
1191 06-03-2020 06:28:17 5.9 C 45 %
1192 06-03-2020 06:38:18 6 C 44 %
1193 06-03-2020 06:48:17 6 C 44 %
1194 06-03-2020 06:58:17 6.1 C 45 %
1195 06-03-2020 07:08:17 6 C 45 %
1196 06-03-2020 07:18:18 6 C 45 %
1197 06-03-2020 07:28:18 6 C 45 %
1198 06-03-2020 07:38:18 6 C 45 %
1199 06-03-2020 07:48:17 5.9 C 45 %
1200 06-03-2020 07:58:18 5.6 C 43 %
Sensor: Nr:Datum:Temp:Feuchte:
Aussen-T/F 1201 06-03-2020 08:08:17 5.3 C 42 %
1202 06-03-2020 08:18:17 5 C 41 %
1203 06-03-2020 08:28:17 4.9 C 42 %
1204 06-03-2020 08:38:17 4.9 C 43 %
1205 06-03-2020 08:48:18 4.8 C 44 %
1206 06-03-2020 08:58:18 4.8 C 44 %
1207 06-03-2020 09:08:17 4.9 C 44 %
1208 06-03-2020 09:18:17 4.9 C 43 %
1209 06-03-2020 09:28:17 4.9 C 42 %
1210 06-03-2020 09:38:18 4.8 C 42 %
1211 06-03-2020 09:48:18 4.9 C 42 %
1212 06-03-2020 09:58:18 4.8 C 41 %
1213 06-03-2020 10:08:18 4.9 C 41 %
1214 06-03-2020 10:18:18 4.7 C 42 %
1215 06-03-2020 10:28:18 4.7 C 41 %
1216 06-03-2020 10:38:18 4.7 C 41 %
1217 06-03-2020 10:48:17 4.8 C 41 %
1218 06-03-2020 10:58:18 4.9 C 41 %
1219 06-03-2020 11:08:18 5 C 40 %
1220 06-03-2020 11:18:18 5.2 C 40 %
1221 06-03-2020 11:28:18 5.3 C 40 %
1222 06-03-2020 11:38:18 5.1 C 40 %
1223 06-03-2020 11:48:17 4.9 C 41 %
1224 06-03-2020 11:58:17 4.7 C 41 %
1225 06-03-2020 12:08:17 4.6 C 41 %
Sensor: Nr:Datum:Temp:Feuchte:
Aussen-T/F 1226 06-03-2020 12:18:17 4.5 C 41 %
1227 06-03-2020 12:28:17 4.6 C 41 %
1228 06-03-2020 12:38:18 4.4 C 41 %
1229 06-03-2020 12:48:18 4.6 C 41 %
1230 06-03-2020 12:58:18 4.5 C 41 %
1231 06-03-2020 13:08:18 4.7 C 41 %
1232 06-03-2020 13:18:18 5 C 40 %
1233 06-03-2020 13:28:18 5.1 C 40 %
1234 06-03-2020 13:38:17 5.3 C 40 %
1235 06-03-2020 13:48:17 5.1 C 40 %
1236 06-03-2020 13:58:17 5 C 40 %
1237 06-03-2020 14:08:17 4.8 C 41 %
1238 06-03-2020 14:18:17 4.8 C 41 %
1239 06-03-2020 14:28:17 4.8 C 41 %
1240 06-03-2020 14:38:17 5 C 40 %
1241 06-03-2020 14:48:17 5.3 C 40 %
1242 06-03-2020 14:58:17 5.3 C 40 %
1243 06-03-2020 15:08:17 5.4 C 39 %
1244 06-03-2020 15:18:17 5.6 C 39 %
1245 06-03-2020 15:28:17 5.8 C 39 %
1246 06-03-2020 15:38:18 5.9 C 38 %
1247 06-03-2020 15:48:17 5.8 C 38 %
1248 06-03-2020 15:58:17 6 C 37 %
1249 06-03-2020 16:08:17 6.1 C 37 %
1250 06-03-2020 16:18:18 6.1 C 37 %
Sensor: Nr:Datum:Temp:Feuchte:
Aussen-T/F 1251 06-03-2020 16:28:18 6.1 C 37 %
1252 06-03-2020 16:38:18 6.1 C 38 %
1253 06-03-2020 16:48:17 6 C 38 %
1254 06-03-2020 16:58:17 6.3 C 38 %
1255 06-03-2020 17:08:18 6.5 C 38 %
1256 06-03-2020 17:18:18 6.9 C 37 %
1257 06-03-2020 17:28:18 6.8 C 37 %
1258 06-03-2020 17:38:18 6.8 C 37 %
1259 06-03-2020 17:48:17 6.9 C 37 %
1260 06-03-2020 17:58:18 6.7 C 37 %
1261 06-03-2020 18:08:18 6.8 C 37 %
1262 06-03-2020 18:18:18 6.6 C 37 %
1263 06-03-2020 18:28:18 5.9 C 38 %
1264 06-03-2020 18:38:18 6 C 37 %
1265 06-03-2020 18:48:17 6.5 C 37 %
1266 06-03-2020 18:58:18 6.4 C 37 %
1267 06-03-2020 19:08:18 6.5 C 37 %
1268 06-03-2020 19:18:18 6.3 C 37 %
1269 06-03-2020 19:28:18 6.2 C 37 %
1270 06-03-2020 19:38:18 6.3 C 37 %
1271 06-03-2020 19:48:17 6.3 C 37 %
1272 06-03-2020 19:58:17 6.2 C 36 %
1273 06-03-2020 20:08:18 6.2 C 36 %
1274 06-03-2020 20:18:18 5.9 C 37 %
1275 06-03-2020 20:28:18 5.7 C 37 %
Sensor: Nr:Datum:Temp:Feuchte:
Aussen-T/F 1276 06-03-2020 20:38:18 5.5 C 38 %
1277 06-03-2020 20:48:17 5.4 C 38 %
1278 06-03-2020 20:58:17 5.2 C 38 %
1279 06-03-2020 21:08:17 5.3 C 38 %
1280 06-03-2020 21:18:18 5.1 C 38 %
1281 06-03-2020 21:28:18 5.2 C 38 %
1282 06-03-2020 21:38:18 5.2 C 37 %
1283 06-03-2020 21:48:17 4.9 C 38 %
1284 06-03-2020 21:58:18 4.7 C 39 %
1285 06-03-2020 22:08:17 4.8 C 39 %
1286 06-03-2020 22:18:17 5.1 C 38 %
1287 06-03-2020 22:28:18 5 C 38 %
1288 06-03-2020 22:38:18 5.2 C 38 %
1289 06-03-2020 22:48:17 5.3 C 38 %
1290 06-03-2020 22:58:17 5.3 C 38 %
1291 06-03-2020 23:08:18 5.2 C 38 %
1292 06-03-2020 23:18:18 5.3 C 38 %
1293 06-03-2020 23:28:18 5.2 C 37 %
1294 06-03-2020 23:38:17 5.3 C 37 %
1295 06-03-2020 23:48:17 5.3 C 37 %
1296 06-03-2020 23:58:17 5.1 C 38 %
1297 07-03-2020 00:08:17 5.1 C 37 %
1298 07-03-2020 00:18:18 5.1 C 37 %
1299 07-03-2020 00:28:18 5.1 C 37 %
1300 07-03-2020 00:38:17 5.1 C 37 %
Sensor: Nr:Datum:Temp:Feuchte:
Aussen-T/F 1301 07-03-2020 00:48:17 5.1 C 37 %
1302 07-03-2020 00:58:17 5 C 37 %
1303 07-03-2020 01:08:17 5.1 C 38 %
1304 07-03-2020 01:18:17 5.1 C 38 %
1305 07-03-2020 01:28:17 5.1 C 38 %
1306 07-03-2020 01:38:18 5.3 C 37 %
1307 07-03-2020 01:48:18 5.2 C 38 %
1308 07-03-2020 01:58:18 5.2 C 38 %
1309 07-03-2020 02:08:18 5.2 C 38 %
1310 07-03-2020 02:18:17 5.3 C 38 %
1311 07-03-2020 02:28:17 5.1 C 38 %
1312 07-03-2020 02:38:17 5.1 C 38 %
1313 07-03-2020 02:48:18 5.1 C 38 %
1314 07-03-2020 02:58:18 5.1 C 38 %
1315 07-03-2020 03:08:18 4.9 C 39 %
1316 07-03-2020 03:18:17 4.7 C 40 %
1317 07-03-2020 03:28:17 4.6 C 40 %
1318 07-03-2020 03:38:17 4.7 C 40 %
1319 07-03-2020 03:48:17 4.7 C 39 %
1320 07-03-2020 03:58:17 4.6 C 40 %
1321 07-03-2020 04:08:18 4.6 C 40 %
1322 07-03-2020 04:18:17 4.7 C 40 %
1323 07-03-2020 04:28:17 4.8 C 39 %
1324 07-03-2020 04:38:18 4.7 C 39 %
1325 07-03-2020 04:48:17 4.7 C 39 %
Sensor: Nr:Datum:Temp:Feuchte:
Aussen-T/F 1326 07-03-2020 04:58:18 4.7 C 39 %
1327 07-03-2020 05:08:18 4.6 C 39 %
1328 07-03-2020 05:18:18 4.6 C 39 %
1329 07-03-2020 05:28:18 4.6 C 39 %
1330 07-03-2020 05:38:18 4.6 C 39 %
1331 07-03-2020 05:48:18 4.5 C 39 %
1332 07-03-2020 05:58:18 4.5 C 39 %
1333 07-03-2020 06:08:17 4.6 C 39 %
1334 07-03-2020 06:18:17 4.6 C 40 %
1335 07-03-2020 06:28:17 4.6 C 39 %
1336 07-03-2020 06:38:18 4.5 C 39 %
1337 07-03-2020 06:48:17 4.5 C 39 %
1338 07-03-2020 06:58:17 4.5 C 39 %
1339 07-03-2020 07:08:18 4.5 C 39 %
1340 07-03-2020 07:18:18 4.4 C 39 %
1341 07-03-2020 07:28:18 4.4 C 39 %
1342 07-03-2020 07:38:18 4.3 C 40 %
1343 07-03-2020 07:48:17 4 C 40 %
1344 07-03-2020 07:58:17 3.7 C 42 %
1345 07-03-2020 08:08:18 3.7 C 45 %
1346 07-03-2020 08:18:17 3.7 C 44 %
1347 07-03-2020 08:28:17 3.9 C 43 %
1348 07-03-2020 08:38:17 4 C 42 %
1349 07-03-2020 08:48:17 4.4 C 41 %
1350 07-03-2020 08:58:17 4.7 C 40 %
Sensor: Nr:Datum:Temp:Feuchte:
Aussen-T/F 1351 07-03-2020 09:08:17 5.1 C 38 %
1352 07-03-2020 09:18:17 5.3 C 37 %
1353 07-03-2020 09:28:17 5.6 C 37 %
1354 07-03-2020 09:38:17 5.7 C 36 %
1355 07-03-2020 09:48:17 6.3 C 36 %
1356 07-03-2020 09:58:17 6.5 C 35 %
1357 07-03-2020 10:08:17 6.1 C 35 %
1358 07-03-2020 10:18:17 5.7 C 36 %
1359 07-03-2020 10:28:17 6.5 C 36 %
1360 07-03-2020 10:38:17 6.4 C 35 %
1361 07-03-2020 10:48:18 7 C 35 %
1362 07-03-2020 10:58:18 7.3 C 35 %
1363 07-03-2020 11:08:18 7.3 C 34 %
1364 07-03-2020 11:18:18 7.8 C 32 %
1365 07-03-2020 11:28:18 7.6 C 31 %
1366 07-03-2020 11:38:18 7.8 C 30 %
1367 07-03-2020 11:48:17 9.7 C 25 %
1368 07-03-2020 11:58:18 7.6 C 29 %
1369 07-03-2020 12:08:18 7.6 C 29 %
1370 07-03-2020 12:18:18 7.8 C 29 %
1371 07-03-2020 12:28:18 7.8 C 30 %
1372 07-03-2020 12:38:17 8.2 C 30 %
1373 07-03-2020 12:48:18 7.5 C 28 %
1374 07-03-2020 12:58:18 8 C 27 %
1375 07-03-2020 13:08:17 9.5 C 26 %
Sensor: Nr:Datum:Temp:Feuchte:
Aussen-T/F 1376 07-03-2020 13:18:18 9.1 C 21 %
1377 07-03-2020 13:28:18 9.1 C 25 %
1378 07-03-2020 13:38:18 8.8 C 26 %
1379 07-03-2020 13:48:18 9.1 C 26 %
1380 07-03-2020 13:58:18 10 C 25 %
1381 07-03-2020 14:08:17 8.9 C 26 %
1382 07-03-2020 14:18:17 10.5 C 20 %
1383 07-03-2020 14:28:17 10.1 C 20 %
1384 07-03-2020 14:38:18 9.8 C 20 %
1385 07-03-2020 14:48:17 11.6 C 20 %
1386 07-03-2020 14:58:18 11.5 C 20 %
1387 07-03-2020 15:08:18 12.4 C 20 %
1388 07-03-2020 15:18:18 11.1 C 20 %
1389 07-03-2020 15:28:18 9.8 C 20 %
1390 07-03-2020 15:38:17 12.4 C 20 %
1391 07-03-2020 15:48:18 10.8 C 20 %
1392 07-03-2020 15:58:18 9.5 C 20 %
1393 07-03-2020 16:08:17 11.7 C 20 %
1394 07-03-2020 16:18:17 10.4 C 20 %
1395 07-03-2020 16:28:17 9.6 C 20 %
1396 07-03-2020 16:38:17 9.1 C 20 %
1397 07-03-2020 16:48:18 8.9 C 20 %
1398 07-03-2020 16:58:18 8.8 C 20 %
1399 07-03-2020 17:08:18 8.8 C 20 %
1400 07-03-2020 17:18:18 8.5 C 20 %
Sensor: Nr:Datum:Temp:Feuchte:
Aussen-T/F 1401 07-03-2020 17:28:18 8.5 C 20 %
1402 07-03-2020 17:38:18 8.6 C 25 %
1403 07-03-2020 17:48:18 8.4 C 25 %
1404 07-03-2020 17:58:18 7.1 C 31 %
1405 07-03-2020 18:08:17 6.7 C 31 %
1406 07-03-2020 18:19:17 6.3 C 33 %
1407 07-03-2020 18:28:17 5.7 C 34 %
1408 07-03-2020 18:38:18 5.2 C 35 %
1409 07-03-2020 18:48:18 4.9 C 36 %
1410 07-03-2020 18:58:18 5 C 35 %
1411 07-03-2020 19:08:17 4.9 C 36 %
1412 07-03-2020 19:18:17 4.7 C 36 %
1413 07-03-2020 19:28:17 4.4 C 37 %
1414 07-03-2020 19:38:17 4.5 C 37 %
1415 07-03-2020 19:48:18 4.7 C 37 %
1416 07-03-2020 19:58:18 4.5 C 37 %
1417 07-03-2020 20:08:18 4.2 C 38 %
1418 07-03-2020 20:18:17 4.4 C 38 %
1419 07-03-2020 20:28:17 4.6 C 39 %
1420 07-03-2020 20:38:17 4.6 C 38 %
1421 07-03-2020 20:49:17 4.5 C 38 %
1422 07-03-2020 20:59:17 4.5 C 38 %
1423 07-03-2020 21:09:17 4.5 C 39 %
1424 07-03-2020 21:18:17 4.5 C 39 %
1425 07-03-2020 21:28:17 4.7 C 39 %
Sensor: Nr:Datum:Temp:Feuchte:
Aussen-T/F 1426 07-03-2020 21:38:17 4.7 C 38 %
1427 07-03-2020 21:48:18 5.1 C 37 %
1428 07-03-2020 21:58:18 5.1 C 37 %
1429 07-03-2020 22:08:17 5.3 C 37 %
1430 07-03-2020 22:18:18 5.5 C 36 %
1431 07-03-2020 22:28:18 5.6 C 36 %
1432 07-03-2020 22:38:17 5.5 C 36 %
1433 07-03-2020 22:49:17 5.5 C 36 %
1434 07-03-2020 22:59:17 5.8 C 36 %
1435 07-03-2020 23:09:17 6.2 C 35 %
1436 07-03-2020 23:19:17 6.3 C 35 %
1437 07-03-2020 23:29:17 6.4 C 35 %
1438 07-03-2020 23:38:17 6.4 C 34 %
1439 07-03-2020 23:48:18 6.4 C 34 %
1440 07-03-2020 23:58:18 6.5 C 34 %
1441 08-03-2020 00:08:18 6.5 C 35 %
1442 08-03-2020 00:18:18 6.4 C 35 %
1443 08-03-2020 00:28:18 6.8 C 35 %
1444 08-03-2020 00:38:18 6.7 C 35 %
1445 08-03-2020 00:48:18 7 C 34 %
1446 08-03-2020 00:58:18 7.1 C 35 %
1447 08-03-2020 01:08:17 7.1 C 34 %
1448 08-03-2020 01:18:17 6.8 C 35 %
1449 08-03-2020 01:28:17 6.9 C 35 %
1450 08-03-2020 01:38:17 6.7 C 35 %
Sensor: Nr:Datum:Temp:Feuchte:
Aussen-T/F 1451 08-03-2020 01:49:17 6.9 C 35 %
1452 08-03-2020 01:59:17 6.7 C 35 %
1453 08-03-2020 02:09:17 6.8 C 35 %
1454 08-03-2020 02:19:17 7 C 35 %
1455 08-03-2020 02:29:17 6.9 C 35 %
1456 08-03-2020 02:38:17 7.3 C 35 %
1457 08-03-2020 02:48:17 7.2 C 35 %
1458 08-03-2020 02:58:17 7 C 35 %
1459 08-03-2020 03:08:18 7.1 C 35 %
1460 08-03-2020 03:19:17 6.7 C 35 %
1461 08-03-2020 03:29:17 6.4 C 36 %
1462 08-03-2020 03:39:17 6.5 C 36 %
1463 08-03-2020 03:48:18 6.6 C 36 %
1464 08-03-2020 03:58:18 6.8 C 35 %
1465 08-03-2020 04:08:18 7 C 35 %
1466 08-03-2020 04:19:17 7.1 C 35 %
1467 08-03-2020 04:29:17 7 C 35 %
1468 08-03-2020 04:39:17 7 C 35 %
1469 08-03-2020 04:49:17 6.8 C 35 %
1470 08-03-2020 04:59:17 6.9 C 35 %
1471 08-03-2020 05:09:17 7 C 35 %
1472 08-03-2020 05:19:17 6.8 C 35 %
1473 08-03-2020 05:29:17 6.5 C 35 %
1474 08-03-2020 05:39:17 6.8 C 35 %
1475 08-03-2020 05:49:17 6.6 C 35 %
Sensor: Nr:Datum:Temp:Feuchte:
Aussen-T/F 1476 08-03-2020 05:59:17 6.4 C 35 %
1477 08-03-2020 06:09:17 6.4 C 35 %
1478 08-03-2020 06:19:17 5.9 C 37 %
1479 08-03-2020 06:29:18 6.3 C 36 %
1480 08-03-2020 06:39:18 6.6 C 36 %
1481 08-03-2020 06:49:17 6.9 C 36 %
1482 08-03-2020 06:59:17 7.3 C 35 %
1483 08-03-2020 07:09:17 7.4 C 35 %
1484 08-03-2020 07:19:17 7.7 C 35 %
1485 08-03-2020 07:29:17 7.8 C 35 %
1486 08-03-2020 07:39:17 7.9 C 35 %
1487 08-03-2020 07:49:17 8 C 35 %
1488 08-03-2020 07:59:17 8.2 C 34 %
1489 08-03-2020 08:09:17 8.2 C 34 %
1490 08-03-2020 08:19:17 8.4 C 34 %
1491 08-03-2020 08:29:17 8.6 C 34 %
1492 08-03-2020 08:39:17 8.5 C 35 %
1493 08-03-2020 08:49:17 8.6 C 34 %
1494 08-03-2020 08:59:17 8.6 C 34 %
1495 08-03-2020 09:09:17 8.6 C 34 %
1496 08-03-2020 09:19:17 8.8 C 34 %
1497 08-03-2020 09:29:18 9.2 C 33 %
1498 08-03-2020 09:39:17 9.6 C 33 %
1499 08-03-2020 09:49:17 10.3 C 32 %
1500 08-03-2020 09:59:17 10.2 C 32 %
Sensor: Nr:Datum:Temp:Feuchte:
Aussen-T/F 1501 08-03-2020 10:09:17 9.9 C 33 %
1502 08-03-2020 10:19:17 10.1 C 32 %
1503 08-03-2020 10:29:17 10.1 C 32 %
1504 08-03-2020 10:39:17 11.4 C 30 %
1505 08-03-2020 10:49:17 11.2 C 30 %
1506 08-03-2020 10:59:18 11.9 C 30 %
1507 08-03-2020 11:09:17 11.9 C 28 %
1508 08-03-2020 11:19:16 11.9 C 29 %
1509 08-03-2020 11:29:16 12.1 C 27 %
1510 08-03-2020 11:39:17 12.5 C 26 %
1511 08-03-2020 11:49:16 12.5 C 26 %
1512 08-03-2020 11:59:16 13.4 C 25 %
1513 08-03-2020 12:09:17 12.8 C 25 %
1514 08-03-2020 12:19:17 13.1 C 25 %
1515 08-03-2020 12:29:17 13.5 C 23 %
1516 08-03-2020 12:39:17 13.2 C 24 %
1517 08-03-2020 12:49:17 14.1 C 22 %
1518 08-03-2020 12:59:18 13.2 C 22 %
1519 08-03-2020 13:09:17 12.2 C 25 %
1520 08-03-2020 13:19:16 12.3 C 25 %
1521 08-03-2020 13:29:16 12.3 C 25 %
1522 08-03-2020 13:39:16 12.7 C 25 %
1523 08-03-2020 13:49:17 12.7 C 25 %
1524 08-03-2020 13:59:17 12.5 C 25 %
1525 08-03-2020 14:09:17 13 C 23 %
Sensor: Nr:Datum:Temp:Feuchte:
Aussen-T/F 1526 08-03-2020 14:19:16 12.8 C 25 %
1527 08-03-2020 14:29:16 12.5 C 25 %
1528 08-03-2020 14:39:16 12.8 C 25 %
1529 08-03-2020 14:49:16 12.7 C 25 %
1530 08-03-2020 14:59:16 12.3 C 25 %
1531 08-03-2020 15:09:16 12.8 C 25 %
1532 08-03-2020 15:19:17 12.5 C 25 %
1533 08-03-2020 15:29:17 12.5 C 25 %
1534 08-03-2020 15:39:17 12.1 C 25 %
1535 08-03-2020 15:49:17 12 C 25 %
1536 08-03-2020 15:59:17 12.1 C 25 %
1537 08-03-2020 16:09:17 12.5 C 25 %
1538 08-03-2020 16:19:17 12.4 C 25 %
1539 08-03-2020 16:29:17 12.1 C 25 %
1540 08-03-2020 16:39:17 12.2 C 26 %
1541 08-03-2020 16:49:17 12.2 C 26 %
1542 08-03-2020 16:59:17 12 C 26 %
1543 08-03-2020 17:09:17 12.6 C 25 %
1544 08-03-2020 17:19:17 12.4 C 26 %
1545 08-03-2020 17:29:17 12.3 C 26 %
1546 08-03-2020 17:39:17 12 C 26 %
1547 08-03-2020 17:49:16 11.5 C 28 %
1548 08-03-2020 17:59:16 11.4 C 29 %
1549 08-03-2020 18:09:17 11.1 C 30 %
1550 08-03-2020 18:19:17 10.9 C 31 %
Sensor: Nr:Datum:Temp:Feuchte:
Aussen-T/F 1551 08-03-2020 18:29:18 10.7 C 31 %
1552 08-03-2020 18:39:17 10.4 C 32 %
1553 08-03-2020 18:49:16 10.2 C 32 %
1554 08-03-2020 18:59:16 9.6 C 35 %
1555 08-03-2020 19:09:17 9.9 C 35 %
1556 08-03-2020 19:19:16 9.8 C 35 %
1557 08-03-2020 19:29:16 9.6 C 36 %
1558 08-03-2020 19:39:17 9.4 C 36 %
1559 08-03-2020 19:49:16 9.5 C 36 %
1560 08-03-2020 19:59:16 9.5 C 36 %
1561 08-03-2020 20:09:16 9.4 C 36 %
1562 08-03-2020 20:19:16 9.3 C 36 %
1563 08-03-2020 20:29:16 9.3 C 37 %
1564 08-03-2020 20:39:17 9.2 C 37 %
1565 08-03-2020 20:49:16 9.2 C 37 %
1566 08-03-2020 20:59:16 9 C 37 %
1567 08-03-2020 21:09:17 9 C 37 %
1568 08-03-2020 21:19:17 9.1 C 37 %
1569 08-03-2020 21:29:17 9.1 C 37 %
1570 08-03-2020 21:39:17 9.3 C 37 %
1571 08-03-2020 21:49:17 9.3 C 37 %
1572 08-03-2020 21:59:17 9.3 C 37 %
1573 08-03-2020 22:09:17 9.3 C 37 %
1574 08-03-2020 22:19:16 9.3 C 37 %
1575 08-03-2020 22:29:16 8.9 C 37 %
Sensor: Nr:Datum:Temp:Feuchte:
Aussen-T/F 1576 08-03-2020 22:39:17 9.2 C 37 %
1577 08-03-2020 22:49:16 8.7 C 37 %
1578 08-03-2020 22:59:16 9 C 37 %
1579 08-03-2020 23:09:16 9.3 C 37 %
1580 08-03-2020 23:19:16 7.9 C 39 %
1581 08-03-2020 23:29:16 7.8 C 40 %
1582 08-03-2020 23:39:16 7.9 C 40 %
1583 08-03-2020 23:49:16 7.9 C 39 %
1584 08-03-2020 23:59:16 7.6 C 40 %
1585 09-03-2020 00:09:17 7.3 C 41 %
1586 09-03-2020 00:19:16 7 C 41 %
1587 09-03-2020 00:29:16 6.8 C 43 %
1588 09-03-2020 00:39:16 6.8 C 44 %
1589 09-03-2020 00:49:16 6.6 C 45 %
1590 09-03-2020 00:59:16 6.8 C 43 %
1591 09-03-2020 01:09:16 6.9 C 42 %
1592 09-03-2020 01:19:16 6.9 C 43 %
1593 09-03-2020 01:29:16 6.7 C 45 %
1594 09-03-2020 01:39:16 6.8 C 43 %
1595 09-03-2020 01:49:16 6.9 C 42 %
1596 09-03-2020 01:59:16 6.7 C 43 %
1597 09-03-2020 02:09:16 6.6 C 43 %
1598 09-03-2020 02:19:16 6.4 C 44 %
1599 09-03-2020 02:29:16 6.3 C 45 %
1600 09-03-2020 02:39:16 6.2 C 45 %
Sensor: Nr:Datum:Temp:Feuchte:
Aussen-T/F 1601 09-03-2020 02:49:17 6.4 C 45 %
1602 09-03-2020 02:59:17 6.4 C 44 %
1603 09-03-2020 03:09:17 6.1 C 44 %
1604 09-03-2020 03:19:17 6.5 C 43 %
1605 09-03-2020 03:29:17 6.7 C 42 %
1606 09-03-2020 03:39:17 6.4 C 42 %
1607 09-03-2020 03:49:17 6.2 C 43 %
1608 09-03-2020 03:59:17 6 C 44 %
1609 09-03-2020 04:09:17 5.7 C 45 %
1610 09-03-2020 04:19:17 5.5 C 45 %
1611 09-03-2020 04:29:17 6.1 C 44 %
1612 09-03-2020 04:39:18 6.3 C 43 %
1613 09-03-2020 04:49:17 6.2 C 43 %
1614 09-03-2020 04:59:17 6.2 C 43 %
1615 09-03-2020 05:09:18 6.2 C 43 %
1616 09-03-2020 05:19:17 6 C 43 %
1617 09-03-2020 05:29:17 5.8 C 44 %
1618 09-03-2020 05:39:17 5.6 C 44 %
1619 09-03-2020 05:49:17 5.2 C 44 %
1620 09-03-2020 05:59:17 5.3 C 43 %
1621 09-03-2020 06:09:17 5 C 43 %
1622 09-03-2020 06:19:17 5.2 C 43 %
1623 09-03-2020 06:29:17 5.1 C 43 %
1624 09-03-2020 06:39:18 5.4 C 42 %
1625 09-03-2020 06:49:17 5.7 C 41 %
Sensor: Nr:Datum:Temp:Feuchte:
Aussen-T/F 1626 09-03-2020 06:59:18 5.7 C 41 %
1627 09-03-2020 07:09:18 5 C 42 %
1628 09-03-2020 07:19:18 4.7 C 44 %
1629 09-03-2020 07:29:18 5.7 C 42 %
1630 09-03-2020 07:39:17 5.8 C 41 %
1631 09-03-2020 07:49:17 5.4 C 41 %
1632 09-03-2020 07:59:17 5.4 C 42 %
1633 09-03-2020 08:09:17 5.4 C 42 %
1634 09-03-2020 08:19:17 5 C 43 %
1635 09-03-2020 08:29:17 5.3 C 43 %
1636 09-03-2020 08:39:18 6.1 C 41 %
1637 09-03-2020 08:49:17 6.8 C 40 %
1638 09-03-2020 08:59:17 7.3 C 38 %
1639 09-03-2020 09:09:17 7.4 C 38 %
1640 09-03-2020 09:19:17 7.7 C 37 %
1641 09-03-2020 09:29:17 8 C 37 %
1642 09-03-2020 09:39:17 8.1 C 37 %
1643 09-03-2020 09:49:17 8 C 37 %
1644 09-03-2020 09:59:17 7.8 C 37 %
1645 09-03-2020 10:09:17 8.3 C 36 %
1646 09-03-2020 10:19:17 8.2 C 36 %
1647 09-03-2020 10:29:17 8.5 C 36 %
1648 09-03-2020 10:39:17 8.6 C 36 %
1649 09-03-2020 10:49:17 8.5 C 36 %
1650 09-03-2020 10:59:17 8.1 C 36 %
Sensor: Nr:Datum:Temp:Feuchte:
Aussen-T/F 1651 09-03-2020 11:09:17 8.1 C 36 %
1652 09-03-2020 11:19:17 8.5 C 36 %
1653 09-03-2020 11:29:17 9.7 C 34 %
1654 09-03-2020 11:39:17 9.1 C 34 %
1655 09-03-2020 11:49:17 10.1 C 33 %
1656 09-03-2020 11:59:17 10.6 C 29 %
1657 09-03-2020 12:09:18 10.9 C 27 %
1658 09-03-2020 12:19:18 11.2 C 25 %
1659 09-03-2020 12:29:18 10.1 C 26 %
1660 09-03-2020 12:39:18 10.3 C 26 %
1661 09-03-2020 12:49:17 11 C 25 %
1662 09-03-2020 12:59:17 10.1 C 26 %
1663 09-03-2020 13:09:17 11.6 C 26 %
1664 09-03-2020 13:19:17 9.8 C 29 %
1665 09-03-2020 13:29:17 9.5 C 31 %
1666 09-03-2020 13:39:17 10.5 C 30 %
1667 09-03-2020 13:49:17 10.4 C 29 %
1668 09-03-2020 13:59:17 10.5 C 29 %
1669 09-03-2020 14:09:17 11.6 C 27 %
1670 09-03-2020 14:19:17 11.5 C 26 %
1671 09-03-2020 14:29:17 10.4 C 27 %
1672 09-03-2020 14:39:17 11.6 C 26 %
1673 09-03-2020 14:49:17 12.8 C 20 %
1674 09-03-2020 14:59:17 13.6 C 20 %
1675 09-03-2020 15:09:18 12.6 C 20 %
Sensor: Nr:Datum:Temp:Feuchte:
Aussen-T/F 1676 09-03-2020 15:19:18 13 C 20 %
1677 09-03-2020 15:29:18 12.9 C 20 %
1678 09-03-2020 15:39:18 14.4 C 20 %
1679 09-03-2020 15:49:17 14 C 20 %
1680 09-03-2020 15:59:17 12.5 C 20 %
1681 09-03-2020 16:09:18 11.2 C 20 %
1682 09-03-2020 16:19:17 10.5 C 22 %
1683 09-03-2020 16:29:17 10.7 C 23 %
1684 09-03-2020 16:39:17 13.3 C 20 %
1685 09-03-2020 16:49:17 14.2 C 20 %
1686 09-03-2020 16:59:18 14.1 C 20 %
1687 09-03-2020 17:09:18 12.2 C 20 %
1688 09-03-2020 17:19:17 10.1 C 20 %
1689 09-03-2020 17:29:17 9.9 C 25 %
1690 09-03-2020 17:39:18 9.8 C 25 %
1691 09-03-2020 17:49:17 9.7 C 27 %
1692 09-03-2020 17:59:18 9.7 C 26 %
1693 09-03-2020 18:09:18 9.5 C 27 %
1694 09-03-2020 18:19:17 9.2 C 28 %
1695 09-03-2020 18:29:17 8.9 C 30 %
1696 09-03-2020 18:39:17 8.7 C 30 %
1697 09-03-2020 18:49:17 8.1 C 30 %
1698 09-03-2020 18:59:17 7.7 C 32 %
1699 09-03-2020 19:09:18 7.5 C 33 %
1700 09-03-2020 19:19:17 7.4 C 33 %
Sensor: Nr:Datum:Temp:Feuchte:
Aussen-T/F 1701 09-03-2020 19:29:17 7.6 C 33 %
1702 09-03-2020 19:39:17 7.4 C 34 %
1703 09-03-2020 19:49:18 7.3 C 33 %
1704 09-03-2020 19:59:18 7.2 C 34 %
1705 09-03-2020 20:09:17 6.5 C 36 %
1706 09-03-2020 20:19:17 6.9 C 35 %
1707 09-03-2020 20:29:17 6.5 C 36 %
1708 09-03-2020 20:39:18 6.5 C 36 %
1709 09-03-2020 20:49:18 6.7 C 36 %
1710 09-03-2020 20:59:18 6.8 C 35 %
1711 09-03-2020 21:09:17 5.9 C 37 %
1712 09-03-2020 21:19:17 5.6 C 38 %
1713 09-03-2020 21:29:17 5.5 C 38 %
1714 09-03-2020 21:39:17 5.4 C 38 %
1715 09-03-2020 21:49:18 5.4 C 38 %
1716 09-03-2020 21:59:18 5.6 C 38 %
1717 09-03-2020 22:09:18 5.4 C 38 %
1718 09-03-2020 22:19:17 5.6 C 38 %
1719 09-03-2020 22:29:17 5.8 C 38 %
1720 09-03-2020 22:39:17 5.8 C 38 %
1721 09-03-2020 22:49:17 5.4 C 38 %
1722 09-03-2020 22:59:17 5.1 C 39 %
1723 09-03-2020 23:09:18 5.1 C 39 %
1724 09-03-2020 23:19:17 5.2 C 39 %
1725 09-03-2020 23:29:17 5 C 39 %
Sensor: Nr:Datum:Temp:Feuchte:
Aussen-T/F 1726 09-03-2020 23:39:17 4.6 C 40 %
1727 09-03-2020 23:49:17 4.6 C 41 %
1728 09-03-2020 23:59:17 4.5 C 41 %
1729 10-03-2020 00:09:17 4.6 C 41 %
1730 10-03-2020 00:19:18 4.7 C 41 %
1731 10-03-2020 00:29:18 5.1 C 40 %
1732 10-03-2020 00:39:18 5.5 C 40 %
1733 10-03-2020 00:49:18 5.5 C 40 %
1734 10-03-2020 00:59:18 5.8 C 39 %
1735 10-03-2020 01:09:18 5.8 C 39 %
1736 10-03-2020 01:19:17 5.9 C 39 %
1737 10-03-2020 01:29:18 6 C 38 %
1738 10-03-2020 01:39:18 6.3 C 38 %
1739 10-03-2020 01:49:17 6.7 C 37 %
1740 10-03-2020 01:59:17 6.6 C 37 %
1741 10-03-2020 02:09:18 6.7 C 37 %
1742 10-03-2020 02:19:17 6.6 C 37 %
1743 10-03-2020 02:29:18 6.7 C 37 %
1744 10-03-2020 02:39:18 6.8 C 37 %
1745 10-03-2020 02:49:17 6.9 C 37 %
1746 10-03-2020 02:59:17 7.1 C 37 %
1747 10-03-2020 03:09:18 6.6 C 38 %
1748 10-03-2020 03:19:18 6.5 C 38 %
1749 10-03-2020 03:29:18 6.3 C 39 %
1750 10-03-2020 03:39:18 6.2 C 39 %
Sensor: Nr:Datum:Temp:Feuchte:
Aussen-T/F 1751 10-03-2020 03:49:17 6 C 40 %
1752 10-03-2020 03:59:17 6 C 40 %
1753 10-03-2020 04:09:17 5.8 C 40 %
1754 10-03-2020 04:19:17 5.8 C 40 %
1755 10-03-2020 04:29:17 5.6 C 41 %
1756 10-03-2020 04:39:17 5.9 C 40 %
1757 10-03-2020 04:49:17 5.6 C 41 %
1758 10-03-2020 04:59:17 5.5 C 41 %
1759 10-03-2020 05:09:17 5.5 C 41 %
1760 10-03-2020 05:19:17 5.2 C 41 %
1761 10-03-2020 05:29:18 5.2 C 41 %
1762 10-03-2020 05:39:18 5.1 C 42 %
1763 10-03-2020 05:49:18 5.1 C 42 %
1764 10-03-2020 05:59:18 5 C 42 %
1765 10-03-2020 06:09:17 4.9 C 43 %
1766 10-03-2020 06:19:17 5 C 42 %
1767 10-03-2020 06:29:17 4.9 C 43 %
1768 10-03-2020 06:39:18 5 C 44 %
1769 10-03-2020 06:49:17 5.1 C 43 %
1770 10-03-2020 06:59:17 5 C 43 %
1771 10-03-2020 07:09:18 5.1 C 42 %
1772 10-03-2020 07:19:18 5.3 C 42 %
1773 10-03-2020 07:29:18 5.8 C 41 %
1774 10-03-2020 07:39:18 5.8 C 42 %
1775 10-03-2020 07:49:18 5.7 C 41 %
Sensor: Nr:Datum:Temp:Feuchte:
Aussen-T/F 1776 10-03-2020 07:59:18 5.9 C 41 %
1777 10-03-2020 08:09:18 6 C 41 %
1778 10-03-2020 08:19:18 6 C 41 %
1779 10-03-2020 08:29:18 6.3 C 41 %
1780 10-03-2020 08:39:18 6.5 C 40 %
1781 10-03-2020 08:49:18 6.3 C 41 %
1782 10-03-2020 08:59:18 6.5 C 41 %
1783 10-03-2020 09:09:17 6.6 C 41 %
1784 10-03-2020 09:19:17 6.6 C 41 %
1785 10-03-2020 09:29:17 6.7 C 42 %
1786 10-03-2020 09:39:17 6.8 C 42 %
1787 10-03-2020 09:49:17 6.9 C 42 %
1788 10-03-2020 09:59:17 7.1 C 41 %
1789 10-03-2020 10:09:18 7.2 C 41 %
1790 10-03-2020 10:19:18 7.3 C 41 %
1791 10-03-2020 10:29:18 7.4 C 41 %
1792 10-03-2020 10:39:18 7.5 C 41 %
1793 10-03-2020 10:49:18 7.8 C 41 %
1794 10-03-2020 10:59:18 7.9 C 41 %
1795 10-03-2020 11:09:18 8.1 C 41 %
1796 10-03-2020 11:19:18 8.2 C 40 %
1797 10-03-2020 11:29:18 8.4 C 40 %
1798 10-03-2020 11:39:18 8.5 C 41 %
1799 10-03-2020 11:49:17 8.7 C 41 %
1800 10-03-2020 11:59:17 8.9 C 41 %
Sensor: Nr:Datum:Temp:Feuchte:
Aussen-T/F 1801 10-03-2020 12:09:17 8.9 C 40 %
1802 10-03-2020 12:19:17 8.9 C 41 %
1803 10-03-2020 12:29:18 9 C 41 %
1804 10-03-2020 12:39:18 9.1 C 41 %
1805 10-03-2020 12:49:17 9.1 C 41 %
1806 10-03-2020 12:59:17 9.3 C 41 %
1807 10-03-2020 13:09:18 9.4 C 40 %
1808 10-03-2020 13:19:17 9.5 C 41 %
1809 10-03-2020 13:29:18 9.5 C 41 %
1810 10-03-2020 13:39:18 9.5 C 41 %
1811 10-03-2020 13:49:17 9.7 C 41 %
1812 10-03-2020 13:59:18 9.8 C 41 %
1813 10-03-2020 14:09:18 9.9 C 41 %
1814 10-03-2020 14:19:18 10.2 C 40 %
1815 10-03-2020 14:29:18 10.5 C 40 %
1816 10-03-2020 14:39:18 10.8 C 40 %
1817 10-03-2020 14:49:17 10.9 C 40 %
1818 10-03-2020 14:59:17 11.3 C 38 %
1819 10-03-2020 15:09:18 11.3 C 38 %
1820 10-03-2020 15:19:18 11.4 C 38 %
1821 10-03-2020 15:29:18 11.8 C 38 %
1822 10-03-2020 15:39:18 12.3 C 37 %
1823 10-03-2020 15:49:17 12.3 C 36 %
1824 10-03-2020 15:59:18 12.5 C 37 %
1825 10-03-2020 16:09:18 13 C 35 %
Sensor: Nr:Datum:Temp:Feuchte:
Aussen-T/F 1826 10-03-2020 16:19:18 12.6 C 36 %
1827 10-03-2020 16:29:18 12.5 C 37 %
1828 10-03-2020 16:39:18 12.4 C 37 %
1829 10-03-2020 16:49:17 12.5 C 37 %
1830 10-03-2020 16:59:18 12.5 C 37 %
1831 10-03-2020 17:09:18 12.7 C 37 %
1832 10-03-2020 17:19:17 12.6 C 37 %
1833 10-03-2020 17:29:18 12.7 C 37 %
1834 10-03-2020 17:39:18 12.6 C 37 %
1835 10-03-2020 17:49:17 12.5 C 37 %
1836 10-03-2020 17:59:18 12.5 C 38 %
1837 10-03-2020 18:09:18 12.3 C 38 %
1838 10-03-2020 18:19:17 12.3 C 38 %
1839 10-03-2020 18:29:18 12.3 C 38 %
1840 10-03-2020 18:39:18 12.5 C 38 %
1841 10-03-2020 18:49:17 12.4 C 38 %
1842 10-03-2020 18:59:17 12.3 C 38 %
1843 10-03-2020 19:09:18 12.5 C 38 %
1844 10-03-2020 19:19:17 12.3 C 38 %
1845 10-03-2020 19:29:17 12.4 C 38 %
1846 10-03-2020 19:39:17 12.5 C 38 %
1847 10-03-2020 19:49:17 12.5 C 38 %
1848 10-03-2020 19:59:17 12.5 C 38 %
1849 10-03-2020 20:09:17 12.5 C 38 %
1850 10-03-2020 20:19:17 12.7 C 38 %
Sensor: Nr:Datum:Temp:Feuchte:
Aussen-T/F 1851 10-03-2020 20:29:18 12.8 C 38 %
1852 10-03-2020 20:39:18 12.8 C 38 %
1853 10-03-2020 20:49:17 12.9 C 38 %
1854 10-03-2020 20:59:17 13.1 C 37 %
1855 10-03-2020 21:09:18 12.8 C 38 %
1856 10-03-2020 21:19:17 13.2 C 37 %
1857 10-03-2020 21:29:18 13.2 C 37 %
1858 10-03-2020 21:39:18 13.2 C 37 %
1859 10-03-2020 21:49:17 13.2 C 37 %
1860 10-03-2020 21:59:18 13.1 C 37 %
1861 10-03-2020 22:09:18 12.8 C 39 %
1862 10-03-2020 22:19:18 12.5 C 40 %
1863 10-03-2020 22:29:18 12.5 C 40 %
1864 10-03-2020 22:39:18 12.7 C 40 %
1865 10-03-2020 22:49:17 12.5 C 40 %
1866 10-03-2020 22:59:17 12.5 C 40 %
1867 10-03-2020 23:09:18 12.8 C 40 %
1868 10-03-2020 23:19:18 12.8 C 39 %
1869 10-03-2020 23:29:18 12.8 C 39 %
1870 10-03-2020 23:39:18 12.8 C 39 %
1871 10-03-2020 23:49:17 12.9 C 39 %
1872 10-03-2020 23:59:17 13.1 C 37 %
1873 11-03-2020 00:09:17 13.5 C 36 %
1874 11-03-2020 00:19:17 13.5 C 36 %
1875 11-03-2020 00:29:17 13.6 C 36 %
Sensor: Nr:Datum:Temp:Feuchte:
Aussen-T/F 1876 11-03-2020 00:39:18 13.7 C 36 %
1877 11-03-2020 00:49:17 13.7 C 36 %
1878 11-03-2020 00:59:17 13.7 C 36 %
1879 11-03-2020 01:09:17 13.5 C 36 %
1880 11-03-2020 01:19:17 13.4 C 37 %
1881 11-03-2020 01:29:17 13.4 C 37 %
1882 11-03-2020 01:39:17 13.3 C 37 %
1883 11-03-2020 01:49:17 13 C 38 %
1884 11-03-2020 01:59:17 12.9 C 39 %
1885 11-03-2020 02:09:17 13.2 C 38 %
1886 11-03-2020 02:19:17 13.1 C 38 %
1887 11-03-2020 02:29:17 13.1 C 38 %
1888 11-03-2020 02:39:17 13.2 C 37 %
1889 11-03-2020 02:49:17 13.4 C 37 %
1890 11-03-2020 02:59:17 13.5 C 37 %
1891 11-03-2020 03:09:17 13.1 C 37 %
1892 11-03-2020 03:19:18 13 C 38 %
1893 11-03-2020 03:29:18 13.2 C 37 %
1894 11-03-2020 03:39:18 13.4 C 37 %
1895 11-03-2020 03:49:17 13.5 C 37 %
1896 11-03-2020 03:59:18 13.4 C 37 %
1897 11-03-2020 04:09:18 13.4 C 37 %
1898 11-03-2020 04:19:18 13.4 C 37 %
1899 11-03-2020 04:29:18 13.4 C 37 %
1900 11-03-2020 04:39:17 13.4 C 37 %
Sensor: Nr:Datum:Temp:Feuchte:
Aussen-T/F 1901 11-03-2020 04:49:17 13.5 C 36 %
1902 11-03-2020 04:59:17 13.4 C 37 %
1903 11-03-2020 05:09:17 13.1 C 37 %
1904 11-03-2020 05:19:17 13.1 C 37 %
1905 11-03-2020 05:29:17 13.1 C 37 %
1906 11-03-2020 05:39:17 13.1 C 37 %
1907 11-03-2020 05:49:18 13 C 37 %
1908 11-03-2020 05:59:18 12.9 C 38 %
1909 11-03-2020 06:09:18 13.1 C 37 %
1910 11-03-2020 06:19:17 13.2 C 37 %
1911 11-03-2020 06:29:17 13.2 C 36 %
1912 11-03-2020 06:39:18 13.2 C 36 %
1913 11-03-2020 06:49:17 13.6 C 36 %
1914 11-03-2020 06:59:17 13.4 C 36 %
1915 11-03-2020 07:09:17 13.2 C 36 %
1916 11-03-2020 07:19:17 13.1 C 36 %
1917 11-03-2020 07:29:17 13.1 C 36 %
1918 11-03-2020 07:39:17 13.1 C 36 %
1919 11-03-2020 07:49:17 13.1 C 36 %
1920 11-03-2020 07:59:18 12.9 C 37 %
1921 11-03-2020 08:09:18 12.8 C 37 %
1922 11-03-2020 08:19:18 12.6 C 37 %
1923 11-03-2020 08:29:18 12.6 C 37 %
1924 11-03-2020 08:39:18 12.7 C 37 %
1925 11-03-2020 08:49:18 12.8 C 37 %
Sensor: Nr:Datum:Temp:Feuchte:
Aussen-T/F 1926 11-03-2020 08:59:18 12.7 C 37 %
1927 11-03-2020 09:09:18 13 C 36 %
1928 11-03-2020 09:19:18 13.2 C 36 %
1929 11-03-2020 09:29:18 13.6 C 36 %
1930 11-03-2020 09:39:18 13.8 C 36 %
1931 11-03-2020 09:49:18 14 C 35 %
1932 11-03-2020 09:59:18 13.9 C 35 %
1933 11-03-2020 10:09:18 13.7 C 36 %
1934 11-03-2020 10:19:17 13.8 C 36 %
1935 11-03-2020 10:29:17 14 C 35 %
1936 11-03-2020 10:39:18 14.3 C 35 %
1937 11-03-2020 10:49:18 14.4 C 35 %
1938 11-03-2020 10:59:18 14.5 C 35 %
1939 11-03-2020 11:09:17 14.9 C 35 %
1940 11-03-2020 11:19:17 14.6 C 35 %
1941 11-03-2020 11:29:17 15.8 C 33 %
1942 11-03-2020 11:39:17 15.8 C 33 %
1943 11-03-2020 11:49:17 15.6 C 33 %
1944 11-03-2020 11:59:17 15.9 C 33 %
1945 11-03-2020 12:09:18 15.9 C 33 %
1946 11-03-2020 12:19:18 16.4 C 32 %
1947 11-03-2020 12:29:18 16.5 C 32 %
1948 11-03-2020 12:39:18 16.3 C 32 %
1949 11-03-2020 12:49:18 16.5 C 32 %
1950 11-03-2020 12:59:18 16.3 C 32 %
Sensor: Nr:Datum:Temp:Feuchte:
Aussen-T/F 1951 11-03-2020 13:09:17 16 C 32 %
1952 11-03-2020 13:19:17 17 C 31 %
1953 11-03-2020 13:29:17 16.8 C 31 %
1954 11-03-2020 13:39:17 17.7 C 31 %
1955 11-03-2020 13:49:17 15.8 C 32 %
1956 11-03-2020 13:59:17 16.1 C 31 %
1957 11-03-2020 14:09:17 16.3 C 31 %
1958 11-03-2020 14:19:17 16.1 C 31 %
1959 11-03-2020 14:29:17 16.6 C 31 %
1960 11-03-2020 14:39:17 15.7 C 31 %
1961 11-03-2020 14:49:17 16.2 C 31 %
1962 11-03-2020 14:59:17 15.8 C 31 %
1963 11-03-2020 15:09:17 16.5 C 31 %
1964 11-03-2020 15:19:17 15.6 C 32 %
1965 11-03-2020 15:29:18 16.4 C 31 %
1966 11-03-2020 15:39:18 17.5 C 30 %
1967 11-03-2020 15:49:17 15.1 C 32 %
1968 11-03-2020 15:59:17 15.6 C 33 %
1969 11-03-2020 16:09:18 15 C 33 %
1970 11-03-2020 16:19:18 14.7 C 35 %
1971 11-03-2020 16:29:18 15.1 C 34 %
1972 11-03-2020 16:39:17 14.5 C 35 %
1973 11-03-2020 16:49:18 14.5 C 35 %
1974 11-03-2020 16:59:18 14.5 C 34 %
1975 11-03-2020 17:09:18 14.1 C 35 %
Sensor: Nr:Datum:Temp:Feuchte:
Aussen-T/F 1976 11-03-2020 17:19:18 14 C 35 %
1977 11-03-2020 17:29:18 13.2 C 38 %
1978 11-03-2020 17:39:17 13.2 C 38 %
1979 11-03-2020 17:49:18 13.2 C 38 %
1980 11-03-2020 17:59:18 13.4 C 37 %
1981 11-03-2020 18:09:18 13.5 C 37 %
1982 11-03-2020 18:19:17 13.5 C 36 %
1983 11-03-2020 18:29:17 13.3 C 36 %
1984 11-03-2020 18:39:17 13.4 C 36 %
1985 11-03-2020 18:49:17 13.5 C 36 %
1986 11-03-2020 18:59:17 13.4 C 36 %
1987 11-03-2020 19:09:17 13.2 C 37 %
1988 11-03-2020 19:19:17 13.1 C 37 %
1989 11-03-2020 19:29:17 13.1 C 37 %
1990 11-03-2020 19:39:18 13.4 C 36 %
1991 11-03-2020 19:49:17 13.3 C 36 %
1992 11-03-2020 19:59:17 13.2 C 36 %
1993 11-03-2020 20:09:17 13.4 C 36 %
1994 11-03-2020 20:19:17 13.6 C 36 %
1995 11-03-2020 20:29:18 13.6 C 36 %
1996 11-03-2020 20:39:18 13.6 C 36 %
1997 11-03-2020 20:49:17 13.5 C 36 %
1998 11-03-2020 20:59:17 13.3 C 36 %
1999 11-03-2020 21:09:18 13.2 C 36 %
2000 11-03-2020 21:19:17 13.4 C 36 %
Sensor: Nr:Datum:Temp:Feuchte:
Aussen-T/F 2001 11-03-2020 21:29:17 13.5 C 36 %
2002 11-03-2020 21:39:18 13.7 C 36 %
2003 11-03-2020 21:49:17 14 C 35 %
2004 11-03-2020 21:59:17 14 C 35 %
2005 11-03-2020 22:09:18 14.1 C 34 %
2006 11-03-2020 22:19:18 14 C 34 %
2007 11-03-2020 22:29:18 13.9 C 35 %
2008 11-03-2020 22:39:17 13.9 C 35 %
2009 11-03-2020 22:49:18 13.8 C 35 %
2010 11-03-2020 22:59:18 13.8 C 35 %
2011 11-03-2020 23:09:18 13.8 C 34 %
2012 11-03-2020 23:19:18 13.9 C 34 %
2013 11-03-2020 23:29:18 13.8 C 34 %
2014 11-03-2020 23:39:17 13.8 C 34 %
2015 11-03-2020 23:49:17 13.8 C 34 %
2016 11-03-2020 23:59:17 13.7 C 34 %
2017 12-03-2020 00:09:17 13.6 C 34 %
2018 12-03-2020 00:19:17 13.6 C 34 %
2019 12-03-2020 00:29:17 13.6 C 34 %
2020 12-03-2020 00:39:18 13.7 C 34 %
2021 12-03-2020 00:49:17 13.8 C 34 %
2022 12-03-2020 00:59:17 13.9 C 34 %
2023 12-03-2020 01:09:18 13.9 C 34 %
2024 12-03-2020 01:19:17 13.8 C 34 %
2025 12-03-2020 01:29:17 13.9 C 34 %
Sensor: Nr:Datum:Temp:Feuchte:
Aussen-T/F 2026 12-03-2020 01:39:18 13.8 C 34 %
2027 12-03-2020 01:49:17 13.7 C 34 %
2028 12-03-2020 01:59:17 13.8 C 34 %
2029 12-03-2020 02:09:18 13.7 C 34 %
2030 12-03-2020 02:19:17 13.7 C 34 %
2031 12-03-2020 02:29:18 13.6 C 34 %
2032 12-03-2020 02:39:18 13.6 C 33 %
2033 12-03-2020 02:49:18 13.6 C 33 %
2034 12-03-2020 02:59:18 13.5 C 33 %
2035 12-03-2020 03:09:18 13.5 C 33 %
2036 12-03-2020 03:19:18 13.5 C 32 %
2037 12-03-2020 03:29:18 13.5 C 32 %
2038 12-03-2020 03:39:17 13.4 C 32 %
2039 12-03-2020 03:49:17 13.2 C 32 %
2040 12-03-2020 03:59:17 13.1 C 32 %
2041 12-03-2020 04:09:17 13.1 C 32 %
2042 12-03-2020 04:19:17 13.1 C 32 %
2043 12-03-2020 04:29:17 13 C 32 %
2044 12-03-2020 04:39:17 13 C 32 %
2045 12-03-2020 04:49:17 13 C 32 %
2046 12-03-2020 04:59:17 13 C 32 %
2047 12-03-2020 05:09:17 12.7 C 33 %
2048 12-03-2020 05:19:17 12.7 C 33 %
2049 12-03-2020 05:29:17 12.6 C 34 %
2050 12-03-2020 05:39:18 12.5 C 34 %
Sensor: Nr:Datum:Temp:Feuchte:
Aussen-T/F 2051 12-03-2020 05:49:17 12.5 C 34 %
2052 12-03-2020 05:59:17 12.3 C 34 %
2053 12-03-2020 06:09:18 12.2 C 34 %
2054 12-03-2020 06:19:18 12.1 C 34 %
2055 12-03-2020 06:29:18 12 C 34 %
2056 12-03-2020 06:39:18 12 C 35 %
2057 12-03-2020 06:49:17 12 C 35 %
2058 12-03-2020 06:59:17 11.9 C 35 %
2059 12-03-2020 07:09:18 11.9 C 35 %
2060 12-03-2020 07:19:18 12 C 35 %
2061 12-03-2020 07:29:18 12 C 35 %
2062 12-03-2020 07:39:18 12 C 35 %
2063 12-03-2020 07:49:17 11.2 C 38 %
2064 12-03-2020 07:59:17 11 C 39 %
2065 12-03-2020 08:09:18 10.8 C 41 %
2066 12-03-2020 08:19:18 10.7 C 42 %
2067 12-03-2020 08:29:18 10.4 C 40 %
2068 12-03-2020 08:39:18 10.1 C 39 %
2069 12-03-2020 08:49:17 10.4 C 38 %
2070 12-03-2020 08:59:17 10.2 C 38 %
2071 12-03-2020 09:09:18 10.4 C 38 %
2072 12-03-2020 09:19:17 10.5 C 37 %
2073 12-03-2020 09:29:17 10.9 C 36 %
2074 12-03-2020 09:39:17 10.8 C 36 %
2075 12-03-2020 09:49:18 11 C 36 %
Sensor: Nr:Datum:Temp:Feuchte:
Aussen-T/F 2076 12-03-2020 09:59:18 11.5 C 35 %
2077 12-03-2020 10:09:18 11.7 C 34 %
2078 12-03-2020 10:19:17 11.5 C 34 %
2079 12-03-2020 10:29:17 11.5 C 34 %
2080 12-03-2020 10:39:17 11.8 C 33 %
2081 12-03-2020 10:49:17 11.3 C 33 %
2082 12-03-2020 10:59:17 11.3 C 32 %
2083 12-03-2020 11:09:18 11.6 C 28 %
2084 12-03-2020 11:19:17 11.5 C 27 %
2085 12-03-2020 11:29:17 11.7 C 26 %
2086 12-03-2020 11:39:17 11.9 C 23 %
2087 12-03-2020 11:49:18 11.9 C 20 %
2088 12-03-2020 11:59:18 12.3 C 20 %
2089 12-03-2020 12:09:18 12.2 C 20 %
2090 12-03-2020 12:19:18 12.4 C 20 %
2091 12-03-2020 12:29:18 12.8 C 20 %
2092 12-03-2020 12:39:17 12.4 C 20 %
2093 12-03-2020 12:49:17 12.1 C 20 %
2094 12-03-2020 12:59:18 12 C 20 %
2095 12-03-2020 13:09:18 12.2 C 20 %
2096 12-03-2020 13:19:17 12.3 C 20 %
2097 12-03-2020 13:29:17 12.3 C 20 %
2098 12-03-2020 13:39:17 12.7 C 20 %
2099 12-03-2020 13:49:17 12.5 C 20 %
2100 12-03-2020 13:59:17 12.4 C 20 %
Sensor: Nr:Datum:Temp:Feuchte:
Aussen-T/F 2101 12-03-2020 14:09:17 12.2 C 20 %
2102 12-03-2020 14:19:17 12.2 C 20 %
2103 12-03-2020 14:29:18 12.2 C 20 %
2104 12-03-2020 14:39:18 13.4 C 20 %
2105 12-03-2020 14:49:17 13 C 20 %
2106 12-03-2020 14:59:17 11.8 C 20 %
2107 12-03-2020 15:09:17 11.9 C 20 %
2108 12-03-2020 15:19:17 11.8 C 20 %
2109 12-03-2020 15:29:18 11.9 C 20 %
2110 12-03-2020 15:39:18 11.8 C 20 %
2111 12-03-2020 15:49:17 11.7 C 20 %
2112 12-03-2020 15:59:18 11.6 C 20 %
2113 12-03-2020 16:09:18 11.5 C 20 %
2114 12-03-2020 16:19:18 11.7 C 20 %
2115 12-03-2020 16:29:18 11.7 C 20 %
2116 12-03-2020 16:39:18 12.4 C 20 %
2117 12-03-2020 16:49:17 11.8 C 20 %
2118 12-03-2020 16:59:17 11.5 C 20 %
2119 12-03-2020 17:09:17 11.5 C 20 %
2120 12-03-2020 17:19:17 11.5 C 20 %
2121 12-03-2020 17:29:17 11.2 C 20 %
2122 12-03-2020 17:39:18 10.9 C 20 %
2123 12-03-2020 17:49:17 11 C 20 %
2124 12-03-2020 17:59:18 10.8 C 22 %
2125 12-03-2020 18:09:18 10.3 C 25 %
Sensor: Nr:Datum:Temp:Feuchte:
Aussen-T/F 2126 12-03-2020 18:19:18 9.8 C 27 %
2127 12-03-2020 18:29:18 9.3 C 30 %
2128 12-03-2020 18:39:17 8.7 C 31 %
2129 12-03-2020 18:49:17 7.9 C 33 %
2130 12-03-2020 18:59:17 7.6 C 35 %
2131 12-03-2020 19:09:17 7.5 C 34 %
2132 12-03-2020 19:19:17 7 C 35 %
2133 12-03-2020 19:29:17 6.6 C 36 %
2134 12-03-2020 19:39:17 6.5 C 36 %
2135 12-03-2020 19:49:17 7.1 C 35 %
2136 12-03-2020 19:59:17 6.8 C 35 %
2137 12-03-2020 20:09:17 7.6 C 35 %
2138 12-03-2020 20:19:17 7.3 C 35 %
2139 12-03-2020 20:29:17 6.8 C 35 %
2140 12-03-2020 20:39:17 6.8 C 36 %
2141 12-03-2020 20:49:17 6.4 C 36 %
2142 12-03-2020 20:59:17 6.7 C 36 %
2143 12-03-2020 21:09:17 6.3 C 36 %
2144 12-03-2020 21:19:17 7.2 C 35 %
2145 12-03-2020 21:29:17 7.6 C 35 %
2146 12-03-2020 21:39:18 7.4 C 35 %
2147 12-03-2020 21:49:17 7.4 C 35 %
2148 12-03-2020 21:59:17 7.6 C 35 %
2149 12-03-2020 22:09:18 7.6 C 35 %
2150 12-03-2020 22:19:18 7.1 C 35 %
Sensor: Nr:Datum:Temp:Feuchte:
Aussen-T/F 2151 12-03-2020 22:29:18 7.2 C 35 %
2152 12-03-2020 22:39:18 7.5 C 35 %
2153 12-03-2020 22:49:17 7.6 C 35 %
2154 12-03-2020 22:59:17 7.3 C 35 %
2155 12-03-2020 23:09:17 7.2 C 35 %
2156 12-03-2020 23:19:17 7 C 35 %
2157 12-03-2020 23:29:18 6.2 C 35 %
2158 12-03-2020 23:39:18 6.7 C 34 %
2159 12-03-2020 23:49:17 6.5 C 34 %
2160 12-03-2020 23:59:17 6.4 C 32 %
2161 13-03-2020 00:09:17 6.5 C 32 %
2162 13-03-2020 00:19:17 6.5 C 32 %
2163 13-03-2020 00:29:17 6.1 C 32 %
2164 13-03-2020 00:39:17 6.2 C 32 %
2165 13-03-2020 00:49:17 6 C 32 %
2166 13-03-2020 00:59:17 5.9 C 33 %
2167 13-03-2020 01:09:17 5.4 C 33 %
2168 13-03-2020 01:19:17 5.4 C 33 %
2169 13-03-2020 01:29:17 5.1 C 34 %
2170 13-03-2020 01:39:17 5.2 C 34 %
2171 13-03-2020 01:49:17 5.2 C 33 %
2172 13-03-2020 01:59:17 5.2 C 33 %
2173 13-03-2020 02:09:17 4.8 C 35 %
2174 13-03-2020 02:19:17 5 C 34 %
2175 13-03-2020 02:29:17 5.1 C 34 %
Sensor: Nr:Datum:Temp:Feuchte:
Aussen-T/F 2176 13-03-2020 02:39:18 5.1 C 34 %
2177 13-03-2020 02:49:17 5.1 C 34 %
2178 13-03-2020 02:59:17 5.1 C 34 %
2179 13-03-2020 03:09:17 5 C 34 %
2180 13-03-2020 03:19:17 5.2 C 34 %
2181 13-03-2020 03:29:17 5.2 C 34 %
2182 13-03-2020 03:39:18 5.1 C 34 %
2183 13-03-2020 03:49:17 5.1 C 34 %
2184 13-03-2020 03:59:17 5.2 C 34 %
2185 13-03-2020 04:09:17 5 C 34 %
2186 13-03-2020 04:19:17 4.9 C 35 %
2187 13-03-2020 04:29:17 5.1 C 35 %
2188 13-03-2020 04:39:17 5.1 C 35 %
2189 13-03-2020 04:49:17 5 C 34 %
2190 13-03-2020 04:59:17 5.2 C 34 %
2191 13-03-2020 05:09:17 5.2 C 34 %
2192 13-03-2020 05:19:17 5.6 C 34 %
2193 13-03-2020 05:29:17 5.4 C 34 %
2194 13-03-2020 05:39:17 5.4 C 34 %
2195 13-03-2020 05:49:18 5.4 C 34 %
2196 13-03-2020 05:59:18 5.4 C 34 %
2197 13-03-2020 06:09:18 5.6 C 34 %
2198 13-03-2020 06:19:17 5.7 C 34 %
2199 13-03-2020 06:29:17 5.4 C 34 %
2200 13-03-2020 06:39:17 5.4 C 35 %
Sensor: Nr:Datum:Temp:Feuchte:
Aussen-T/F 2201 13-03-2020 06:49:17 5.3 C 34 %
2202 13-03-2020 06:59:17 5.4 C 35 %
2203 13-03-2020 07:09:17 5.3 C 35 %
2204 13-03-2020 07:19:17 5.4 C 35 %
2205 13-03-2020 07:29:17 5.6 C 35 %
2206 13-03-2020 07:39:17 5.7 C 35 %
2207 13-03-2020 07:49:18 5.7 C 35 %
2208 13-03-2020 07:59:18 5.7 C 35 %
2209 13-03-2020 08:09:17 5.8 C 35 %
2210 13-03-2020 08:19:17 6 C 35 %
2211 13-03-2020 08:29:17 5.9 C 35 %
2212 13-03-2020 08:39:18 6 C 35 %
2213 13-03-2020 08:49:17 6.2 C 35 %
2214 13-03-2020 08:59:17 6.4 C 34 %
2215 13-03-2020 09:09:17 6.5 C 35 %
2216 13-03-2020 09:19:17 6.9 C 34 %
2217 13-03-2020 09:29:17 7.1 C 33 %
2218 13-03-2020 09:39:18 7.1 C 33 %
2219 13-03-2020 09:49:17 6.6 C 34 %
2220 13-03-2020 09:59:17 7.1 C 33 %
2221 13-03-2020 10:09:18 7.5 C 33 %
2222 13-03-2020 10:19:17 8.5 C 32 %
2223 13-03-2020 10:29:17 8.1 C 32 %
2224 13-03-2020 10:39:18 8 C 32 %
2225 13-03-2020 10:49:17 7.6 C 33 %
Sensor: Nr:Datum:Temp:Feuchte:
Aussen-T/F 2226 13-03-2020 10:59:17 7.4 C 35 %
2227 13-03-2020 11:09:17 8.9 C 33 %
2228 13-03-2020 11:19:17 9.1 C 31 %
2229 13-03-2020 11:29:17 8 C 32 %
2230 13-03-2020 11:39:17 7.3 C 35 %
2231 13-03-2020 11:49:18 7.4 C 35 %
2232 13-03-2020 11:59:18 8.2 C 33 %
2233 13-03-2020 12:09:18 8.9 C 32 %
2234 13-03-2020 12:19:18 9.7 C 29 %
2235 13-03-2020 12:29:18 9 C 30 %
2236 13-03-2020 12:39:18 9.6 C 30 %
2237 13-03-2020 12:49:18 9 C 31 %
2238 13-03-2020 12:59:18 8.8 C 31 %
2239 13-03-2020 13:09:18 8.4 C 32 %
2240 13-03-2020 13:19:18 8.6 C 33 %
2241 13-03-2020 13:29:18 9.5 C 31 %
2242 13-03-2020 13:39:18 9.9 C 30 %
2243 13-03-2020 13:49:17 9.7 C 30 %
2244 13-03-2020 13:59:17 9.6 C 30 %
2245 13-03-2020 14:09:18 9.3 C 30 %
2246 13-03-2020 14:19:18 9.4 C 30 %
2247 13-03-2020 14:29:18 8.9 C 32 %
2248 13-03-2020 14:39:18 9.5 C 31 %
2249 13-03-2020 14:49:18 10.3 C 28 %
2250 13-03-2020 14:59:18 10.1 C 28 %
Sensor: Nr:Datum:Temp:Feuchte:
Aussen-T/F 2251 13-03-2020 15:09:18 9.5 C 29 %
2252 13-03-2020 15:19:17 9.3 C 29 %
2253 13-03-2020 15:29:17 10.1 C 27 %
2254 13-03-2020 15:39:18 10.4 C 26 %
2255 13-03-2020 15:49:18 10.4 C 26 %
2256 13-03-2020 15:59:18 10.1 C 27 %
2257 13-03-2020 16:09:18 10 C 27 %
2258 13-03-2020 16:19:17 9.8 C 27 %
2259 13-03-2020 16:29:17 9.1 C 29 %
2260 13-03-2020 16:39:17 9 C 30 %
2261 13-03-2020 16:49:17 10 C 27 %
2262 13-03-2020 16:59:17 9.3 C 30 %
2263 13-03-2020 17:09:17 9.1 C 30 %
2264 13-03-2020 17:19:18 9.1 C 30 %
2265 13-03-2020 17:29:18 9.3 C 30 %
2266 13-03-2020 17:39:17 9.4 C 29 %
2267 13-03-2020 17:49:18 9.5 C 30 %
2268 13-03-2020 17:59:18 9.1 C 31 %
2269 13-03-2020 18:09:18 8.7 C 31 %
2270 13-03-2020 18:19:17 8.6 C 31 %
2271 13-03-2020 18:29:17 8.4 C 31 %
2272 13-03-2020 18:39:17 8.2 C 31 %
2273 13-03-2020 18:49:17 8.1 C 32 %
2274 13-03-2020 18:59:17 8 C 32 %
2275 13-03-2020 19:09:17 7.8 C 33 %
Sensor: Nr:Datum:Temp:Feuchte:
Aussen-T/F 2276 13-03-2020 19:19:17 7.3 C 35 %
2277 13-03-2020 19:29:17 7.3 C 35 %
2278 13-03-2020 19:39:18 7.3 C 35 %
2279 13-03-2020 19:49:17 7.3 C 35 %
2280 13-03-2020 19:59:18 7 C 35 %
2281 13-03-2020 20:09:18 6.7 C 36 %
2282 13-03-2020 20:19:17 6.7 C 36 %
2283 13-03-2020 20:29:17 6.9 C 36 %
2284 13-03-2020 20:39:17 6.4 C 36 %
2285 13-03-2020 20:49:17 6.3 C 37 %
2286 13-03-2020 20:59:17 6.2 C 37 %
2287 13-03-2020 21:09:18 5.8 C 38 %
2288 13-03-2020 21:19:18 5.8 C 38 %
2289 13-03-2020 21:29:18 5.8 C 38 %
2290 13-03-2020 21:39:18 6.2 C 37 %
2291 13-03-2020 21:49:17 5.7 C 38 %
2292 13-03-2020 21:59:17 5.8 C 38 %
2293 13-03-2020 22:09:18 5.4 C 39 %
2294 13-03-2020 22:19:17 5.6 C 39 %
2295 13-03-2020 22:29:18 5.4 C 39 %
2296 13-03-2020 22:39:18 5.5 C 40 %
2297 13-03-2020 22:49:17 5.7 C 39 %
2298 13-03-2020 22:59:17 5.8 C 39 %
2299 13-03-2020 23:09:18 5.6 C 39 %
2300 13-03-2020 23:19:17 5.6 C 39 %
Sensor: Nr:Datum:Temp:Feuchte:
Aussen-T/F 2301 13-03-2020 23:29:17 5.5 C 40 %
2302 13-03-2020 23:39:17 5.4 C 40 %
2303 13-03-2020 23:49:17 5.4 C 40 %
2304 13-03-2020 23:59:17 4.8 C 41 %
2305 14-03-2020 00:09:17 4.8 C 41 %
2306 14-03-2020 00:19:18 4.6 C 41 %
2307 14-03-2020 00:29:18 4.4 C 41 %
2308 14-03-2020 00:39:18 3.7 C 42 %
2309 14-03-2020 00:49:17 3.5 C 44 %
2310 14-03-2020 00:59:17 3 C 43 %
2311 14-03-2020 01:09:18 2.6 C 45 %
2312 14-03-2020 01:19:17 2.4 C 46 %
2313 14-03-2020 01:29:18 2 C 45 %
2314 14-03-2020 01:39:18 2 C 46 %
2315 14-03-2020 01:49:17 2.4 C 48 %
2316 14-03-2020 01:59:18 2.8 C 49 %
2317 14-03-2020 02:09:18 3.3 C 47 %
2318 14-03-2020 02:19:18 3.6 C 46 %
2319 14-03-2020 02:29:18 3.3 C 45 %
2320 14-03-2020 02:39:18 3 C 45 %
2321 14-03-2020 02:49:18 2.8 C 45 %
2322 14-03-2020 02:59:18 2.3 C 46 %
2323 14-03-2020 03:09:18 2.2 C 46 %
2324 14-03-2020 03:19:17 1.5 C 47 %
2325 14-03-2020 03:29:17 1.3 C 47 %
Sensor: Nr:Datum:Temp:Feuchte:
Aussen-T/F 2326 14-03-2020 03:39:17 1.4 C 48 %
2327 14-03-2020 03:49:18 1.5 C 48 %
2328 14-03-2020 03:59:18 1.5 C 49 %
2329 14-03-2020 04:09:17 1.7 C 49 %
2330 14-03-2020 04:19:17 1.6 C 48 %
2331 14-03-2020 04:29:17 1.6 C 49 %
2332 14-03-2020 04:39:17 1.5 C 48 %
2333 14-03-2020 04:49:17 1.3 C 48 %
2334 14-03-2020 04:59:17 1.3 C 48 %
2335 14-03-2020 05:09:17 1.3 C 49 %
2336 14-03-2020 05:19:17 1.1 C 48 %
2337 14-03-2020 05:29:17 0.8 C 49 %
2338 14-03-2020 05:39:18 0.9 C 50 %
2339 14-03-2020 05:49:17 1.3 C 49 %
2340 14-03-2020 05:59:17 0.5 C 49 %
2341 14-03-2020 06:09:18 0.3 C 49 %
2342 14-03-2020 06:19:18 0.6 C 50 %
2343 14-03-2020 06:29:18 0.4 C 49 %
2344 14-03-2020 06:39:18 0.4 C 50 %
2345 14-03-2020 06:49:17 0.8 C 50 %
2346 14-03-2020 06:59:17 0.8 C 50 %
2347 14-03-2020 07:09:17 0.7 C 50 %
2348 14-03-2020 07:19:17 0.8 C 50 %
2349 14-03-2020 07:29:17 0.6 C 49 %
2350 14-03-2020 07:39:18 0.6 C 49 %
Sensor: Nr:Datum:Temp:Feuchte:
Aussen-T/F 2351 14-03-2020 07:49:17 0.8 C 49 %
2352 14-03-2020 07:59:17 0.8 C 50 %
2353 14-03-2020 08:09:17 1 C 48 %
2354 14-03-2020 08:19:17 1.4 C 49 %
2355 14-03-2020 08:29:17 1.7 C 49 %
2356 14-03-2020 08:39:18 1.9 C 49 %
2357 14-03-2020 08:49:17 2.2 C 48 %
2358 14-03-2020 08:59:17 2.5 C 48 %
2359 14-03-2020 09:09:17 2.8 C 48 %
2360 14-03-2020 09:19:17 3.4 C 46 %
2361 14-03-2020 09:29:17 3.7 C 45 %
2362 14-03-2020 09:39:18 4.1 C 43 %
2363 14-03-2020 09:49:17 4.5 C 43 %
2364 14-03-2020 09:59:17 5 C 41 %
2365 14-03-2020 10:09:18 5.7 C 41 %
2366 14-03-2020 10:19:18 6 C 39 %
2367 14-03-2020 10:29:18 6.8 C 40 %
2368 14-03-2020 10:39:18 7.7 C 38 %
2369 14-03-2020 10:49:17 7.7 C 37 %
2370 14-03-2020 10:59:17 8.4 C 36 %
2371 14-03-2020 11:09:18 9 C 35 %
2372 14-03-2020 11:19:18 10.4 C 34 %
2373 14-03-2020 11:29:18 11 C 31 %
2374 14-03-2020 11:39:18 10.4 C 31 %
2375 14-03-2020 11:49:17 10.1 C 32 %
Sensor: Nr:Datum:Temp:Feuchte:
Aussen-T/F 2376 14-03-2020 11:59:17 11.3 C 31 %
2377 14-03-2020 12:09:18 13 C 27 %
2378 14-03-2020 12:19:17 12.4 C 27 %
2379 14-03-2020 12:29:18 12 C 27 %
2380 14-03-2020 12:39:18 11.3 C 28 %
2381 14-03-2020 12:49:17 11.5 C 28 %
2382 14-03-2020 12:59:17 13.1 C 26 %
2383 14-03-2020 13:09:18 12.9 C 25 %
2384 14-03-2020 13:19:17 13 C 22 %
2385 14-03-2020 13:29:17 13.3 C 23 %
2386 14-03-2020 13:39:17 12.5 C 22 %
2387 14-03-2020 13:49:17 12.4 C 22 %
2388 14-03-2020 13:59:17 13.8 C 21 %
2389 14-03-2020 14:09:18 12.3 C 22 %
2390 14-03-2020 14:19:17 12.5 C 21 %
2391 14-03-2020 14:29:17 14 C 20 %
2392 14-03-2020 14:39:17 13.7 C 20 %
2393 14-03-2020 14:49:18 12.3 C 20 %
2394 14-03-2020 14:59:18 11.6 C 23 %
2395 14-03-2020 15:09:18 11.4 C 22 %
2396 14-03-2020 15:19:17 12.1 C 21 %
2397 14-03-2020 15:29:17 12.1 C 20 %
2398 14-03-2020 15:39:18 11.7 C 21 %
2399 14-03-2020 15:49:17 12 C 20 %
2400 14-03-2020 15:59:17 11.8 C 21 %
Sensor: Nr:Datum:Temp:Feuchte:
Aussen-T/F 2401 14-03-2020 16:09:18 11.2 C 23 %
2402 14-03-2020 16:19:17 10.6 C 25 %
2403 14-03-2020 16:29:17 10.4 C 26 %
2404 14-03-2020 16:39:18 9.9 C 26 %
2405 14-03-2020 16:49:18 10.1 C 26 %
2406 14-03-2020 16:59:18 9.8 C 27 %
2407 14-03-2020 17:09:18 10.3 C 26 %
2408 14-03-2020 17:19:17 10.3 C 26 %
2409 14-03-2020 17:29:17 10.7 C 26 %
2410 14-03-2020 17:39:17 9.6 C 27 %
2411 14-03-2020 17:49:17 9.3 C 28 %
2412 14-03-2020 17:59:17 8.6 C 30 %
2413 14-03-2020 18:09:17 8.1 C 31 %
2414 14-03-2020 18:19:17 7.3 C 33 %
2415 14-03-2020 18:29:17 7.1 C 33 %
2416 14-03-2020 18:39:17 6.3 C 36 %
2417 14-03-2020 18:49:17 5.9 C 37 %
2418 14-03-2020 18:59:17 5.9 C 38 %
2419 14-03-2020 19:09:17 5.3 C 38 %
2420 14-03-2020 19:19:17 5.5 C 39 %
2421 14-03-2020 19:29:17 5.1 C 39 %
2422 14-03-2020 19:39:17 5.6 C 39 %
2423 14-03-2020 19:49:17 5.2 C 39 %
2424 14-03-2020 19:59:17 5.3 C 39 %
2425 14-03-2020 20:09:18 5.3 C 39 %
Sensor: Nr:Datum:Temp:Feuchte:
Aussen-T/F 2426 14-03-2020 20:19:18 5.3 C 39 %
2427 14-03-2020 20:29:18 5.3 C 39 %
2428 14-03-2020 20:39:18 5.6 C 39 %
2429 14-03-2020 20:49:17 5.5 C 39 %
2430 14-03-2020 20:59:18 5.7 C 39 %
2431 14-03-2020 21:09:18 5.7 C 39 %
2432 14-03-2020 21:19:18 5.7 C 39 %
2433 14-03-2020 21:29:18 5.6 C 38 %
2434 14-03-2020 21:39:17 5.1 C 39 %
2435 14-03-2020 21:49:18 5.2 C 39 %
2436 14-03-2020 21:59:18 5 C 39 %
2437 14-03-2020 22:09:18 5 C 39 %
2438 14-03-2020 22:19:17 5 C 39 %
2439 14-03-2020 22:29:17 5 C 39 %
2440 14-03-2020 22:39:18 5.1 C 39 %
2441 14-03-2020 22:49:18 4.8 C 40 %
2442 14-03-2020 22:59:18 5.1 C 39 %
2443 14-03-2020 23:09:17 5.5 C 39 %
2444 14-03-2020 23:19:17 5.7 C 39 %
2445 14-03-2020 23:29:17 5.6 C 40 %
2446 14-03-2020 23:39:17 5.6 C 39 %
2447 14-03-2020 23:49:18 5.8 C 40 %
2448 14-03-2020 23:59:18 5.8 C 40 %
2449 15-03-2020 00:09:18 5.9 C 39 %
2450 15-03-2020 00:19:17 5.8 C 39 %
Sensor: Nr:Datum:Temp:Feuchte:
Aussen-T/F 2451 15-03-2020 00:29:17 6.1 C 37 %
2452 15-03-2020 00:39:18 6 C 38 %
2453 15-03-2020 00:49:18 5.6 C 39 %
2454 15-03-2020 00:59:18 5.3 C 39 %
2455 15-03-2020 01:09:17 5.1 C 40 %
2456 15-03-2020 01:19:18 5.1 C 39 %
2457 15-03-2020 01:29:18 5.5 C 39 %
2458 15-03-2020 01:39:17 5.2 C 40 %
2459 15-03-2020 01:49:17 5.2 C 40 %
2460 15-03-2020 01:59:17 5.2 C 40 %
2461 15-03-2020 02:09:17 5.1 C 40 %
2462 15-03-2020 02:19:17 5.1 C 40 %
2463 15-03-2020 02:29:17 4.8 C 40 %
2464 15-03-2020 02:39:18 4.5 C 40 %
2465 15-03-2020 02:49:17 4.9 C 40 %
2466 15-03-2020 02:59:17 5 C 40 %
2467 15-03-2020 03:09:17 4.8 C 40 %
2468 15-03-2020 03:19:17 4.2 C 40 %
2469 15-03-2020 03:29:17 4 C 40 %
2470 15-03-2020 03:39:18 4 C 40 %
2471 15-03-2020 03:49:17 3.8 C 41 %
2472 15-03-2020 03:59:17 3.7 C 42 %
2473 15-03-2020 04:09:18 3.7 C 41 %
2474 15-03-2020 04:19:18 3.9 C 41 %
2475 15-03-2020 04:29:18 3.7 C 41 %
Sensor: Nr:Datum:Temp:Feuchte:
Aussen-T/F 2476 15-03-2020 04:39:18 3.8 C 41 %
2477 15-03-2020 04:49:17 3.7 C 41 %
2478 15-03-2020 04:59:18 3.5 C 41 %
2479 15-03-2020 05:09:18 3.5 C 41 %
2480 15-03-2020 05:19:17 3.3 C 41 %
2481 15-03-2020 05:29:18 3.2 C 41 %
2482 15-03-2020 05:39:18 3 C 41 %
2483 15-03-2020 05:49:17 3.1 C 41 %
2484 15-03-2020 05:59:17 3.1 C 41 %
2485 15-03-2020 06:09:18 3.1 C 41 %
2486 15-03-2020 06:19:17 3.1 C 41 %
2487 15-03-2020 06:29:17 2.9 C 43 %
2488 15-03-2020 06:39:18 3.3 C 41 %
2489 15-03-2020 06:49:18 3.6 C 41 %
2490 15-03-2020 06:59:18 3.3 C 41 %
2491 15-03-2020 07:09:18 3 C 42 %
2492 15-03-2020 07:19:18 3.1 C 42 %
2493 15-03-2020 07:29:18 3.6 C 41 %
2494 15-03-2020 07:39:18 3.6 C 41 %
2495 15-03-2020 07:49:18 3.5 C 41 %
2496 15-03-2020 07:59:18 4 C 41 %
2497 15-03-2020 08:09:18 4.8 C 40 %
2498 15-03-2020 08:19:18 5.4 C 39 %
2499 15-03-2020 08:29:18 5.7 C 39 %
2500 15-03-2020 08:39:18 5.9 C 38 %
Sensor: Nr:Datum:Temp:Feuchte:
Aussen-T/F 2501 15-03-2020 08:49:17 6.4 C 38 %
2502 15-03-2020 08:59:17 6.7 C 38 %
2503 15-03-2020 09:09:18 6.8 C 37 %
2504 15-03-2020 09:19:18 6.9 C 38 %
2505 15-03-2020 09:29:18 7.1 C 37 %
2506 15-03-2020 09:39:18 7.8 C 36 %
2507 15-03-2020 09:49:18 9.2 C 33 %
2508 15-03-2020 09:59:18 9.9 C 32 %
2509 15-03-2020 10:09:18 9.9 C 31 %
2510 15-03-2020 10:19:18 9.8 C 32 %
2511 15-03-2020 10:29:18 10 C 32 %
2512 15-03-2020 10:39:18 10.8 C 31 %
2513 15-03-2020 10:49:17 11.8 C 29 %
2514 15-03-2020 10:59:17 12.5 C 27 %
2515 15-03-2020 11:09:17 13.4 C 25 %
2516 15-03-2020 11:19:17 14.7 C 23 %
2517 15-03-2020 11:29:17 16 C 20 %
2518 15-03-2020 11:39:18 15.5 C 20 %
2519 15-03-2020 11:49:17 14.9 C 20 %
2520 15-03-2020 11:59:18 15.2 C 20 %
2521 15-03-2020 12:09:18 14.5 C 20 %
2522 15-03-2020 12:19:18 14.1 C 20 %
2523 15-03-2020 12:29:18 14.4 C 20 %
2524 15-03-2020 12:39:18 14.7 C 20 %
2525 15-03-2020 12:49:17 15.2 C 20 %
Sensor: Nr:Datum:Temp:Feuchte:
Aussen-T/F 2526 15-03-2020 12:59:17 15.4 C 20 %
2527 15-03-2020 13:09:18 14.8 C 20 %
2528 15-03-2020 13:19:17 17 C 20 %
2529 15-03-2020 13:29:17 18.6 C 20 %
2530 15-03-2020 13:39:18 17.4 C 20 %
2531 15-03-2020 13:49:17 16.7 C 20 %
2532 15-03-2020 13:59:17 16.2 C 20 %
2533 15-03-2020 14:09:17 15.5 C 20 %
2534 15-03-2020 14:19:17 16.5 C 20 %
2535 15-03-2020 14:29:17 16.3 C 20 %
2536 15-03-2020 14:39:18 16.6 C 20 %
2537 15-03-2020 14:49:17 16.2 C 20 %
2538 15-03-2020 14:59:17 16 C 20 %
2539 15-03-2020 15:09:17 17.4 C 20 %
2540 15-03-2020 15:19:17 20.3 C 20 %
2541 15-03-2020 15:29:18 20.4 C 20 %
2542 15-03-2020 15:39:18 19.4 C 20 %
2543 15-03-2020 15:49:17 20.7 C 20 %
2544 15-03-2020 15:59:17 19.9 C 20 %
2545 15-03-2020 16:09:17 21.2 C 20 %
2546 15-03-2020 16:19:17 20.2 C 20 %
2547 15-03-2020 16:29:17 20.5 C 20 %
2548 15-03-2020 16:39:17 19.7 C 20 %
2549 15-03-2020 16:49:18 18.1 C 20 %
2550 15-03-2020 16:59:18 16.9 C 20 %
Sensor: Nr:Datum:Temp:Feuchte:
Aussen-T/F 2551 15-03-2020 17:09:18 16 C 20 %
2552 15-03-2020 17:19:18 15.5 C 20 %
2553 15-03-2020 17:29:18 15.5 C 20 %
2554 15-03-2020 17:39:18 14.9 C 20 %
2555 15-03-2020 17:49:18 13.8 C 20 %
2556 15-03-2020 17:59:18 12.6 C 23 %
2557 15-03-2020 18:09:18 12.1 C 25 %
2558 15-03-2020 18:19:18 11.7 C 26 %
2559 15-03-2020 18:29:18 11.1 C 27 %
2560 15-03-2020 18:39:18 10.6 C 28 %
2561 15-03-2020 18:49:17 10.4 C 28 %
2562 15-03-2020 18:59:17 10 C 28 %
2563 15-03-2020 19:09:18 9.6 C 30 %
2564 15-03-2020 19:19:18 9.4 C 30 %
2565 15-03-2020 19:29:18 9.2 C 31 %
2566 15-03-2020 19:39:18 9.1 C 30 %
2567 15-03-2020 19:49:17 9 C 31 %
2568 15-03-2020 19:59:17 8.9 C 31 %
2569 15-03-2020 20:09:18 8.6 C 31 %
2570 15-03-2020 20:19:17 8.5 C 32 %
2571 15-03-2020 20:29:17 8.2 C 32 %
2572 15-03-2020 20:39:18 8.2 C 32 %
2573 15-03-2020 20:49:18 8 C 32 %
2574 15-03-2020 20:59:18 7.4 C 34 %
2575 15-03-2020 21:09:18 7.1 C 35 %
Sensor: Nr:Datum:Temp:Feuchte:
Aussen-T/F 2576 15-03-2020 21:19:17 7 C 35 %
2577 15-03-2020 21:29:17 7.4 C 35 %
2578 15-03-2020 21:39:17 7.5 C 35 %
2579 15-03-2020 21:49:17 7.1 C 35 %
2580 15-03-2020 21:59:17 6.3 C 36 %
2581 15-03-2020 22:09:17 5.8 C 37 %
2582 15-03-2020 22:19:17 5.4 C 37 %
2583 15-03-2020 22:29:18 5 C 38 %
2584 15-03-2020 22:39:17 4.7 C 40 %
2585 15-03-2020 22:49:17 4.7 C 40 %
2586 15-03-2020 22:59:17 4.7 C 40 %
2587 15-03-2020 23:09:17 4.7 C 40 %
2588 15-03-2020 23:19:17 4.6 C 40 %
2589 15-03-2020 23:29:17 4.5 C 40 %
2590 15-03-2020 23:39:17 4.5 C 40 %
2591 15-03-2020 23:49:17 4.3 C 40 %
2592 15-03-2020 23:59:17 4.1 C 40 %
2593 16-03-2020 00:09:17 4 C 40 %
2594 16-03-2020 00:19:17 3.8 C 41 %
2595 16-03-2020 00:29:17 3.4 C 41 %
2596 16-03-2020 00:39:17 3.4 C 42 %
2597 16-03-2020 00:49:17 3.3 C 42 %
2598 16-03-2020 00:59:17 3.3 C 42 %
2599 16-03-2020 01:09:18 2.9 C 43 %
2600 16-03-2020 01:19:17 3 C 43 %
Sensor: Nr:Datum:Temp:Feuchte:
Aussen-T/F 2601 16-03-2020 01:29:17 3 C 42 %
2602 16-03-2020 01:39:17 3.2 C 42 %
2603 16-03-2020 01:49:18 2.8 C 43 %
2604 16-03-2020 01:59:18 2.6 C 44 %
2605 16-03-2020 02:09:17 2.7 C 45 %
2606 16-03-2020 02:19:17 2.7 C 44 %
2607 16-03-2020 02:29:17 2.4 C 44 %
2608 16-03-2020 02:39:17 2.6 C 45 %
2609 16-03-2020 02:49:17 2.8 C 45 %
2610 16-03-2020 02:59:17 2.8 C 44 %
2611 16-03-2020 03:09:18 2.2 C 44 %
2612 16-03-2020 03:19:17 2.3 C 44 %
2613 16-03-2020 03:29:17 2.2 C 45 %
2614 16-03-2020 03:39:17 1.8 C 45 %
2615 16-03-2020 03:49:18 2 C 46 %
2616 16-03-2020 03:59:18 1.8 C 46 %
2617 16-03-2020 04:09:18 1.6 C 46 %
2618 16-03-2020 04:19:18 1.7 C 46 %
2619 16-03-2020 04:29:18 2 C 46 %
2620 16-03-2020 04:39:18 1.5 C 46 %
2621 16-03-2020 04:49:17 1.7 C 46 %
2622 16-03-2020 04:59:18 1.9 C 46 %
2623 16-03-2020 05:09:18 1.7 C 46 %
2624 16-03-2020 05:19:18 1.7 C 46 %
2625 16-03-2020 05:29:18 1.4 C 46 %
Sensor: Nr:Datum:Temp:Feuchte:
Aussen-T/F 2626 16-03-2020 05:39:18 1.3 C 46 %
2627 16-03-2020 05:49:17 1.2 C 46 %
2628 16-03-2020 05:59:17 1.3 C 47 %
2629 16-03-2020 06:09:18 1.1 C 47 %
2630 16-03-2020 06:19:17 0.6 C 48 %
2631 16-03-2020 06:29:17 0.6 C 48 %
2632 16-03-2020 06:39:17 0.6 C 48 %
2633 16-03-2020 06:49:17 0.6 C 48 %
2634 16-03-2020 06:59:17 0.9 C 49 %
2635 16-03-2020 07:09:17 1.2 C 49 %
2636 16-03-2020 07:19:17 1.1 C 47 %
2637 16-03-2020 07:29:17 1 C 47 %
2638 16-03-2020 07:39:17 1.4 C 49 %
2639 16-03-2020 07:49:17 1.4 C 48 %
2640 16-03-2020 07:59:17 1.7 C 48 %
2641 16-03-2020 08:09:18 2 C 47 %
2642 16-03-2020 08:19:17 2.3 C 47 %
2643 16-03-2020 08:29:18 2.4 C 46 %
2644 16-03-2020 08:39:18 2.4 C 46 %
2645 16-03-2020 08:49:17 2.6 C 46 %
2646 16-03-2020 08:59:17 2.9 C 47 %
2647 16-03-2020 09:09:18 3.4 C 46 %
2648 16-03-2020 09:19:18 3.7 C 45 %
2649 16-03-2020 09:29:18 4 C 45 %
2650 16-03-2020 09:39:18 4.6 C 44 %
Sensor: Nr:Datum:Temp:Feuchte:
Aussen-T/F 2651 16-03-2020 09:49:18 5 C 43 %
2652 16-03-2020 09:59:18 5.6 C 42 %
2653 16-03-2020 10:09:18 6.6 C 41 %
2654 16-03-2020 10:19:18 7.3 C 40 %
2655 16-03-2020 10:29:18 8.3 C 39 %
2656 16-03-2020 10:39:17 9.3 C 38 %
2657 16-03-2020 10:49:18 10.4 C 37 %
2658 16-03-2020 10:59:18 12.4 C 34 %
2659 16-03-2020 11:09:17 13.3 C 32 %
2660 16-03-2020 11:19:17 14.3 C 30 %
2661 16-03-2020 11:29:17 15.4 C 27 %
2662 16-03-2020 11:39:18 15.7 C 26 %
2663 16-03-2020 11:49:17 15.6 C 25 %
2664 16-03-2020 11:59:17 16.1 C 25 %
2665 16-03-2020 12:09:17 16.5 C 25 %
2666 16-03-2020 12:19:17 16.8 C 25 %
2667 16-03-2020 12:29:17 16.4 C 24 %
2668 16-03-2020 12:39:17 16.9 C 24 %
2669 16-03-2020 12:49:17 18.3 C 21 %
2670 16-03-2020 12:59:17 18.7 C 20 %
2671 16-03-2020 13:09:17 22.3 C 20 %
2672 16-03-2020 13:19:17 21.2 C 20 %
2673 16-03-2020 13:29:17 21.1 C 20 %
2674 16-03-2020 13:39:17 20.6 C 20 %
2675 16-03-2020 13:49:17 21.1 C 20 %
Sensor: Nr:Datum:Temp:Feuchte:
Aussen-T/F 2676 16-03-2020 13:59:17 19.7 C 20 %
2677 16-03-2020 14:09:17 18.7 C 20 %
2678 16-03-2020 14:19:17 19.7 C 20 %
2679 16-03-2020 14:29:17 19.7 C 20 %
2680 16-03-2020 14:39:17 20 C 20 %
2681 16-03-2020 14:49:17 19.2 C 20 %
2682 16-03-2020 14:59:17 20.8 C 20 %
2683 16-03-2020 15:09:17 20 C 20 %
2684 16-03-2020 15:19:17 19.1 C 20 %
2685 16-03-2020 15:29:17 18.8 C 20 %
2686 16-03-2020 15:39:18 18.8 C 20 %
2687 16-03-2020 15:49:17 19 C 20 %
2688 16-03-2020 15:59:17 19 C 20 %
2689 16-03-2020 16:09:18 18.7 C 20 %
2690 16-03-2020 16:19:18 19 C 20 %
2691 16-03-2020 16:29:18 21.4 C 20 %
2692 16-03-2020 16:39:17 20.8 C 20 %
2693 16-03-2020 16:49:17 20.2 C 20 %
2694 16-03-2020 16:59:17 19.4 C 20 %
2695 16-03-2020 17:09:17 18.4 C 20 %
2696 16-03-2020 17:19:17 17.9 C 20 %
2697 16-03-2020 17:29:18 17.7 C 20 %
2698 16-03-2020 17:39:18 17.5 C 20 %
2699 16-03-2020 17:49:17 16.8 C 21 %
2700 16-03-2020 17:59:18 16 C 23 %
Sensor: Nr:Datum:Temp:Feuchte:
Aussen-T/F 2701 16-03-2020 18:09:18 15 C 26 %
2702 16-03-2020 18:19:18 14.3 C 27 %
2703 16-03-2020 18:29:18 13.7 C 29 %
2704 16-03-2020 18:39:18 13.1 C 30 %
2705 16-03-2020 18:49:18 12.7 C 31 %
2706 16-03-2020 18:59:18 12.4 C 32 %
2707 16-03-2020 19:09:18 12.1 C 32 %
2708 16-03-2020 19:19:18 12.2 C 32 %
2709 16-03-2020 19:29:18 12.2 C 32 %
2710 16-03-2020 19:39:18 11.9 C 34 %
2711 16-03-2020 19:49:17 11.5 C 34 %
2712 16-03-2020 19:59:18 11 C 35 %
2713 16-03-2020 20:09:18 10.7 C 36 %
2714 16-03-2020 20:19:18 11.4 C 35 %
2715 16-03-2020 20:29:18 10.8 C 36 %
2716 16-03-2020 20:39:18 10.3 C 36 %
2717 16-03-2020 20:49:18 9.5 C 38 %
2718 16-03-2020 20:59:18 10.8 C 37 %
2719 16-03-2020 21:09:18 10.1 C 37 %
2720 16-03-2020 21:19:17 10.3 C 38 %
2721 16-03-2020 21:29:17 9.9 C 38 %
2722 16-03-2020 21:39:17 9.7 C 38 %
2723 16-03-2020 21:49:18 10.2 C 37 %
2724 16-03-2020 21:59:18 9.9 C 38 %
2725 16-03-2020 22:09:18 9.7 C 38 %
Sensor: Nr:Datum:Temp:Feuchte:
Aussen-T/F 2726 16-03-2020 22:19:18 9.5 C 38 %
2727 16-03-2020 22:29:18 9.5 C 39 %
2728 16-03-2020 22:39:18 9.2 C 38 %
2729 16-03-2020 22:49:18 8.9 C 39 %
2730 16-03-2020 22:59:18 9.1 C 39 %
2731 16-03-2020 23:09:18 9.4 C 39 %
2732 16-03-2020 23:19:17 9.4 C 39 %
2733 16-03-2020 23:29:17 9.4 C 39 %
2734 16-03-2020 23:39:17 9.5 C 39 %
2735 16-03-2020 23:49:17 9.5 C 40 %
2736 16-03-2020 23:59:17 9.5 C 39 %
2737 17-03-2020 00:09:17 9.3 C 39 %
2738 17-03-2020 00:19:17 9.7 C 40 %
2739 17-03-2020 00:29:17 9.5 C 39 %
2740 17-03-2020 00:39:18 9.3 C 39 %
2741 17-03-2020 00:49:18 9.1 C 40 %
2742 17-03-2020 00:59:18 9 C 40 %
2743 17-03-2020 01:09:18 9.3 C 40 %
2744 17-03-2020 01:19:17 9.2 C 40 %
2745 17-03-2020 01:29:17 8.9 C 40 %
2746 17-03-2020 01:39:17 8.7 C 41 %
2747 17-03-2020 01:49:18 8.8 C 41 %
2748 17-03-2020 01:59:18 8.8 C 41 %
2749 17-03-2020 02:09:18 8.7 C 41 %
2750 17-03-2020 02:19:17 8.7 C 41 %
Sensor: Nr:Datum:Temp:Feuchte:
Aussen-T/F 2751 17-03-2020 02:29:17 8.7 C 41 %
2752 17-03-2020 02:39:17 8.9 C 41 %
2753 17-03-2020 02:49:17 8.9 C 41 %
2754 17-03-2020 02:59:17 8.8 C 41 %
2755 17-03-2020 03:09:18 8.6 C 41 %
2756 17-03-2020 03:19:18 8.6 C 41 %
2757 17-03-2020 03:29:18 8.4 C 41 %
2758 17-03-2020 03:39:17 8.3 C 41 %
2759 17-03-2020 03:49:18 8.1 C 42 %
2760 17-03-2020 03:59:18 8 C 41 %
2761 17-03-2020 04:09:18 8.9 C 42 %
2762 17-03-2020 04:19:18 9.2 C 40 %
2763 17-03-2020 04:29:18 9.3 C 40 %
2764 17-03-2020 04:39:17 9 C 40 %
2765 17-03-2020 04:49:18 9 C 40 %
2766 17-03-2020 04:59:18 8.6 C 41 %
2767 17-03-2020 05:09:17 8.9 C 41 %
2768 17-03-2020 05:19:17 9 C 40 %
2769 17-03-2020 05:29:17 8.6 C 41 %
2770 17-03-2020 05:39:17 8.3 C 41 %
2771 17-03-2020 05:49:17 8.2 C 41 %
2772 17-03-2020 05:59:18 8.2 C 41 %
2773 17-03-2020 06:09:18 8.1 C 41 %
2774 17-03-2020 06:19:18 8.1 C 41 %
2775 17-03-2020 06:29:18 8 C 41 %
Sensor: Nr:Datum:Temp:Feuchte:
Aussen-T/F 2776 17-03-2020 06:39:18 8.2 C 41 %
2777 17-03-2020 06:49:18 8.1 C 41 %
2778 17-03-2020 06:59:18 8.2 C 41 %
2779 17-03-2020 07:09:17 8.8 C 40 %
2780 17-03-2020 07:19:17 9 C 40 %
2781 17-03-2020 07:29:17 9.5 C 39 %
2782 17-03-2020 07:39:17 9.6 C 39 %
2783 17-03-2020 07:49:18 9.6 C 39 %
2784 17-03-2020 07:59:18 9.8 C 38 %
2785 17-03-2020 08:09:18 10.1 C 37 %
2786 17-03-2020 08:19:17 10 C 37 %
2787 17-03-2020 08:29:17 9.8 C 38 %
2788 17-03-2020 08:39:17 9.9 C 38 %
2789 17-03-2020 08:49:17 9.9 C 38 %
2790 17-03-2020 08:59:17 10 C 37 %
2791 17-03-2020 09:09:17 10.2 C 37 %
2792 17-03-2020 09:19:18 10.4 C 37 %
2793 17-03-2020 09:29:18 10.4 C 37 %
2794 17-03-2020 09:39:18 10.6 C 37 %
2795 17-03-2020 09:49:17 10.6 C 37 %
2796 17-03-2020 09:59:17 10.7 C 37 %
2797 17-03-2020 10:09:17 10.7 C 37 %
2798 17-03-2020 10:19:17 10.9 C 36 %
2799 17-03-2020 10:29:17 11 C 35 %
2800 17-03-2020 10:39:17 11.7 C 35 %
Sensor: Nr:Datum:Temp:Feuchte:
Aussen-T/F 2801 17-03-2020 10:49:17 12.4 C 33 %
2802 17-03-2020 10:59:17 12.9 C 33 %
2803 17-03-2020 11:09:17 13.1 C 32 %
2804 17-03-2020 11:19:17 13.3 C 31 %
2805 17-03-2020 11:29:17 13.3 C 31 %
2806 17-03-2020 11:39:17 14.7 C 30 %
2807 17-03-2020 11:49:17 14.1 C 29 %
2808 17-03-2020 11:59:17 15.4 C 28 %
2809 17-03-2020 12:09:17 14.5 C 29 %
2810 17-03-2020 12:19:18 14.6 C 27 %
2811 17-03-2020 12:29:18 15.2 C 26 %
2812 17-03-2020 12:39:18 16.5 C 26 %
2813 17-03-2020 12:49:18 16.6 C 24 %
2814 17-03-2020 12:59:18 19.3 C 20 %
2815 17-03-2020 13:09:17 18.8 C 20 %
2816 17-03-2020 13:19:17 20.4 C 20 %
2817 17-03-2020 13:29:17 19.5 C 20 %
2818 17-03-2020 13:39:17 18.5 C 20 %
2819 17-03-2020 13:49:18 18.8 C 20 %
2820 17-03-2020 13:59:18 19.3 C 20 %
2821 17-03-2020 14:09:17 18.3 C 20 %
2822 17-03-2020 14:19:17 18.5 C 20 %
2823 17-03-2020 14:29:17 17.9 C 20 %
2824 17-03-2020 14:39:18 17.1 C 20 %
2825 17-03-2020 14:49:18 20.5 C 20 %
Sensor: Nr:Datum:Temp:Feuchte:
Aussen-T/F 2826 17-03-2020 14:59:18 22.2 C 20 %
2827 17-03-2020 15:09:17 22.5 C 20 %
2828 17-03-2020 15:19:17 22.1 C 20 %
2829 17-03-2020 15:29:17 23.8 C 20 %
2830 17-03-2020 15:39:18 23.6 C 20 %
2831 17-03-2020 15:49:17 23.8 C 20 %
2832 17-03-2020 15:59:17 23.9 C 20 %
2833 17-03-2020 16:09:18 23.3 C 20 %
2834 17-03-2020 16:19:18 21.8 C 20 %
2835 17-03-2020 16:29:18 23.2 C 20 %
2836 17-03-2020 16:39:17 21.4 C 20 %
2837 17-03-2020 16:49:17 22.3 C 20 %
2838 17-03-2020 16:59:17 20.1 C 20 %
2839 17-03-2020 17:09:17 18.7 C 20 %
2840 17-03-2020 17:19:18 17.7 C 20 %
2841 17-03-2020 17:29:18 17.3 C 20 %
2842 17-03-2020 17:39:18 16.8 C 20 %
2843 17-03-2020 17:49:17 16.1 C 22 %
2844 17-03-2020 17:59:18 15.3 C 24 %
2845 17-03-2020 18:09:18 14.1 C 27 %
2846 17-03-2020 18:19:17 13.5 C 28 %
2847 17-03-2020 18:29:17 13.2 C 29 %
2848 17-03-2020 18:39:18 12.8 C 30 %
2849 17-03-2020 18:49:18 12.4 C 31 %
2850 17-03-2020 18:59:18 12 C 31 %
Sensor: Nr:Datum:Temp:Feuchte:
Aussen-T/F 2851 17-03-2020 19:09:18 11.9 C 32 %
2852 17-03-2020 19:19:17 11.8 C 32 %
2853 17-03-2020 19:29:17 11.1 C 33 %
2854 17-03-2020 19:39:17 11 C 34 %
2855 17-03-2020 19:49:17 10.4 C 35 %
2856 17-03-2020 19:59:17 10.2 C 35 %
2857 17-03-2020 20:09:17 9.9 C 36 %
2858 17-03-2020 20:19:17 10.1 C 36 %
2859 17-03-2020 20:29:17 10.7 C 35 %
2860 17-03-2020 20:39:18 10.4 C 35 %
2861 17-03-2020 20:49:18 9.6 C 37 %
2862 17-03-2020 20:59:18 9.5 C 37 %
2863 17-03-2020 21:09:18 9 C 37 %
2864 17-03-2020 21:19:17 8.4 C 39 %
2865 17-03-2020 21:29:17 8.4 C 39 %
2866 17-03-2020 21:39:17 8.1 C 39 %
2867 17-03-2020 21:49:18 8 C 40 %
2868 17-03-2020 21:59:18 7.6 C 40 %
2869 17-03-2020 22:09:18 7.3 C 40 %
2870 17-03-2020 22:19:18 7.2 C 41 %
2871 17-03-2020 22:29:18 7 C 41 %
2872 17-03-2020 22:39:17 6.9 C 41 %
2873 17-03-2020 22:49:17 6.7 C 42 %
2874 17-03-2020 22:59:17 6.5 C 42 %
2875 17-03-2020 23:09:17 6.4 C 42 %
Sensor: Nr:Datum:Temp:Feuchte:
Aussen-T/F 2876 17-03-2020 23:19:17 6.3 C 42 %
2877 17-03-2020 23:29:17 6.1 C 42 %
2878 17-03-2020 23:39:18 6.1 C 42 %
2879 17-03-2020 23:49:18 6.2 C 43 %
2880 17-03-2020 23:59:18 6.3 C 43 %
2881 18-03-2020 00:09:17 5.9 C 43 %
2882 18-03-2020 00:19:17 5.8 C 44 %
2883 18-03-2020 00:29:17 5.9 C 44 %
2884 18-03-2020 00:39:17 5.8 C 44 %
2885 18-03-2020 00:49:17 6 C 44 %
2886 18-03-2020 00:59:17 6 C 43 %
2887 18-03-2020 01:09:17 5.7 C 44 %
2888 18-03-2020 01:19:17 5.6 C 44 %
2889 18-03-2020 01:29:17 5.3 C 44 %
2890 18-03-2020 01:39:17 5.6 C 45 %
2891 18-03-2020 01:49:17 5.3 C 45 %
2892 18-03-2020 01:59:17 5.6 C 46 %
2893 18-03-2020 02:09:17 5.1 C 44 %
2894 18-03-2020 02:19:17 4.8 C 45 %
2895 18-03-2020 02:29:17 4.8 C 45 %
2896 18-03-2020 02:39:17 4.6 C 46 %
2897 18-03-2020 02:49:18 4.3 C 46 %
2898 18-03-2020 02:59:18 4.3 C 46 %
2899 18-03-2020 03:09:18 4.2 C 46 %
2900 18-03-2020 03:19:17 4.2 C 46 %
Sensor: Nr:Datum:Temp:Feuchte:
Aussen-T/F 2901 18-03-2020 03:29:17 4.1 C 46 %
2902 18-03-2020 03:39:17 4 C 46 %
2903 18-03-2020 03:49:17 3.8 C 47 %
2904 18-03-2020 03:59:17 3.8 C 47 %
2905 18-03-2020 04:09:17 3.8 C 47 %
2906 18-03-2020 04:19:18 3.8 C 47 %
2907 18-03-2020 04:29:18 3.7 C 47 %
2908 18-03-2020 04:39:18 3.7 C 47 %
2909 18-03-2020 04:49:18 3.6 C 47 %
2910 18-03-2020 04:59:18 3.6 C 47 %
2911 18-03-2020 05:09:18 3.7 C 48 %
2912 18-03-2020 05:19:18 3.8 C 48 %
2913 18-03-2020 05:29:18 3.3 C 47 %
2914 18-03-2020 05:39:18 3.2 C 47 %
2915 18-03-2020 05:49:18 3.3 C 47 %
2916 18-03-2020 05:59:18 3.1 C 47 %
2917 18-03-2020 06:09:18 2.9 C 48 %
2918 18-03-2020 06:19:17 3.3 C 47 %
2919 18-03-2020 06:29:18 3.1 C 47 %
2920 18-03-2020 06:39:18 3.1 C 47 %
2921 18-03-2020 06:49:17 3.1 C 47 %
2922 18-03-2020 06:59:18 3.6 C 47 %
2923 18-03-2020 07:09:18 3.5 C 47 %
2924 18-03-2020 07:19:17 3.4 C 47 %
2925 18-03-2020 07:29:17 3.7 C 47 %
Sensor: Nr:Datum:Temp:Feuchte:
Aussen-T/F 2926 18-03-2020 07:39:17 3.9 C 47 %
2927 18-03-2020 07:49:18 4 C 46 %
2928 18-03-2020 07:59:18 4.9 C 46 %
2929 18-03-2020 08:09:18 4.6 C 46 %
2930 18-03-2020 08:19:18 4.5 C 46 %
2931 18-03-2020 08:29:18 4.7 C 46 %
2932 18-03-2020 08:39:17 5 C 45 %
2933 18-03-2020 08:49:18 5.3 C 46 %
2934 18-03-2020 08:59:18 5.6 C 46 %
2935 18-03-2020 09:09:17 6.7 C 45 %
2936 18-03-2020 09:19:17 7.1 C 45 %
2937 18-03-2020 09:29:17 8.5 C 45 %
2938 18-03-2020 09:39:17 9.7 C 41 %
2939 18-03-2020 09:49:18 10.5 C 40 %
2940 18-03-2020 09:59:18 11 C 38 %
2941 18-03-2020 10:09:18 11.1 C 38 %
2942 18-03-2020 10:19:18 11.6 C 38 %
2943 18-03-2020 10:29:18 11.6 C 37 %
2944 18-03-2020 10:39:18 11.7 C 38 %
2945 18-03-2020 10:49:18 12 C 36 %
2946 18-03-2020 10:59:18 12.2 C 35 %
2947 18-03-2020 11:09:18 12.7 C 35 %
2948 18-03-2020 11:19:18 12.8 C 34 %
2949 18-03-2020 11:29:18 13.3 C 34 %
2950 18-03-2020 11:39:18 13.9 C 33 %
Sensor: Nr:Datum:Temp:Feuchte:
Aussen-T/F 2951 18-03-2020 11:49:17 14.7 C 32 %
2952 18-03-2020 11:59:17 15.3 C 30 %
2953 18-03-2020 12:09:18 15.8 C 30 %
2954 18-03-2020 12:19:17 16.6 C 29 %
2955 18-03-2020 12:29:18 17 C 27 %
2956 18-03-2020 12:39:18 17.8 C 26 %
2957 18-03-2020 12:49:17 19.1 C 25 %
2958 18-03-2020 12:59:17 19.8 C 20 %
2959 18-03-2020 13:09:17 21 C 20 %
2960 18-03-2020 13:19:17 21.2 C 20 %
2961 18-03-2020 13:29:17 19.5 C 20 %
2962 18-03-2020 13:39:18 17.7 C 20 %
2963 18-03-2020 13:49:17 16.6 C 22 %
2964 18-03-2020 13:59:17 16 C 22 %
2965 18-03-2020 14:09:17 17.6 C 21 %
2966 18-03-2020 14:19:17 16.7 C 20 %
2967 18-03-2020 14:29:17 17.9 C 20 %
2968 18-03-2020 14:39:18 18.5 C 20 %
2969 18-03-2020 14:49:17 17.4 C 20 %
2970 18-03-2020 14:59:17 17.4 C 20 %
2971 18-03-2020 15:09:17 20.6 C 20 %
2972 18-03-2020 15:19:18 17.9 C 20 %
2973 18-03-2020 15:29:18 18.2 C 20 %
2974 18-03-2020 15:39:18 17.7 C 20 %
2975 18-03-2020 15:49:17 16.9 C 20 %
Sensor: Nr:Datum:Temp:Feuchte:
Aussen-T/F 2976 18-03-2020 15:59:17 16.7 C 21 %
2977 18-03-2020 16:09:17 16.4 C 21 %
2978 18-03-2020 16:19:17 16.4 C 22 %
2979 18-03-2020 16:29:17 16.4 C 20 %
2980 18-03-2020 16:39:17 16.5 C 20 %
2981 18-03-2020 16:49:18 16.2 C 21 %
2982 18-03-2020 16:59:18 16.1 C 21 %
2983 18-03-2020 17:09:17 16 C 21 %
2984 18-03-2020 17:19:17 16 C 21 %
2985 18-03-2020 17:29:17 15.7 C 22 %
2986 18-03-2020 17:39:18 16 C 20 %
2987 18-03-2020 17:49:17 16.3 C 20 %
2988 18-03-2020 17:59:17 15.8 C 22 %
2989 18-03-2020 18:09:17 15.4 C 22 %
2990 18-03-2020 18:19:17 14.7 C 26 %
2991 18-03-2020 18:29:17 13.7 C 26 %
2992 18-03-2020 18:39:17 13.3 C 28 %
2993 18-03-2020 18:49:17 12.7 C 30 %
2994 18-03-2020 18:59:17 12 C 31 %
2995 18-03-2020 19:09:17 11.7 C 32 %
2996 18-03-2020 19:19:18 11.5 C 32 %
2997 18-03-2020 19:29:18 10.5 C 34 %
2998 18-03-2020 19:39:18 10.9 C 34 %
2999 18-03-2020 19:49:18 11.1 C 34 %
3000 18-03-2020 19:59:18 10.9 C 35 %
Sensor: Nr:Datum:Temp:Feuchte:
Aussen-T/F 3001 18-03-2020 20:09:18 10.6 C 35 %
3002 18-03-2020 20:19:17 10.4 C 35 %
3003 18-03-2020 20:29:17 10.4 C 35 %
3004 18-03-2020 20:39:18 10 C 36 %
3005 18-03-2020 20:49:17 9.7 C 37 %
3006 18-03-2020 20:59:17 9.7 C 37 %
3007 18-03-2020 21:09:18 9.7 C 37 %
3008 18-03-2020 21:19:17 9.6 C 37 %
3009 18-03-2020 21:29:17 9.4 C 37 %
3010 18-03-2020 21:39:17 9 C 37 %
3011 18-03-2020 21:49:17 8.7 C 38 %
3012 18-03-2020 21:59:17 8.4 C 39 %
3013 18-03-2020 22:09:17 8.2 C 39 %
3014 18-03-2020 22:19:17 8.1 C 40 %
3015 18-03-2020 22:29:17 8 C 40 %
3016 18-03-2020 22:39:17 8 C 40 %
3017 18-03-2020 22:49:17 8.1 C 40 %
3018 18-03-2020 22:59:17 8.2 C 40 %
3019 18-03-2020 23:09:18 8.3 C 40 %
3020 18-03-2020 23:19:17 8.1 C 40 %
3021 18-03-2020 23:29:17 8 C 40 %
3022 18-03-2020 23:39:18 8 C 40 %
3023 18-03-2020 23:49:18 8.4 C 40 %
3024 18-03-2020 23:59:18 8.9 C 40 %
3025 19-03-2020 00:09:17 8.9 C 39 %
Sensor: Nr:Datum:Temp:Feuchte:
Aussen-T/F 3026 19-03-2020 00:19:18 8.9 C 38 %
3027 19-03-2020 00:29:18 9 C 38 %
3028 19-03-2020 00:39:18 9 C 38 %
3029 19-03-2020 00:49:17 9.1 C 38 %
3030 19-03-2020 00:59:17 9.1 C 38 %
3031 19-03-2020 01:09:18 9 C 38 %
3032 19-03-2020 01:19:17 9.1 C 38 %
3033 19-03-2020 01:29:17 9 C 38 %
3034 19-03-2020 01:39:17 9 C 38 %
3035 19-03-2020 01:49:17 8.9 C 38 %
3036 19-03-2020 01:59:17 8.8 C 39 %
3037 19-03-2020 02:09:18 8.7 C 39 %
3038 19-03-2020 02:19:17 8.7 C 39 %
3039 19-03-2020 02:29:17 8.6 C 39 %
3040 19-03-2020 02:39:17 8.5 C 39 %
3041 19-03-2020 02:49:18 8.5 C 39 %
3042 19-03-2020 02:59:18 8.5 C 39 %
3043 19-03-2020 03:09:18 8.5 C 39 %
3044 19-03-2020 03:19:18 8.6 C 39 %
3045 19-03-2020 03:29:18 8.5 C 39 %
3046 19-03-2020 03:39:17 8.5 C 39 %
3047 19-03-2020 03:49:18 8.4 C 39 %
3048 19-03-2020 03:59:18 8.4 C 40 %
3049 19-03-2020 04:09:18 8.4 C 40 %
3050 19-03-2020 04:19:17 8.5 C 40 %
Sensor: Nr:Datum:Temp:Feuchte:
Aussen-T/F 3051 19-03-2020 04:29:17 8.5 C 39 %
3052 19-03-2020 04:39:17 8.5 C 39 %
3053 19-03-2020 04:49:18 8.5 C 39 %
3054 19-03-2020 04:59:18 8.5 C 39 %
3055 19-03-2020 05:09:18 8.6 C 39 %
3056 19-03-2020 05:19:18 8.9 C 38 %
3057 19-03-2020 05:29:18 8.7 C 39 %
3058 19-03-2020 05:39:18 8.6 C 39 %
3059 19-03-2020 05:49:17 8.5 C 39 %
3060 19-03-2020 05:59:18 8.4 C 39 %
3061 19-03-2020 06:09:18 8.4 C 39 %
3062 19-03-2020 06:19:17 8.3 C 40 %
3063 19-03-2020 06:29:17 8.2 C 39 %
3064 19-03-2020 06:39:17 8.1 C 40 %
3065 19-03-2020 06:49:17 8.1 C 40 %
3066 19-03-2020 06:59:17 8.2 C 40 %
3067 19-03-2020 07:09:17 8.2 C 40 %
3068 19-03-2020 07:19:17 8.5 C 40 %
3069 19-03-2020 07:29:17 8.7 C 39 %
3070 19-03-2020 07:39:18 8.9 C 39 %
3071 19-03-2020 07:49:18 9.1 C 38 %
3072 19-03-2020 07:59:18 9.4 C 38 %
3073 19-03-2020 08:09:18 9.7 C 38 %
3074 19-03-2020 08:19:17 9.9 C 37 %
3075 19-03-2020 08:29:17 9.9 C 37 %
Sensor: Nr:Datum:Temp:Feuchte:
Aussen-T/F 3076 19-03-2020 08:39:17 10.5 C 36 %
3077 19-03-2020 08:49:18 10.4 C 36 %
3078 19-03-2020 08:59:18 10.2 C 36 %
3079 19-03-2020 09:09:17 11.2 C 35 %
3080 19-03-2020 09:19:17 11.7 C 35 %
3081 19-03-2020 09:29:17 11.5 C 35 %
3082 19-03-2020 09:39:18 11.8 C 35 %
3083 19-03-2020 09:49:17 11.6 C 35 %
3084 19-03-2020 09:59:17 12.4 C 33 %
3085 19-03-2020 10:09:18 12.3 C 32 %
3086 19-03-2020 10:19:18 13.1 C 31 %
3087 19-03-2020 10:29:18 13.5 C 30 %
3088 19-03-2020 10:39:17 13.9 C 31 %
3089 19-03-2020 10:49:17 14.2 C 30 %
3090 19-03-2020 10:59:17 15.4 C 29 %
3091 19-03-2020 11:09:17 15.5 C 29 %
3092 19-03-2020 11:19:17 16.4 C 26 %
3093 19-03-2020 11:29:17 17.7 C 26 %
3094 19-03-2020 11:39:17 18.5 C 24 %
3095 19-03-2020 11:49:17 15.8 C 26 %
3096 19-03-2020 11:59:17 15 C 28 %
3097 19-03-2020 12:09:17 15.2 C 28 %
3098 19-03-2020 12:19:17 15.5 C 28 %
3099 19-03-2020 12:29:17 16.8 C 26 %
3100 19-03-2020 12:39:18 18.1 C 22 %
Sensor: Nr:Datum:Temp:Feuchte:
Aussen-T/F 3101 19-03-2020 12:49:17 18.6 C 20 %
3102 19-03-2020 12:59:17 17.9 C 20 %
3103 19-03-2020 13:09:18 20.4 C 20 %
3104 19-03-2020 13:19:18 25.8 C 20 %
3105 19-03-2020 13:29:18 25.6 C 20 %
3106 19-03-2020 13:39:18 19.7 C 20 %
3107 19-03-2020 13:49:17 18.8 C 20 %
3108 19-03-2020 13:59:17 18.2 C 20 %
3109 19-03-2020 14:09:17 18.7 C 20 %
3110 19-03-2020 14:19:17 18.9 C 20 %
3111 19-03-2020 14:29:17 18.8 C 20 %
3112 19-03-2020 14:39:17 18.9 C 20 %
3113 19-03-2020 14:49:17 19.3 C 20 %
3114 19-03-2020 14:59:17 19.1 C 20 %
3115 19-03-2020 15:09:18 18.5 C 20 %
3116 19-03-2020 15:19:18 19.1 C 20 %
3117 19-03-2020 15:29:18 19.3 C 20 %
3118 19-03-2020 15:39:18 19.8 C 20 %
3119 19-03-2020 15:49:17 21.8 C 20 %
3120 19-03-2020 15:59:18 19.5 C 20 %
3121 19-03-2020 16:09:18 19.1 C 20 %
3122 19-03-2020 16:20:17 19.1 C 20 %
3123 19-03-2020 16:29:17 19.1 C 20 %
3124 19-03-2020 16:39:17 19.1 C 20 %
3125 19-03-2020 16:49:17 19.1 C 20 %
Sensor: Nr:Datum:Temp:Feuchte:
Aussen-T/F 3126 19-03-2020 16:59:17 18.4 C 20 %
3127 19-03-2020 17:09:18 17.6 C 20 %
3128 19-03-2020 17:19:18 17.3 C 20 %
3129 19-03-2020 17:29:18 17 C 20 %
3130 19-03-2020 17:39:18 16.8 C 20 %
3131 19-03-2020 17:49:18 16.9 C 20 %
3132 19-03-2020 17:59:18 16.7 C 20 %
3133 19-03-2020 18:09:18 16.3 C 20 %
3134 19-03-2020 18:20:17 15.7 C 23 %
3135 19-03-2020 18:30:17 13.9 C 29 %
3136 19-03-2020 18:40:17 13.5 C 30 %
3137 19-03-2020 18:50:17 12.8 C 31 %
3138 19-03-2020 18:59:18 12.7 C 31 %
3139 19-03-2020 19:09:18 12.3 C 31 %
3140 19-03-2020 19:20:17 12.2 C 31 %
3141 19-03-2020 19:30:17 11.9 C 32 %
3142 19-03-2020 19:40:17 11.7 C 32 %
3143 19-03-2020 19:50:17 11.7 C 33 %
3144 19-03-2020 19:59:17 11.7 C 33 %
3145 19-03-2020 20:09:17 11.7 C 33 %
3146 19-03-2020 20:29:17 11.5 C 34 %
3147 19-03-2020 20:29:17 11.6 C 34 %
3148 19-03-2020 20:39:17 12 C 33 %
3149 19-03-2020 20:49:17 11.8 C 34 %
3150 19-03-2020 20:59:17 11.5 C 35 %
Sensor: Nr:Datum:Temp:Feuchte:
Aussen-T/F 3151 19-03-2020 21:09:18 12 C 33 %
3152 19-03-2020 21:20:17 11.4 C 35 %
3153 19-03-2020 21:30:17 11.3 C 35 %
3154 19-03-2020 21:40:17 10.3 C 36 %
3155 19-03-2020 21:50:17 10.7 C 36 %
3156 19-03-2020 21:59:18 10.6 C 36 %
3157 19-03-2020 22:09:18 10.1 C 37 %
3158 19-03-2020 22:19:18 9.7 C 38 %
3159 19-03-2020 22:29:18 9.8 C 38 %
3160 19-03-2020 22:39:18 9.5 C 39 %
3161 19-03-2020 22:49:18 9.4 C 39 %
3162 19-03-2020 22:59:18 9.5 C 38 %
3163 19-03-2020 23:09:18 9.5 C 38 %
3164 19-03-2020 23:20:17 9.4 C 39 %
3165 19-03-2020 23:30:17 9.2 C 39 %
3166 19-03-2020 23:40:17 9.6 C 38 %
3167 19-03-2020 23:50:17 9.1 C 39 %
3168 19-03-2020 23:59:18 8.7 C 40 %
3169 20-03-2020 00:09:18 8.6 C 40 %
3170 20-03-2020 00:19:18 9.3 C 39 %
3171 20-03-2020 00:29:18 9.1 C 39 %
3172 20-03-2020 00:39:18 9 C 39 %
3173 20-03-2020 00:59:17 8.8 C 40 %
3174 20-03-2020 01:00:18 8.8 C 40 %
3175 20-03-2020 01:10:18 8.7 C 40 %
Sensor: Nr:Datum:Temp:Feuchte:
Aussen-T/F 3176 20-03-2020 01:20:17 8.7 C 40 %
3177 20-03-2020 01:30:18 8.6 C 40 %
3178 20-03-2020 01:40:18 8.4 C 40 %
3179 20-03-2020 01:50:17 8.5 C 40 %
3180 20-03-2020 02:00:18 8.3 C 40 %
3181 20-03-2020 02:10:18 7.9 C 40 %
3182 20-03-2020 02:20:17 7.6 C 41 %
3183 20-03-2020 02:30:17 7.4 C 41 %
3184 20-03-2020 02:40:17 7.4 C 41 %
3185 20-03-2020 02:50:17 7.1 C 41 %
3186 20-03-2020 03:00:17 7.1 C 42 %
3187 20-03-2020 03:10:17 7.1 C 42 %
3188 20-03-2020 03:20:17 7.1 C 42 %
3189 20-03-2020 03:30:18 7.2 C 42 %
3190 20-03-2020 03:40:18 7.3 C 42 %
3191 20-03-2020 03:50:17 7.5 C 42 %
3192 20-03-2020 04:00:18 7.5 C 42 %
3193 20-03-2020 04:10:18 7.7 C 42 %
3194 20-03-2020 04:20:18 7.6 C 41 %
3195 20-03-2020 04:30:18 7.4 C 42 %
3196 20-03-2020 04:40:18 7.2 C 42 %
3197 20-03-2020 04:50:17 7 C 42 %
3198 20-03-2020 05:00:18 6.9 C 43 %
3199 20-03-2020 05:10:18 6.8 C 43 %
3200 20-03-2020 05:20:17 6.5 C 43 %
Sensor: Nr:Datum:Temp:Feuchte:
Aussen-T/F 3201 20-03-2020 05:30:17 6.2 C 43 %
3202 20-03-2020 05:40:17 5.9 C 44 %
3203 20-03-2020 05:50:17 5.6 C 44 %
3204 20-03-2020 06:00:17 5.4 C 45 %
3205 20-03-2020 06:10:17 5.2 C 45 %
3206 20-03-2020 06:20:17 5 C 45 %
3207 20-03-2020 06:30:17 5.1 C 46 %
3208 20-03-2020 06:40:17 5 C 46 %
3209 20-03-2020 06:50:17 5 C 46 %
3210 20-03-2020 07:00:17 5.1 C 46 %
3211 20-03-2020 07:10:17 5.3 C 46 %
3212 20-03-2020 07:20:17 5.5 C 46 %
3213 20-03-2020 07:30:17 5.6 C 46 %
3214 20-03-2020 07:40:17 5.7 C 46 %
3215 20-03-2020 07:50:18 5.8 C 46 %
3216 20-03-2020 08:00:17 6.3 C 46 %
3217 20-03-2020 08:10:17 6.9 C 45 %
3218 20-03-2020 08:20:17 7.2 C 43 %
3219 20-03-2020 08:30:17 7.1 C 43 %
3220 20-03-2020 08:40:17 7.1 C 43 %
3221 20-03-2020 08:50:17 7.3 C 43 %
3222 20-03-2020 09:00:17 8 C 43 %
3223 20-03-2020 09:10:17 8.2 C 42 %
3224 20-03-2020 09:20:17 9.6 C 42 %
3225 20-03-2020 09:30:17 10 C 40 %
Sensor: Nr:Datum:Temp:Feuchte:
Aussen-T/F 3226 20-03-2020 09:40:17 10.2 C 40 %
3227 20-03-2020 09:50:17 10.5 C 39 %
3228 20-03-2020 10:00:18 10.8 C 39 %
3229 20-03-2020 10:10:18 11.2 C 38 %
3230 20-03-2020 10:20:18 11.1 C 37 %
3231 20-03-2020 10:30:18 11 C 37 %
3232 20-03-2020 10:40:18 11.5 C 37 %
3233 20-03-2020 10:50:18 12.6 C 36 %
3234 20-03-2020 11:00:17 13.1 C 35 %
3235 20-03-2020 11:10:18 13.1 C 35 %
3236 20-03-2020 11:20:18 14.2 C 33 %
3237 20-03-2020 11:30:18 14.5 C 32 %
3238 20-03-2020 11:40:18 15.3 C 31 %
3239 20-03-2020 11:50:18 14.6 C 32 %
3240 20-03-2020 12:00:17 15.6 C 31 %
3241 20-03-2020 12:10:17 15.4 C 30 %
3242 20-03-2020 12:20:17 15.6 C 30 %
3243 20-03-2020 12:30:18 14.4 C 31 %
3244 20-03-2020 12:40:18 14.9 C 31 %
3245 20-03-2020 12:50:18 14.9 C 31 %
3246 20-03-2020 13:00:18 14.9 C 31 %
3247 20-03-2020 13:10:18 14.9 C 31 %
3248 20-03-2020 13:20:18 14.9 C 31 %
3249 20-03-2020 13:30:18 14.9 C 31 %
3250 20-03-2020 13:40:18 14.9 C 31 %
Sensor: Nr:Datum:Temp:Feuchte:
Aussen-T/F 3251 20-03-2020 13:50:17 16.4 C 26 %
3252 20-03-2020 14:00:17 16.2 C 27 %
3253 20-03-2020 14:10:17 16.6 C 26 %
3254 20-03-2020 14:20:17 16.2 C 27 %
3255 20-03-2020 14:30:18 17.4 C 26 %
3256 20-03-2020 14:40:18 17.3 C 26 %
3257 20-03-2020 14:50:18 17.9 C 25 %
3258 20-03-2020 15:00:17 17.9 C 25 %
3259 20-03-2020 15:10:17 18.1 C 25 %
3260 20-03-2020 15:20:17 17 C 25 %
3261 20-03-2020 15:30:18 17.9 C 25 %
3262 20-03-2020 15:40:18 18.5 C 25 %
3263 20-03-2020 15:50:18 17 C 25 %
3264 20-03-2020 16:00:17 16.2 C 26 %
3265 20-03-2020 16:10:17 16.1 C 26 %
3266 20-03-2020 16:20:17 15.5 C 26 %
3267 20-03-2020 16:30:18 15.8 C 26 %
3268 20-03-2020 16:40:18 15.3 C 26 %
3269 20-03-2020 16:50:18 17 C 25 %
3270 20-03-2020 17:00:18 16.1 C 26 %
3271 20-03-2020 17:10:18 15.2 C 27 %
3272 20-03-2020 17:20:18 14.3 C 28 %
3273 20-03-2020 17:30:18 13.9 C 30 %
3274 20-03-2020 17:40:18 12.8 C 31 %
3275 20-03-2020 17:50:17 12.5 C 31 %
Sensor: Nr:Datum:Temp:Feuchte:
Aussen-T/F 3276 20-03-2020 18:00:17 12.4 C 32 %
3277 20-03-2020 18:10:17 11.9 C 33 %
3278 20-03-2020 18:20:17 11.8 C 34 %
3279 20-03-2020 18:30:17 11.6 C 34 %
3280 20-03-2020 18:40:17 11.6 C 34 %
3281 20-03-2020 18:50:18 11.5 C 34 %
3282 20-03-2020 19:00:17 11.5 C 34 %
3283 20-03-2020 19:10:17 11.3 C 34 %
3284 20-03-2020 19:20:17 11.1 C 34 %
3285 20-03-2020 19:30:17 11 C 35 %
3286 20-03-2020 19:40:17 10.7 C 35 %
3287 20-03-2020 19:50:17 10.6 C 35 %
3288 20-03-2020 20:00:17 10.4 C 35 %
3289 20-03-2020 20:10:17 10.2 C 35 %
3290 20-03-2020 20:20:17 10.3 C 35 %
3291 20-03-2020 20:30:17 10.3 C 35 %
3292 20-03-2020 20:40:17 10.2 C 35 %
3293 20-03-2020 20:50:18 10.3 C 35 %
3294 20-03-2020 21:00:18 10.1 C 35 %
3295 20-03-2020 21:10:18 9.9 C 35 %
3296 20-03-2020 21:20:17 9.5 C 35 %
3297 20-03-2020 21:30:17 9.2 C 35 %
3298 20-03-2020 21:40:17 9.1 C 35 %
3299 20-03-2020 21:50:17 8.7 C 36 %
3300 20-03-2020 22:00:17 8.5 C 36 %
Sensor: Nr:Datum:Temp:Feuchte:
Aussen-T/F 3301 20-03-2020 22:10:17 8.4 C 36 %
3302 20-03-2020 22:20:18 8.3 C 36 %
3303 20-03-2020 22:30:17 8.2 C 36 %
3304 20-03-2020 22:40:18 8.1 C 36 %
3305 20-03-2020 22:50:17 8.1 C 36 %
3306 20-03-2020 23:00:18 8 C 35 %
3307 20-03-2020 23:10:18 7.9 C 36 %
3308 20-03-2020 23:20:17 7.9 C 36 %
3309 20-03-2020 23:30:18 7.9 C 35 %
3310 20-03-2020 23:40:18 7.8 C 35 %
3311 20-03-2020 23:50:18 7.7 C 35 %
3312 21-03-2020 00:00:17 7.6 C 34 %
3313 21-03-2020 00:10:17 7.6 C 34 %
3314 21-03-2020 00:20:17 7.4 C 34 %
3315 21-03-2020 00:30:17 7.3 C 34 %
3316 21-03-2020 00:40:17 7.3 C 34 %
3317 21-03-2020 00:50:17 7.3 C 34 %
3318 21-03-2020 01:00:17 7.2 C 33 %
3319 21-03-2020 01:10:17 7.1 C 33 %
3320 21-03-2020 01:20:17 6.8 C 35 %
3321 21-03-2020 01:30:18 6.5 C 35 %
3322 21-03-2020 01:40:18 6.2 C 36 %
3323 21-03-2020 01:50:17 5.9 C 38 %
3324 21-03-2020 02:00:18 5.6 C 39 %
3325 21-03-2020 02:10:18 5.3 C 40 %
Sensor: Nr:Datum:Temp:Feuchte:
Aussen-T/F 3326 21-03-2020 02:20:17 5.1 C 41 %
3327 21-03-2020 02:30:18 4.9 C 43 %
3328 21-03-2020 02:40:18 4.9 C 43 %
3329 21-03-2020 02:50:18 4.6 C 43 %
3330 21-03-2020 03:00:17 4.5 C 43 %
3331 21-03-2020 03:10:17 4.4 C 44 %
3332 21-03-2020 03:20:17 4.5 C 45 %
3333 21-03-2020 03:30:18 4.5 C 45 %
3334 21-03-2020 03:40:18 4.4 C 45 %
3335 21-03-2020 03:50:17 4.4 C 45 %
3336 21-03-2020 04:00:18 4.3 C 45 %
3337 21-03-2020 04:10:18 4.2 C 45 %
3338 21-03-2020 04:20:17 4.1 C 45 %
3339 21-03-2020 04:30:18 4.1 C 45 %
3340 21-03-2020 04:40:18 4 C 45 %
3341 21-03-2020 04:50:18 3.9 C 46 %
3342 21-03-2020 05:00:18 3.9 C 46 %
3343 21-03-2020 05:10:18 4 C 46 %
3344 21-03-2020 05:20:18 3.9 C 47 %
3345 21-03-2020 05:30:18 3.9 C 47 %
3346 21-03-2020 05:40:18 3.9 C 47 %
3347 21-03-2020 05:50:17 4 C 46 %
3348 21-03-2020 06:00:18 4 C 47 %
3349 21-03-2020 06:10:18 3.9 C 47 %
3350 21-03-2020 06:20:17 4 C 47 %
Sensor: Nr:Datum:Temp:Feuchte:
Aussen-T/F 3351 21-03-2020 06:30:18 4 C 47 %
3352 21-03-2020 06:40:18 4 C 47 %
3353 21-03-2020 06:50:17 4 C 47 %
3354 21-03-2020 07:00:17 4.1 C 47 %
3355 21-03-2020 07:10:18 4.1 C 47 %
3356 21-03-2020 07:20:18 4.1 C 47 %
3357 21-03-2020 07:30:18 4.2 C 47 %
3358 21-03-2020 07:40:18 4.3 C 47 %
3359 21-03-2020 07:50:17 4.3 C 47 %
3360 21-03-2020 08:00:18 4.4 C 47 %
3361 21-03-2020 08:10:18 4.5 C 47 %
3362 21-03-2020 08:20:17 4.5 C 46 %
3363 21-03-2020 08:30:17 4.6 C 46 %
3364 21-03-2020 08:40:17 4.7 C 46 %
3365 21-03-2020 08:50:18 4.8 C 46 %
3366 21-03-2020 09:00:18 4.7 C 46 %
3367 21-03-2020 09:10:18 4.6 C 45 %
3368 21-03-2020 09:20:18 5.2 C 43 %
3369 21-03-2020 09:30:18 5.6 C 42 %
3370 21-03-2020 09:40:18 5.8 C 41 %
3371 21-03-2020 09:50:17 6 C 41 %
3372 21-03-2020 10:00:17 6.2 C 41 %
3373 21-03-2020 10:10:18 6.4 C 39 %
3374 21-03-2020 10:20:18 6.5 C 40 %
3375 21-03-2020 10:30:18 6.7 C 39 %
Sensor: Nr:Datum:Temp:Feuchte:
Aussen-T/F 3376 21-03-2020 10:40:18 6.7 C 38 %
3377 21-03-2020 10:50:17 6.4 C 39 %
3378 21-03-2020 11:00:17 6.5 C 37 %
3379 21-03-2020 11:10:18 7.1 C 36 %
3380 21-03-2020 11:20:18 7.3 C 36 %
3381 21-03-2020 11:30:18 8.1 C 34 %
3382 21-03-2020 11:40:18 8 C 34 %
3383 21-03-2020 11:50:18 8.3 C 32 %
3384 21-03-2020 12:00:18 7.8 C 32 %
3385 21-03-2020 12:10:18 7.6 C 33 %
3386 21-03-2020 12:20:17 7.9 C 31 %
3387 21-03-2020 12:30:17 8.7 C 32 %
3388 21-03-2020 12:40:17 8.2 C 30 %
3389 21-03-2020 12:50:17 7.8 C 31 %
3390 21-03-2020 13:00:17 7.9 C 30 %
3391 21-03-2020 13:10:17 8.7 C 30 %
3392 21-03-2020 13:20:18 8.9 C 28 %
3393 21-03-2020 13:30:18 8.5 C 28 %
3394 21-03-2020 13:40:18 8.2 C 27 %
3395 21-03-2020 13:50:17 8.4 C 27 %
3396 21-03-2020 14:00:18 8.6 C 27 %
3397 21-03-2020 14:10:18 9.1 C 26 %
3398 21-03-2020 14:20:18 8.7 C 27 %
3399 21-03-2020 14:30:18 9.1 C 25 %
3400 21-03-2020 14:40:18 11.1 C 24 %
Sensor: Nr:Datum:Temp:Feuchte:
Aussen-T/F 3401 21-03-2020 14:50:17 9.8 C 23 %
3402 21-03-2020 15:00:18 11 C 20 %
3403 21-03-2020 15:10:18 10.1 C 20 %
3404 21-03-2020 15:20:17 11.2 C 20 %
3405 21-03-2020 15:30:17 11.7 C 20 %
3406 21-03-2020 15:40:17 9.4 C 20 %
3407 21-03-2020 15:50:17 8.6 C 20 %
3408 21-03-2020 16:00:18 9.4 C 20 %
3409 21-03-2020 16:10:18 9.5 C 20 %
3410 21-03-2020 16:20:17 12.1 C 20 %
3411 21-03-2020 16:30:17 12 C 20 %
3412 21-03-2020 16:40:17 13.3 C 20 %
3413 21-03-2020 16:50:17 10.9 C 20 %
3414 21-03-2020 17:00:17 9.2 C 20 %
3415 21-03-2020 17:10:17 8.9 C 20 %
3416 21-03-2020 17:20:17 8.3 C 20 %
3417 21-03-2020 17:30:18 7.8 C 20 %
3418 21-03-2020 17:40:18 7.8 C 20 %
3419 21-03-2020 17:50:17 7.5 C 20 %
3420 21-03-2020 18:00:17 7 C 20 %
3421 21-03-2020 18:10:17 6.9 C 20 %
3422 21-03-2020 18:20:17 6.6 C 21 %
3423 21-03-2020 18:30:17 6.4 C 23 %
3424 21-03-2020 18:40:17 5.9 C 25 %
3425 21-03-2020 18:50:17 5.5 C 27 %
Sensor: Nr:Datum:Temp:Feuchte:
Aussen-T/F 3426 21-03-2020 19:00:17 5.5 C 26 %
3427 21-03-2020 19:10:17 5.1 C 28 %
3428 21-03-2020 19:20:17 4.7 C 30 %
3429 21-03-2020 19:30:18 4.4 C 31 %
3430 21-03-2020 19:40:18 4.5 C 30 %
3431 21-03-2020 19:50:17 4.4 C 29 %
3432 21-03-2020 20:00:18 4.1 C 30 %
3433 21-03-2020 20:10:18 3.7 C 31 %
3434 21-03-2020 20:20:18 3.2 C 33 %
3435 21-03-2020 20:30:18 3.7 C 32 %
3436 21-03-2020 20:40:18 3.9 C 30 %
3437 21-03-2020 20:50:17 3.6 C 31 %
3438 21-03-2020 21:00:18 3.3 C 32 %
3439 21-03-2020 21:10:18 3 C 32 %
3440 21-03-2020 21:20:18 3.4 C 32 %
3441 21-03-2020 21:30:18 3.1 C 31 %
3442 21-03-2020 21:40:18 2.9 C 32 %
3443 21-03-2020 21:50:17 2.6 C 33 %
3444 21-03-2020 22:00:17 1.9 C 36 %
3445 21-03-2020 22:10:17 2.3 C 34 %
3446 21-03-2020 22:20:17 3 C 32 %
3447 21-03-2020 22:30:18 2.7 C 32 %
3448 21-03-2020 22:40:18 2.3 C 33 %
3449 21-03-2020 22:50:18 2.7 C 32 %
3450 21-03-2020 23:00:18 2 C 34 %
Sensor: Nr:Datum:Temp:Feuchte:
Aussen-T/F 3451 21-03-2020 23:10:18 2.2 C 33 %
3452 21-03-2020 23:20:18 1.6 C 35 %
3453 21-03-2020 23:30:18 1.7 C 35 %
3454 21-03-2020 23:40:18 1.8 C 35 %
3455 21-03-2020 23:50:17 1.7 C 35 %
3456 22-03-2020 00:00:18 1.4 C 35 %
3457 22-03-2020 00:10:18 1.5 C 35 %
3458 22-03-2020 00:20:17 0.9 C 37 %
3459 22-03-2020 00:30:17 0.7 C 38 %
3460 22-03-2020 00:40:17 1.2 C 36 %
3461 22-03-2020 00:50:17 0.9 C 37 %
3462 22-03-2020 01:00:18 1.5 C 35 %
3463 22-03-2020 01:10:18 1.5 C 35 %
3464 22-03-2020 01:20:18 1.1 C 35 %
3465 22-03-2020 01:30:18 1.1 C 35 %
3466 22-03-2020 01:40:18 0.9 C 36 %
3467 22-03-2020 01:50:18 1 C 35 %
3468 22-03-2020 02:00:18 1 C 35 %
3469 22-03-2020 02:10:18 0.1 C 38 %
3470 22-03-2020 02:20:17 0.3 C 38 %
3471 22-03-2020 02:30:18 0.5 C 37 %
3472 22-03-2020 02:40:18 0.5 C 37 %
3473 22-03-2020 02:50:18 0.4 C 37 %
3474 22-03-2020 03:00:18 0.2 C 37 %
3475 22-03-2020 03:10:18 0.7 C 37 %
Sensor: Nr:Datum:Temp:Feuchte:
Aussen-T/F 3476 22-03-2020 03:20:18 -0.4 C 38 %
3477 22-03-2020 03:30:18 -0.1 C 38 %
3478 22-03-2020 03:40:18 -0.4 C 39 %
3479 22-03-2020 03:50:17 -0.3 C 39 %
3480 22-03-2020 04:00:17 -0.2 C 38 %
3481 22-03-2020 04:10:17 0 C 37 %
3482 22-03-2020 04:20:17 -0.4 C 38 %
3483 22-03-2020 04:30:17 0.3 C 37 %
3484 22-03-2020 04:40:17 0.1 C 37 %
3485 22-03-2020 04:50:17 -0.2 C 38 %
3486 22-03-2020 05:00:18 0.1 C 37 %
3487 22-03-2020 05:10:18 -0.3 C 37 %
3488 22-03-2020 05:20:17 -0.4 C 37 %
3489 22-03-2020 05:30:18 -0.5 C 38 %
3490 22-03-2020 05:40:18 -0.7 C 38 %
3491 22-03-2020 05:50:17 -1 C 39 %
3492 22-03-2020 06:00:17 -1.1 C 39 %
3493 22-03-2020 06:10:17 -0.8 C 39 %
3494 22-03-2020 06:20:17 0.1 C 37 %
3495 22-03-2020 06:30:17 -0.3 C 37 %
3496 22-03-2020 06:40:17 -0.4 C 37 %
3497 22-03-2020 06:50:18 0 C 36 %
3498 22-03-2020 07:00:18 -0.3 C 37 %
3499 22-03-2020 07:10:18 -0.2 C 37 %
3500 22-03-2020 07:20:18 -0.4 C 37 %
Sensor: Nr:Datum:Temp:Feuchte:
Aussen-T/F 3501 22-03-2020 07:30:18 -0.1 C 36 %
3502 22-03-2020 07:40:18 -0.2 C 37 %
3503 22-03-2020 07:50:17 -0.1 C 36 %
3504 22-03-2020 08:00:18 -0.1 C 36 %
3505 22-03-2020 08:10:18 0.3 C 36 %
3506 22-03-2020 08:20:18 0.3 C 35 %
3507 22-03-2020 08:30:18 0.5 C 35 %
3508 22-03-2020 08:40:18 0.8 C 35 %
3509 22-03-2020 08:50:18 0.4 C 35 %
3510 22-03-2020 09:00:18 0.8 C 35 %
3511 22-03-2020 09:10:18 1.2 C 32 %
3512 22-03-2020 09:20:18 1.6 C 32 %
3513 22-03-2020 09:30:18 2.2 C 30 %
3514 22-03-2020 09:40:18 2.5 C 27 %
3515 22-03-2020 09:50:17 2.8 C 26 %
3516 22-03-2020 10:00:18 3.3 C 25 %
3517 22-03-2020 10:10:18 3.6 C 25 %
3518 22-03-2020 10:20:18 3.9 C 20 %
3519 22-03-2020 10:30:18 4.4 C 20 %
3520 22-03-2020 10:40:18 4.6 C 20 %
3521 22-03-2020 10:50:17 5.2 C 20 %
3522 22-03-2020 11:00:18 5.5 C 20 %
3523 22-03-2020 11:10:18 6.3 C 20 %
3524 22-03-2020 11:20:17 6.5 C 20 %
3525 22-03-2020 11:30:18 6.7 C 20 %
Sensor: Nr:Datum:Temp:Feuchte:
Aussen-T/F 3526 22-03-2020 11:40:18 6.7 C 20 %
3527 22-03-2020 11:50:17 6.5 C 20 %
3528 22-03-2020 12:00:18 7 C 20 %
3529 22-03-2020 12:10:18 7.4 C 20 %
3530 22-03-2020 12:20:18 7.3 C 20 %
3531 22-03-2020 12:30:17 6.9 C 20 %
3532 22-03-2020 12:40:17 8 C 20 %
3533 22-03-2020 12:50:18 8.5 C 20 %
3534 22-03-2020 13:00:18 10.1 C 20 %
3535 22-03-2020 13:10:18 11.1 C 20 %
3536 22-03-2020 13:20:17 11.9 C 20 %
3537 22-03-2020 13:30:18 11.6 C 20 %
3538 22-03-2020 13:40:18 10.9 C 20 %
3539 22-03-2020 13:50:18 10.3 C 20 %
3540 22-03-2020 14:00:17 9.6 C 20 %
3541 22-03-2020 14:10:17 10.2 C 20 %
3542 22-03-2020 14:20:17 12.2 C 20 %
3543 22-03-2020 14:30:17 12.6 C 20 %
3544 22-03-2020 14:40:17 14.4 C 20 %
3545 22-03-2020 14:50:17 14.4 C 20 %
3546 22-03-2020 15:00:18 15 C 20 %
3547 22-03-2020 15:10:18 14.4 C 20 %
3548 22-03-2020 15:20:17 14.7 C 20 %
3549 22-03-2020 15:30:17 13.6 C 20 %
3550 22-03-2020 15:40:17 13.7 C 20 %
Sensor: Nr:Datum:Temp:Feuchte:
Aussen-T/F 3551 22-03-2020 15:50:18 15.4 C 20 %
3552 22-03-2020 16:00:18 16.2 C 20 %
3553 22-03-2020 16:10:18 14.9 C 20 %
3554 22-03-2020 16:20:18 14.1 C 20 %
3555 22-03-2020 16:30:18 13.3 C 20 %
3556 22-03-2020 16:40:18 13.2 C 20 %
3557 22-03-2020 16:50:17 11.7 C 20 %
3558 22-03-2020 17:00:17 10.7 C 20 %
3559 22-03-2020 17:10:17 9.9 C 20 %
3560 22-03-2020 17:20:17 9.7 C 20 %
3561 22-03-2020 17:30:17 9.8 C 20 %
3562 22-03-2020 17:40:17 9.5 C 20 %
3563 22-03-2020 17:50:17 8.9 C 20 %
3564 22-03-2020 18:00:18 8.6 C 20 %
3565 22-03-2020 18:10:18 8.4 C 20 %
3566 22-03-2020 18:20:17 7.9 C 20 %
3567 22-03-2020 18:30:17 7.5 C 20 %
3568 22-03-2020 18:40:17 7 C 20 %
3569 22-03-2020 18:50:17 6.5 C 20 %
3570 22-03-2020 19:00:17 5.6 C 20 %
3571 22-03-2020 19:10:17 4.9 C 21 %
3572 22-03-2020 19:20:17 5.2 C 20 %
3573 22-03-2020 19:30:17 4.3 C 26 %
3574 22-03-2020 19:40:17 3.8 C 27 %
3575 22-03-2020 19:50:18 3.7 C 28 %
Sensor: Nr:Datum:Temp:Feuchte:
Aussen-T/F 3576 22-03-2020 20:00:18 3.6 C 28 %
3577 22-03-2020 20:10:18 3.6 C 27 %
3578 22-03-2020 20:20:17 3.6 C 26 %
3579 22-03-2020 20:30:17 3.2 C 26 %
3580 22-03-2020 20:40:17 3 C 26 %
3581 22-03-2020 20:50:17 2.5 C 30 %
3582 22-03-2020 21:00:17 2.9 C 26 %
3583 22-03-2020 21:10:17 2.7 C 27 %
3584 22-03-2020 21:20:17 2.3 C 30 %
3585 22-03-2020 21:30:17 2.2 C 29 %
3586 22-03-2020 21:40:17 1.8 C 30 %
3587 22-03-2020 21:50:18 1.5 C 31 %
3588 22-03-2020 22:00:18 2 C 30 %
3589 22-03-2020 22:10:18 2.5 C 26 %
3590 22-03-2020 22:20:17 1.8 C 30 %
3591 22-03-2020 22:30:17 1.5 C 29 %
3592 22-03-2020 22:40:17 1.3 C 31 %
3593 22-03-2020 22:50:17 1.4 C 30 %
3594 22-03-2020 23:00:17 0.7 C 33 %
3595 22-03-2020 23:10:17 1.1 C 30 %
3596 22-03-2020 23:20:17 0.8 C 32 %
3597 22-03-2020 23:30:18 0.3 C 33 %
3598 22-03-2020 23:40:18 0.3 C 34 %
3599 22-03-2020 23:50:18 0.6 C 33 %
3600 23-03-2020 00:00:18 0.4 C 34 %
Sensor: Nr:Datum:Temp:Feuchte:
Aussen-T/F 3601 23-03-2020 00:10:18 0 C 33 %
3602 23-03-2020 00:20:17 -0.2 C 33 %
3603 23-03-2020 00:30:17 -0.5 C 35 %
3604 23-03-2020 00:40:17 -0.7 C 36 %
3605 23-03-2020 00:50:18 -1.1 C 36 %
3606 23-03-2020 01:00:17 -0.6 C 35 %
3607 23-03-2020 01:10:17 -0.7 C 36 %
3608 23-03-2020 01:20:17 -0.9 C 35 %
3609 23-03-2020 01:30:18 -0.8 C 35 %
3610 23-03-2020 01:40:18 -1.1 C 35 %
3611 23-03-2020 01:50:18 -0.8 C 35 %
3612 23-03-2020 02:00:18 -1.1 C 35 %
3613 23-03-2020 02:10:18 -1.4 C 35 %
3614 23-03-2020 02:20:17 -1.2 C 35 %
3615 23-03-2020 02:30:17 -1.2 C 35 %
3616 23-03-2020 02:40:17 -1.2 C 35 %
3617 23-03-2020 02:50:17 -1.3 C 35 %
3618 23-03-2020 03:00:17 -1.6 C 35 %
3619 23-03-2020 03:10:18 -1.9 C 35 %
3620 23-03-2020 03:20:18 -1.6 C 35 %
3621 23-03-2020 03:30:18 -1.7 C 35 %
3622 23-03-2020 03:40:18 -1.9 C 35 %
3623 23-03-2020 03:50:18 -1.8 C 35 %
3624 23-03-2020 04:00:18 -1.8 C 35 %
3625 23-03-2020 04:10:18 -2.1 C 35 %
Sensor: Nr:Datum:Temp:Feuchte:
Aussen-T/F 3626 23-03-2020 04:20:17 -1.9 C 35 %
3627 23-03-2020 04:30:17 -2 C 35 %
3628 23-03-2020 04:40:17 -2.1 C 35 %
3629 23-03-2020 04:50:17 -2.7 C 36 %
3630 23-03-2020 05:00:18 -2.5 C 36 %
3631 23-03-2020 05:10:18 -2.4 C 36 %
3632 23-03-2020 05:20:17 -2.3 C 36 %
3633 23-03-2020 05:30:18 -2.4 C 35 %
3634 23-03-2020 05:40:18 -2.7 C 36 %
3635 23-03-2020 05:50:17 -2.7 C 36 %
3636 23-03-2020 06:00:18 -2.6 C 36 %
3637 23-03-2020 06:10:18 -2.9 C 36 %
3638 23-03-2020 06:20:17 -2.6 C 36 %
3639 23-03-2020 06:30:18 -2.8 C 36 %
3640 23-03-2020 06:40:18 -3.2 C 36 %
3641 23-03-2020 06:50:18 -3 C 36 %
3642 23-03-2020 07:00:18 -3 C 36 %
3643 23-03-2020 07:10:18 -3.1 C 36 %
3644 23-03-2020 07:20:18 -2.5 C 35 %
3645 23-03-2020 07:30:18 -2.7 C 36 %
3646 23-03-2020 07:40:18 -2.6 C 36 %
3647 23-03-2020 07:50:18 -1.9 C 34 %
3648 23-03-2020 08:00:18 -2 C 35 %
3649 23-03-2020 08:10:18 -1.4 C 32 %
3650 23-03-2020 08:20:17 -1.1 C 31 %
Sensor: Nr:Datum:Temp:Feuchte:
Aussen-T/F 3651 23-03-2020 08:30:18 -0.2 C 27 %
3652 23-03-2020 08:40:18 -0.2 C 26 %
3653 23-03-2020 08:50:18 -0.3 C 25 %
3654 23-03-2020 09:00:18 0 C 23 %
3655 23-03-2020 09:10:18 0.2 C 23 %
3656 23-03-2020 09:20:18 0.5 C 20 %
3657 23-03-2020 09:30:17 0.7 C 20 %
3658 23-03-2020 09:40:17 1.5 C 20 %
3659 23-03-2020 09:50:18 1.8 C 20 %
3660 23-03-2020 10:00:18 2.4 C 20 %
3661 23-03-2020 10:10:18 2.7 C 20 %
3662 23-03-2020 10:20:18 3 C 20 %
3663 23-03-2020 10:30:17 3.8 C 20 %
3664 23-03-2020 10:40:17 4.1 C 20 %
3665 23-03-2020 10:50:17 4.7 C 20 %
3666 23-03-2020 11:00:17 5.5 C 20 %
3667 23-03-2020 11:10:17 5.5 C 20 %
3668 23-03-2020 11:20:17 6 C 20 %
3669 23-03-2020 11:30:18 6.7 C 20 %
3670 23-03-2020 11:40:18 6.2 C 20 %
3671 23-03-2020 11:50:17 6.3 C 20 %
3672 23-03-2020 12:00:18 7 C 20 %
3673 23-03-2020 12:10:18 7.4 C 20 %
3674 23-03-2020 12:20:18 7.8 C 20 %
3675 23-03-2020 12:30:18 7.5 C 20 %
Sensor: Nr:Datum:Temp:Feuchte:
Aussen-T/F 3676 23-03-2020 12:40:18 8.1 C 20 %
3677 23-03-2020 12:50:18 8.7 C 20 %
3678 23-03-2020 13:00:17 10.4 C 20 %
3679 23-03-2020 13:10:17 10.7 C 20 %
3680 23-03-2020 13:20:17 11.9 C 20 %
3681 23-03-2020 13:30:17 11.4 C 20 %
3682 23-03-2020 13:40:17 10 C 20 %
3683 23-03-2020 13:50:17 9.8 C 20 %
3684 23-03-2020 14:00:18 9.2 C 20 %
3685 23-03-2020 14:10:18 10.5 C 20 %
3686 23-03-2020 14:20:18 12.9 C 20 %
3687 23-03-2020 14:30:18 13 C 20 %
3688 23-03-2020 14:40:18 14.2 C 20 %
3689 23-03-2020 14:50:18 14.3 C 20 %
3690 23-03-2020 15:00:18 14.3 C 20 %
3691 23-03-2020 15:10:18 14.4 C 20 %
3692 23-03-2020 15:20:17 14.7 C 20 %
3693 23-03-2020 15:30:17 13.5 C 20 %
3694 23-03-2020 15:40:17 14.4 C 20 %
3695 23-03-2020 15:50:17 14.1 C 20 %
3696 23-03-2020 16:00:17 13.8 C 20 %
3697 23-03-2020 16:10:17 14.7 C 20 %
3698 23-03-2020 16:20:17 15.3 C 20 %
3699 23-03-2020 16:30:18 14.7 C 20 %
3700 23-03-2020 16:40:18 14.8 C 20 %
Sensor: Nr:Datum:Temp:Feuchte:
Aussen-T/F 3701 23-03-2020 16:50:17 11.4 C 20 %
3702 23-03-2020 17:00:18 10.1 C 20 %
3703 23-03-2020 17:10:18 9.7 C 20 %
3704 23-03-2020 17:20:18 9.4 C 20 %
3705 23-03-2020 17:30:18 9 C 20 %
3706 23-03-2020 17:40:18 9 C 20 %
3707 23-03-2020 17:50:17 8.6 C 20 %
3708 23-03-2020 18:00:18 8.3 C 20 %
3709 23-03-2020 18:10:18 7.6 C 20 %
3710 23-03-2020 18:20:17 7.4 C 20 %
3711 23-03-2020 18:30:18 7 C 20 %
3712 23-03-2020 18:40:18 5.3 C 20 %
3713 23-03-2020 18:50:18 4.4 C 20 %
3714 23-03-2020 19:00:18 4.2 C 20 %
3715 23-03-2020 19:10:18 4.1 C 20 %
3716 23-03-2020 19:20:17 3.7 C 20 %
3717 23-03-2020 19:30:18 3.6 C 20 %
3718 23-03-2020 19:40:18 3.4 C 20 %
3719 23-03-2020 19:50:18 2.7 C 20 %
3720 23-03-2020 20:00:17 2.9 C 20 %
3721 23-03-2020 20:10:17 2.6 C 20 %
3722 23-03-2020 20:20:17 2.5 C 20 %
3723 23-03-2020 20:30:18 2.3 C 20 %
3724 23-03-2020 20:40:18 2.4 C 20 %
3725 23-03-2020 20:50:18 2.3 C 20 %
Sensor: Nr:Datum:Temp:Feuchte:
Aussen-T/F 3726 23-03-2020 21:00:18 2.1 C 20 %
3727 23-03-2020 21:10:18 0.9 C 27 %
3728 23-03-2020 21:20:17 1 C 26 %
3729 23-03-2020 21:30:18 1.1 C 28 %
3730 23-03-2020 21:40:18 0.7 C 29 %
3731 23-03-2020 21:50:18 0.2 C 30 %
3732 23-03-2020 22:00:17 -0.4 C 31 %
3733 23-03-2020 22:10:18 -0.9 C 35 %
3734 23-03-2020 22:20:18 -0.2 C 34 %
3735 23-03-2020 22:30:18 -0.9 C 35 %
3736 23-03-2020 22:40:18 -0.9 C 35 %
3737 23-03-2020 22:50:18 -1.3 C 35 %
3738 23-03-2020 23:00:18 -1.4 C 36 %
3739 23-03-2020 23:10:18 -1.6 C 36 %
3740 23-03-2020 23:20:17 -1.7 C 36 %
3741 23-03-2020 23:30:17 -1.7 C 37 %
3742 23-03-2020 23:40:17 -1.9 C 37 %
3743 23-03-2020 23:50:18 -1.8 C 37 %
3744 24-03-2020 00:00:18 -1.9 C 36 %
3745 24-03-2020 00:10:18 -2 C 36 %
3746 24-03-2020 00:20:17 -2.2 C 36 %
3747 24-03-2020 00:30:18 -2.4 C 37 %
3748 24-03-2020 00:40:18 -2.4 C 38 %
3749 24-03-2020 00:50:18 -2.5 C 38 %
3750 24-03-2020 01:00:18 -2.3 C 37 %
Sensor: Nr:Datum:Temp:Feuchte:
Aussen-T/F 3751 24-03-2020 01:10:18 -2.6 C 37 %
3752 24-03-2020 01:20:18 -2.7 C 38 %
3753 24-03-2020 01:30:18 -2.7 C 38 %
3754 24-03-2020 01:40:18 -3 C 38 %
3755 24-03-2020 01:50:18 -2.5 C 37 %
3756 24-03-2020 02:00:18 -2.6 C 38 %
3757 24-03-2020 02:10:18 -2.8 C 38 %
3758 24-03-2020 02:20:17 -3.1 C 38 %
3759 24-03-2020 02:30:17 -3.2 C 38 %
3760 24-03-2020 02:40:17 -3.3 C 38 %
3761 24-03-2020 02:50:17 -3.2 C 38 %
3762 24-03-2020 03:00:17 -3.4 C 38 %
3763 24-03-2020 03:10:17 -3.5 C 38 %
3764 24-03-2020 03:20:17 -3.6 C 39 %
3765 24-03-2020 03:30:17 -3.6 C 38 %
3766 24-03-2020 03:40:17 -3.7 C 38 %
3767 24-03-2020 03:50:17 -3.9 C 39 %
3768 24-03-2020 04:00:18 -3.7 C 39 %
3769 24-03-2020 04:10:18 -3.9 C 38 %
3770 24-03-2020 04:20:18 -4 C 38 %
3771 24-03-2020 04:30:18 -4 C 38 %
3772 24-03-2020 04:40:18 -4 C 38 %
3773 24-03-2020 04:50:17 -3.9 C 38 %
3774 24-03-2020 05:00:17 -4.2 C 38 %
3775 24-03-2020 05:10:17 -4.3 C 39 %
Sensor: Nr:Datum:Temp:Feuchte:
Aussen-T/F 3776 24-03-2020 05:20:17 -4.2 C 38 %
3777 24-03-2020 05:30:18 -4.3 C 38 %
3778 24-03-2020 05:40:18 -4.4 C 38 %
3779 24-03-2020 05:50:18 -4.6 C 39 %
3780 24-03-2020 06:00:17 -4.7 C 39 %
3781 24-03-2020 06:10:18 -4.7 C 38 %
3782 24-03-2020 06:20:17 -4.7 C 39 %
3783 24-03-2020 06:30:18 -4.7 C 38 %
3784 24-03-2020 06:40:18 -4.6 C 39 %
3785 24-03-2020 06:50:18 -4.4 C 38 %
3786 24-03-2020 07:00:18 -4.5 C 39 %
3787 24-03-2020 07:10:18 -4.4 C 39 %
3788 24-03-2020 07:20:18 -4.3 C 39 %
3789 24-03-2020 07:30:18 -4.2 C 39 %
3790 24-03-2020 07:40:18 -4 C 39 %
3791 24-03-2020 07:50:17 -3.8 C 39 %
3792 24-03-2020 08:00:17 -3.7 C 39 %
3793 24-03-2020 08:10:17 -3.5 C 38 %
3794 24-03-2020 08:20:17 -3.3 C 38 %
3795 24-03-2020 08:30:17 -2.5 C 38 %
3796 24-03-2020 08:40:17 -2.4 C 37 %
3797 24-03-2020 08:50:17 -2 C 37 %
3798 24-03-2020 09:00:17 -1.6 C 36 %
3799 24-03-2020 09:10:17 -0.7 C 35 %
3800 24-03-2020 09:20:17 -0.2 C 34 %
Sensor: Nr:Datum:Temp:Feuchte:
Aussen-T/F 3801 24-03-2020 09:30:17 0.4 C 30 %
3802 24-03-2020 09:40:17 1 C 27 %
3803 24-03-2020 09:50:18 1.7 C 23 %
3804 24-03-2020 10:00:18 3 C 20 %
3805 24-03-2020 10:10:18 3.3 C 20 %
3806 24-03-2020 10:20:17 3.9 C 20 %
3807 24-03-2020 10:30:17 4.3 C 20 %
3808 24-03-2020 10:40:17 4.7 C 20 %
3809 24-03-2020 10:50:17 5.7 C 20 %
3810 24-03-2020 11:00:18 5.7 C 20 %
3811 24-03-2020 11:10:18 6.4 C 20 %
3812 24-03-2020 11:20:17 6.9 C 20 %
3813 24-03-2020 11:30:17 7.9 C 20 %
3814 24-03-2020 11:40:17 7.2 C 20 %
3815 24-03-2020 11:50:18 6.8 C 20 %
3816 24-03-2020 12:00:18 7.8 C 20 %
3817 24-03-2020 12:10:18 8.6 C 20 %
3818 24-03-2020 12:20:17 8.2 C 20 %
3819 24-03-2020 12:30:17 8.2 C 20 %
3820 24-03-2020 12:40:17 9 C 20 %
3821 24-03-2020 12:50:17 9.2 C 20 %
3822 24-03-2020 13:00:18 10.4 C 20 %
3823 24-03-2020 13:10:18 11.7 C 20 %
3824 24-03-2020 13:20:17 12.5 C 20 %
3825 24-03-2020 13:30:17 13 C 20 %
Sensor: Nr:Datum:Temp:Feuchte:
Aussen-T/F 3826 24-03-2020 13:40:17 11.9 C 20 %
3827 24-03-2020 13:50:18 11 C 20 %
3828 24-03-2020 14:00:17 10.8 C 20 %
3829 24-03-2020 14:10:17 11.3 C 20 %
3830 24-03-2020 14:20:17 13.7 C 20 %
3831 24-03-2020 14:30:17 12.2 C 20 %
3832 24-03-2020 14:40:17 14.4 C 20 %
3833 24-03-2020 14:50:18 13.4 C 20 %
3834 24-03-2020 15:00:18 13.5 C 20 %
3835 24-03-2020 15:10:18 14.1 C 20 %
3836 24-03-2020 15:20:18 15.3 C 20 %
3837 24-03-2020 15:30:18 14.1 C 20 %
3838 24-03-2020 15:40:18 15.4 C 20 %
3839 24-03-2020 15:50:18 14.9 C 20 %
3840 24-03-2020 16:00:18 14.8 C 20 %
3841 24-03-2020 16:10:18 14.8 C 20 %
3842 24-03-2020 16:20:18 14.1 C 20 %
3843 24-03-2020 16:30:18 13.6 C 20 %
3844 24-03-2020 16:40:18 14.3 C 20 %
3845 24-03-2020 16:50:18 11.4 C 20 %
3846 24-03-2020 17:00:18 10.8 C 20 %
3847 24-03-2020 17:10:18 10.4 C 20 %
3848 24-03-2020 17:20:18 10.1 C 20 %
3849 24-03-2020 17:30:18 9.9 C 20 %
3850 24-03-2020 17:40:18 9.6 C 20 %
Sensor: Nr:Datum:Temp:Feuchte:
Aussen-T/F 3851 24-03-2020 17:50:17 9.3 C 20 %
3852 24-03-2020 18:00:17 9 C 20 %
3853 24-03-2020 18:10:17 8.6 C 20 %
3854 24-03-2020 18:20:17 8.4 C 20 %
3855 24-03-2020 18:30:17 7.6 C 20 %
3856 24-03-2020 18:40:18 6.4 C 20 %
3857 24-03-2020 18:50:17 5.4 C 20 %
3858 24-03-2020 19:00:18 4.9 C 20 %
3859 24-03-2020 19:10:18 4.6 C 20 %
3860 24-03-2020 19:20:18 4.5 C 20 %
3861 24-03-2020 19:30:18 4.1 C 20 %
3862 24-03-2020 19:40:18 3.9 C 20 %
3863 24-03-2020 19:50:17 3.6 C 20 %
3864 24-03-2020 20:00:18 3.6 C 20 %
3865 24-03-2020 20:10:18 3.5 C 20 %
3866 24-03-2020 20:20:17 3.4 C 20 %
3867 24-03-2020 20:30:18 3.4 C 20 %
3868 24-03-2020 20:40:18 2.9 C 20 %
3869 24-03-2020 20:50:18 2.7 C 20 %
3870 24-03-2020 21:00:18 2.7 C 20 %
3871 24-03-2020 21:10:18 2.6 C 20 %
3872 24-03-2020 21:20:17 2.3 C 20 %
3873 24-03-2020 21:30:17 2.3 C 20 %
3874 24-03-2020 21:40:17 2.2 C 20 %
3875 24-03-2020 21:50:17 2.2 C 20 %
Sensor: Nr:Datum:Temp:Feuchte:
Aussen-T/F 3876 24-03-2020 22:00:18 1.7 C 20 %
3877 24-03-2020 22:10:18 1.6 C 20 %
3878 24-03-2020 22:20:17 1.6 C 20 %
3879 24-03-2020 22:30:18 0.3 C 25 %
3880 24-03-2020 22:40:18 -0.2 C 30 %
3881 24-03-2020 22:50:17 -0.7 C 30 %
3882 24-03-2020 23:00:18 -1.2 C 32 %
3883 24-03-2020 23:10:18 -1.1 C 31 %
3884 24-03-2020 23:20:17 -1.4 C 31 %
3885 24-03-2020 23:30:18 -1.7 C 30 %
3886 24-03-2020 23:40:18 -0.9 C 30 %
3887 24-03-2020 23:50:18 -1.2 C 30 %
3888 25-03-2020 00:00:17 -1.6 C 30 %
3889 25-03-2020 00:10:17 -1.6 C 31 %
3890 25-03-2020 00:20:17 -1.8 C 32 %
3891 25-03-2020 00:30:17 -1.8 C 30 %
3892 25-03-2020 00:40:18 -1.9 C 31 %
3893 25-03-2020 00:50:17 -1.8 C 32 %
3894 25-03-2020 01:00:17 -1.6 C 32 %
3895 25-03-2020 01:10:18 -1.3 C 31 %
3896 25-03-2020 01:20:17 -1.1 C 30 %
3897 25-03-2020 01:30:18 -1.1 C 29 %
3898 25-03-2020 01:40:18 -0.9 C 28 %
3899 25-03-2020 01:50:17 -1.1 C 28 %
3900 25-03-2020 02:00:17 -1.1 C 28 %
Sensor: Nr:Datum:Temp:Feuchte:
Aussen-T/F 3901 25-03-2020 02:10:18 -1.3 C 27 %
3902 25-03-2020 02:20:18 -1.4 C 29 %
3903 25-03-2020 02:30:18 -1.6 C 27 %
3904 25-03-2020 02:40:18 -1.5 C 27 %
3905 25-03-2020 02:50:18 -1.4 C 27 %
3906 25-03-2020 03:00:18 -1.4 C 26 %
3907 25-03-2020 03:10:18 -1.4 C 26 %
3908 25-03-2020 03:20:17 -1.5 C 27 %
3909 25-03-2020 03:30:17 -2.3 C 30 %
3910 25-03-2020 03:40:17 -2.6 C 31 %
3911 25-03-2020 03:50:17 -2.8 C 32 %
3912 25-03-2020 04:00:17 -3.1 C 33 %
3913 25-03-2020 04:10:17 -3.2 C 34 %
3914 25-03-2020 04:20:17 -3.3 C 34 %
3915 25-03-2020 04:30:18 -3.3 C 34 %
3916 25-03-2020 04:40:18 -3 C 33 %
3917 25-03-2020 04:50:17 -3.2 C 33 %
3918 25-03-2020 05:00:18 -3 C 32 %
3919 25-03-2020 05:10:18 -2.6 C 32 %
3920 25-03-2020 05:20:17 -2.3 C 30 %
3921 25-03-2020 05:30:17 -2.5 C 30 %
3922 25-03-2020 05:40:17 -3.4 C 33 %
3923 25-03-2020 05:50:17 -4 C 35 %
3924 25-03-2020 06:00:17 -4.4 C 36 %
3925 25-03-2020 06:10:17 -4.2 C 36 %
Sensor: Nr:Datum:Temp:Feuchte:
Aussen-T/F 3926 25-03-2020 06:20:17 -4.2 C 36 %
3927 25-03-2020 06:30:17 -4.4 C 36 %
3928 25-03-2020 06:40:17 -4.3 C 36 %
3929 25-03-2020 06:50:17 -4.3 C 36 %
3930 25-03-2020 07:00:17 -4.3 C 37 %
3931 25-03-2020 07:10:17 -4.3 C 37 %
3932 25-03-2020 07:20:17 -4.1 C 37 %
3933 25-03-2020 07:30:17 -4 C 37 %
3934 25-03-2020 07:40:17 -3.8 C 37 %
3935 25-03-2020 07:50:17 -3.2 C 36 %
3936 25-03-2020 08:00:17 -2.6 C 35 %
3937 25-03-2020 08:10:17 -2 C 32 %
3938 25-03-2020 08:20:17 -2.7 C 35 %
3939 25-03-2020 08:30:17 -2 C 34 %
3940 25-03-2020 08:40:17 -1.9 C 34 %
3941 25-03-2020 08:50:17 -1.6 C 34 %
3942 25-03-2020 09:00:17 -1.5 C 34 %
3943 25-03-2020 09:10:17 -1.3 C 35 %
3944 25-03-2020 09:20:17 -1 C 35 %
3945 25-03-2020 09:30:17 -0.2 C 32 %
3946 25-03-2020 09:40:18 0.7 C 29 %
3947 25-03-2020 09:50:17 2.1 C 20 %
3948 25-03-2020 10:00:18 2.8 C 20 %
3949 25-03-2020 10:10:18 3.2 C 20 %
3950 25-03-2020 10:20:17 3.6 C 20 %
Sensor: Nr:Datum:Temp:Feuchte:
Aussen-T/F 3951 25-03-2020 10:30:17 4.1 C 20 %
3952 25-03-2020 10:40:17 4.7 C 20 %
3953 25-03-2020 10:50:17 5.1 C 20 %
3954 25-03-2020 11:00:17 5.3 C 20 %
3955 25-03-2020 11:10:17 5.7 C 20 %
3956 25-03-2020 11:20:17 7.2 C 20 %
3957 25-03-2020 11:30:18 7.7 C 20 %
3958 25-03-2020 11:40:18 7.3 C 20 %
3959 25-03-2020 11:50:17 6.8 C 20 %
3960 25-03-2020 12:00:17 7.8 C 20 %
3961 25-03-2020 12:10:17 8.3 C 20 %
3962 25-03-2020 12:20:17 8.4 C 20 %
3963 25-03-2020 12:30:17 8.4 C 20 %
3964 25-03-2020 12:40:17 8.6 C 20 %
3965 25-03-2020 12:50:17 10.3 C 20 %
3966 25-03-2020 13:00:17 11.2 C 20 %
3967 25-03-2020 13:10:17 12.2 C 20 %
3968 25-03-2020 13:20:18 13.8 C 20 %
3969 25-03-2020 13:30:18 14.5 C 20 %
3970 25-03-2020 13:40:18 12.4 C 20 %
3971 25-03-2020 13:50:18 12 C 20 %
3972 25-03-2020 14:00:18 11.3 C 20 %
3973 25-03-2020 14:10:18 11.1 C 20 %
3974 25-03-2020 14:20:17 13.2 C 20 %
3975 25-03-2020 14:30:17 13.5 C 20 %
Sensor: Nr:Datum:Temp:Feuchte:
Aussen-T/F 3976 25-03-2020 14:40:17 12.7 C 20 %
3977 25-03-2020 14:50:17 13.5 C 20 %
3978 25-03-2020 15:00:17 13.8 C 20 %
3979 25-03-2020 15:10:17 14.1 C 20 %
3980 25-03-2020 15:20:18 14.9 C 20 %
3981 25-03-2020 15:30:18 14.4 C 20 %
3982 25-03-2020 15:40:18 14.4 C 20 %
3983 25-03-2020 15:50:17 15 C 20 %
3984 25-03-2020 16:00:18 15.3 C 20 %
3985 25-03-2020 16:10:18 14.5 C 20 %
3986 25-03-2020 16:20:17 15.7 C 20 %
3987 25-03-2020 16:30:17 13.8 C 20 %
3988 25-03-2020 16:40:17 12.9 C 20 %
3989 25-03-2020 16:50:18 12.2 C 20 %
3990 25-03-2020 17:00:18 11.9 C 20 %
3991 25-03-2020 17:10:18 11.5 C 20 %
3992 25-03-2020 17:20:17 11.1 C 20 %
3993 25-03-2020 17:30:17 11 C 20 %
3994 25-03-2020 17:40:17 10.7 C 20 %
3995 25-03-2020 17:50:17 10.5 C 20 %
3996 25-03-2020 18:00:18 10.5 C 20 %
3997 25-03-2020 18:10:18 10.1 C 20 %
3998 25-03-2020 18:20:17 9.6 C 20 %
3999 25-03-2020 18:30:18 8.8 C 20 %
4000 25-03-2020 18:40:18 7.7 C 20 %
Sensor: Nr:Datum:Temp:Feuchte:
Aussen-T/F 4001 25-03-2020 18:50:18 7 C 20 %
4002 25-03-2020 19:00:18 6.3 C 20 %
4003 25-03-2020 19:10:18 6.1 C 20 %
4004 25-03-2020 19:20:17 5.4 C 20 %
4005 25-03-2020 19:30:18 5.8 C 20 %
4006 25-03-2020 19:40:18 5.1 C 20 %
4007 25-03-2020 19:50:17 4.6 C 20 %
4008 25-03-2020 20:00:17 4.5 C 20 %
4009 25-03-2020 20:10:17 4.1 C 20 %
4010 25-03-2020 20:20:17 4 C 20 %
4011 25-03-2020 20:30:18 4.7 C 20 %
4012 25-03-2020 20:40:18 4.3 C 20 %
4013 25-03-2020 20:50:17 3.8 C 20 %
4014 25-03-2020 21:00:18 4.6 C 20 %
4015 25-03-2020 21:10:18 4.6 C 20 %
4016 25-03-2020 21:20:17 4.3 C 20 %
4017 25-03-2020 21:30:17 4.3 C 20 %
4018 25-03-2020 21:40:17 4 C 20 %
4019 25-03-2020 21:50:17 3.6 C 20 %
4020 25-03-2020 22:00:17 2.8 C 20 %
4021 25-03-2020 22:10:17 2.6 C 20 %
4022 25-03-2020 22:20:17 2.6 C 20 %
4023 25-03-2020 22:30:18 2.1 C 20 %
4024 25-03-2020 22:40:18 2.3 C 20 %
4025 25-03-2020 22:50:18 2.1 C 20 %
Sensor: Nr:Datum:Temp:Feuchte:
Aussen-T/F 4026 25-03-2020 23:00:18 1.7 C 20 %
4027 25-03-2020 23:10:18 1.7 C 23 %
4028 25-03-2020 23:20:17 1.6 C 23 %
4029 25-03-2020 23:30:18 1.5 C 21 %
4030 25-03-2020 23:40:18 1.8 C 20 %
4031 25-03-2020 23:50:18 1.8 C 20 %
4032 26-03-2020 00:00:18 1.4 C 21 %
4033 26-03-2020 00:10:18 1.2 C 21 %
4034 26-03-2020 00:20:18 1.3 C 21 %
4035 26-03-2020 00:30:18 0.9 C 23 %
4036 26-03-2020 00:40:18 0.9 C 25 %
4037 26-03-2020 00:50:18 1 C 23 %
4038 26-03-2020 01:00:18 0.7 C 25 %
4039 26-03-2020 01:10:18 0.4 C 25 %
4040 26-03-2020 01:20:17 0.5 C 25 %
4041 26-03-2020 01:30:17 0.7 C 25 %
4042 26-03-2020 01:40:17 0.7 C 23 %
4043 26-03-2020 01:50:17 0.7 C 21 %
4044 26-03-2020 02:00:17 0.6 C 23 %
4045 26-03-2020 02:10:17 0.7 C 21 %
4046 26-03-2020 02:20:17 0.7 C 21 %
4047 26-03-2020 02:30:17 0.6 C 21 %
4048 26-03-2020 02:40:18 0.4 C 21 %
4049 26-03-2020 02:50:17 0.3 C 23 %
4050 26-03-2020 03:00:17 0 C 23 %
Sensor: Nr:Datum:Temp:Feuchte:
Aussen-T/F 4051 26-03-2020 03:10:18 0.1 C 23 %
4052 26-03-2020 03:20:18 0 C 23 %
4053 26-03-2020 03:30:18 -0.3 C 25 %
4054 26-03-2020 03:40:18 -0.3 C 27 %
4055 26-03-2020 03:50:17 -0.4 C 27 %
4056 26-03-2020 04:00:17 -0.1 C 26 %
4057 26-03-2020 04:10:17 -0.3 C 25 %
4058 26-03-2020 04:20:17 -0.3 C 26 %
4059 26-03-2020 04:30:18 -0.4 C 26 %
4060 26-03-2020 04:40:18 -0.4 C 26 %
4061 26-03-2020 04:50:17 -0.5 C 26 %
4062 26-03-2020 05:00:18 -0.5 C 27 %
4063 26-03-2020 05:10:18 -0.6 C 27 %
4064 26-03-2020 05:20:17 -0.6 C 28 %
4065 26-03-2020 05:30:17 -0.7 C 28 %
4066 26-03-2020 05:40:18 -0.5 C 28 %
4067 26-03-2020 05:50:17 -0.6 C 28 %
4068 26-03-2020 06:00:18 -0.7 C 29 %
4069 26-03-2020 06:10:18 -0.8 C 28 %
4070 26-03-2020 06:20:18 -0.9 C 28 %
4071 26-03-2020 06:30:18 -1 C 28 %
4072 26-03-2020 06:40:18 -0.9 C 30 %
4073 26-03-2020 06:50:18 -1.1 C 30 %
4074 26-03-2020 07:00:18 -0.8 C 30 %
4075 26-03-2020 07:10:18 -1.1 C 30 %
Sensor: Nr:Datum:Temp:Feuchte:
Aussen-T/F 4076 26-03-2020 07:20:18 -0.6 C 30 %
4077 26-03-2020 07:30:18 -0.4 C 30 %
4078 26-03-2020 07:40:18 0.2 C 27 %
4079 26-03-2020 07:50:17 0.5 C 25 %
4080 26-03-2020 08:00:18 0.3 C 28 %
4081 26-03-2020 08:10:18 0.4 C 28 %
4082 26-03-2020 08:20:18 0.7 C 26 %
4083 26-03-2020 08:30:18 1.4 C 21 %
4084 26-03-2020 08:40:18 1.7 C 21 %
4085 26-03-2020 08:50:17 2.2 C 20 %
4086 26-03-2020 09:00:18 2.3 C 20 %
4087 26-03-2020 09:10:18 2.3 C 20 %
4088 26-03-2020 09:20:18 2.7 C 20 %
4089 26-03-2020 09:30:18 3.2 C 20 %
4090 26-03-2020 09:40:18 3.5 C 20 %
4091 26-03-2020 09:50:18 4.1 C 20 %
4092 26-03-2020 10:00:18 4.4 C 20 %
4093 26-03-2020 10:10:18 4.9 C 20 %
4094 26-03-2020 10:20:18 5 C 20 %
4095 26-03-2020 10:30:18 5.4 C 20 %
4096 26-03-2020 10:40:18 5.9 C 20 %
4097 26-03-2020 10:50:17 6 C 20 %
4098 26-03-2020 11:00:18 6.6 C 20 %
4099 26-03-2020 11:10:18 6.9 C 20 %
4100 26-03-2020 11:20:18 7.3 C 20 %
Sensor: Nr:Datum:Temp:Feuchte:
Aussen-T/F 4101 26-03-2020 11:30:18 8.5 C 20 %
4102 26-03-2020 11:40:18 8.3 C 20 %
4103 26-03-2020 11:50:18 7.3 C 20 %
4104 26-03-2020 12:00:18 8 C 20 %
4105 26-03-2020 12:10:18 9.1 C 20 %
4106 26-03-2020 12:20:17 9.6 C 20 %
4107 26-03-2020 12:30:17 9.6 C 20 %
4108 26-03-2020 12:40:17 9.6 C 20 %
4109 26-03-2020 12:50:17 9.7 C 20 %
4110 26-03-2020 13:00:17 10.4 C 20 %
4111 26-03-2020 13:10:17 10.8 C 20 %
4112 26-03-2020 13:20:18 11.5 C 20 %
4113 26-03-2020 13:30:18 11.5 C 20 %
4114 26-03-2020 13:40:18 12.1 C 20 %
4115 26-03-2020 13:50:18 13 C 20 %
4116 26-03-2020 14:00:18 12 C 20 %
4117 26-03-2020 14:10:18 12.2 C 20 %
4118 26-03-2020 14:20:18 11.9 C 20 %
4119 26-03-2020 14:30:18 14.3 C 20 %
4120 26-03-2020 14:40:18 14.2 C 20 %
4121 26-03-2020 14:50:17 14 C 20 %
4122 26-03-2020 15:00:17 15.3 C 20 %
4123 26-03-2020 15:10:18 14.2 C 20 %
4124 26-03-2020 15:20:18 14 C 20 %
4125 26-03-2020 15:30:18 15.6 C 20 %
Sensor: Nr:Datum:Temp:Feuchte:
Aussen-T/F 4126 26-03-2020 15:40:18 15.6 C 20 %
4127 26-03-2020 15:50:18 16.5 C 20 %
4128 26-03-2020 16:00:18 15.6 C 20 %
4129 26-03-2020 16:10:18 15.3 C 20 %
4130 26-03-2020 16:20:18 12.5 C 20 %
4131 26-03-2020 16:30:18 12.3 C 20 %
4132 26-03-2020 16:40:18 13.9 C 20 %
4133 26-03-2020 16:50:18 12.8 C 20 %
4134 26-03-2020 17:00:18 11.4 C 20 %
4135 26-03-2020 17:10:18 11 C 20 %
4136 26-03-2020 17:20:17 10.9 C 20 %
4137 26-03-2020 17:30:17 11 C 20 %
4138 26-03-2020 17:40:17 11.1 C 20 %
4139 26-03-2020 17:50:17 10.7 C 20 %
4140 26-03-2020 18:00:17 10.5 C 20 %
4141 26-03-2020 18:10:17 10.3 C 20 %
4142 26-03-2020 18:20:18 10.1 C 20 %
4143 26-03-2020 18:30:18 9.8 C 20 %
4144 26-03-2020 18:40:18 9.4 C 20 %
4145 26-03-2020 18:50:17 8.6 C 20 %
4146 26-03-2020 19:00:17 8 C 20 %
4147 26-03-2020 19:10:17 7.4 C 20 %
4148 26-03-2020 19:20:17 6.9 C 21 %
4149 26-03-2020 19:30:17 6.7 C 21 %
4150 26-03-2020 19:40:17 6.4 C 21 %
Sensor: Nr:Datum:Temp:Feuchte:
Aussen-T/F 4151 26-03-2020 19:50:17 6.5 C 21 %
4152 26-03-2020 20:00:17 6.2 C 23 %
4153 26-03-2020 20:10:18 6 C 23 %
4154 26-03-2020 20:20:18 5.7 C 25 %
4155 26-03-2020 20:30:17 5.4 C 26 %
4156 26-03-2020 20:40:17 4.9 C 28 %
4157 26-03-2020 20:50:17 4.9 C 28 %
4158 26-03-2020 21:00:17 4.7 C 29 %
4159 26-03-2020 21:10:17 4.5 C 29 %
4160 26-03-2020 21:20:17 4.5 C 30 %
4161 26-03-2020 21:30:18 4.1 C 30 %
4162 26-03-2020 21:40:18 4.6 C 30 %
4163 26-03-2020 21:50:18 4.6 C 30 %
4164 26-03-2020 22:00:18 4.6 C 30 %
4165 26-03-2020 22:10:18 4.6 C 30 %
4166 26-03-2020 22:20:17 4.5 C 30 %
4167 26-03-2020 22:30:17 4.5 C 30 %
4168 26-03-2020 22:40:17 4.5 C 30 %
4169 26-03-2020 22:50:17 4.4 C 30 %
4170 26-03-2020 23:00:18 4.5 C 30 %
4171 26-03-2020 23:10:18 4.2 C 30 %
4172 26-03-2020 23:20:17 4.2 C 30 %
4173 26-03-2020 23:30:18 3.9 C 31 %
4174 26-03-2020 23:40:18 4 C 30 %
4175 26-03-2020 23:50:18 3.9 C 31 %
Sensor: Nr:Datum:Temp:Feuchte:
G-T/H 1 27-02-2020 00:08:17 9.7 C 70 %
2 27-02-2020 00:18:17 9.6 C 70 %
3 27-02-2020 00:28:17 9.6 C 70 %
4 27-02-2020 00:38:18 9.6 C 70 %
5 27-02-2020 00:48:18 9.6 C 70 %
6 27-02-2020 00:58:18 9.6 C 70 %
7 27-02-2020 01:08:18 9.6 C 70 %
8 27-02-2020 01:18:18 9.6 C 70 %
9 27-02-2020 01:28:18 9.6 C 70 %
10 27-02-2020 01:38:18 9.6 C 70 %
11 27-02-2020 01:48:17 9.6 C 70 %
12 27-02-2020 01:58:17 9.6 C 70 %
13 27-02-2020 02:08:18 9.6 C 70 %
14 27-02-2020 02:18:17 9.6 C 70 %
15 27-02-2020 02:28:17 9.5 C 70 %
16 27-02-2020 02:38:17 9.5 C 70 %
17 27-02-2020 02:48:17 9.5 C 70 %
18 27-02-2020 02:58:17 9.5 C 70 %
19 27-02-2020 03:08:18 9.5 C 70 %
20 27-02-2020 03:18:17 9.5 C 70 %
21 27-02-2020 03:28:17 9.5 C 70 %
22 27-02-2020 03:38:17 9.5 C 70 %
23 27-02-2020 03:48:17 9.4 C 70 %
24 27-02-2020 03:58:17 9.4 C 70 %
25 27-02-2020 04:08:18 9.5 C 70 %
Sensor: Nr:Datum:Temp:Feuchte:
G-T/H 26 27-02-2020 04:18:18 9.4 C 70 %
27 27-02-2020 04:28:18 9.4 C 70 %
28 27-02-2020 04:38:18 9.4 C 70 %
29 27-02-2020 04:48:17 9.4 C 70 %
30 27-02-2020 04:58:17 9.4 C 70 %
31 27-02-2020 05:08:18 9.3 C 70 %
32 27-02-2020 05:18:17 9.3 C 70 %
33 27-02-2020 05:28:18 9.3 C 70 %
34 27-02-2020 05:38:17 9.3 C 70 %
35 27-02-2020 05:48:17 9.3 C 70 %
36 27-02-2020 05:58:17 9.3 C 70 %
37 27-02-2020 06:08:17 9.3 C 70 %
38 27-02-2020 06:18:17 9.3 C 70 %
39 27-02-2020 06:28:17 9.2 C 70 %
40 27-02-2020 06:38:18 9.2 C 70 %
41 27-02-2020 06:48:17 9.2 C 70 %
42 27-02-2020 06:58:17 9.2 C 70 %
43 27-02-2020 07:08:18 9.2 C 70 %
44 27-02-2020 07:18:18 9.2 C 70 %
45 27-02-2020 07:28:18 9.2 C 70 %
46 27-02-2020 07:38:18 9.2 C 70 %
47 27-02-2020 07:48:17 9.2 C 70 %
48 27-02-2020 07:58:17 9.2 C 70 %
49 27-02-2020 08:08:17 9.1 C 70 %
50 27-02-2020 08:18:17 9.1 C 70 %
Sensor: Nr:Datum:Temp:Feuchte:
G-T/H 51 27-02-2020 08:28:17 9.1 C 70 %
52 27-02-2020 08:38:17 9.1 C 70 %
53 27-02-2020 08:48:17 9.1 C 70 %
54 27-02-2020 08:58:17 9.1 C 70 %
55 27-02-2020 09:08:17 9.1 C 70 %
56 27-02-2020 09:18:17 9.1 C 70 %
57 27-02-2020 09:28:17 9.1 C 70 %
58 27-02-2020 09:38:17 9.1 C 70 %
59 27-02-2020 09:48:17 9.1 C 70 %
60 27-02-2020 09:58:17 9.1 C 70 %
61 27-02-2020 10:08:17 9.1 C 70 %
62 27-02-2020 10:18:17 9.1 C 70 %
63 27-02-2020 10:28:17 9 C 70 %
64 27-02-2020 10:38:17 9 C 70 %
65 27-02-2020 10:48:17 9 C 70 %
66 27-02-2020 10:58:17 9 C 70 %
67 27-02-2020 11:08:17 9 C 70 %
68 27-02-2020 11:18:17 9 C 70 %
69 27-02-2020 11:28:17 9 C 70 %
70 27-02-2020 11:38:17 9.1 C 70 %
71 27-02-2020 11:48:18 9 C 70 %
72 27-02-2020 11:58:18 9 C 70 %
73 27-02-2020 12:08:18 9 C 70 %
74 27-02-2020 12:18:18 9 C 70 %
75 27-02-2020 12:28:18 9 C 70 %
Sensor: Nr:Datum:Temp:Feuchte:
G-T/H 76 27-02-2020 12:38:18 9 C 70 %
77 27-02-2020 12:48:17 9 C 70 %
78 27-02-2020 12:58:17 9 C 71 %
79 27-02-2020 13:08:18 9 C 71 %
80 27-02-2020 13:18:18 9 C 71 %
81 27-02-2020 13:28:18 9 C 71 %
82 27-02-2020 13:38:17 9 C 71 %
83 27-02-2020 13:48:17 9 C 71 %
84 27-02-2020 13:58:17 9 C 71 %
85 27-02-2020 14:08:17 9 C 71 %
86 27-02-2020 14:18:17 9 C 71 %
87 27-02-2020 14:28:17 9 C 71 %
88 27-02-2020 14:38:18 9 C 71 %
89 27-02-2020 14:48:18 9 C 71 %
90 27-02-2020 14:58:18 9 C 71 %
91 27-02-2020 15:08:18 9 C 71 %
92 27-02-2020 15:18:18 9 C 71 %
93 27-02-2020 15:28:18 9 C 71 %
94 27-02-2020 15:38:18 9 C 71 %
95 27-02-2020 15:48:17 9 C 71 %
96 27-02-2020 15:58:17 9 C 71 %
97 27-02-2020 16:08:17 9 C 71 %
98 27-02-2020 16:18:17 9 C 71 %
99 27-02-2020 16:28:17 9 C 71 %
100 27-02-2020 16:38:18 9 C 70 %
Sensor: Nr:Datum:Temp:Feuchte:
G-T/H 101 27-02-2020 16:48:17 9 C 70 %
102 27-02-2020 16:58:17 9 C 70 %
103 27-02-2020 17:08:18 9 C 70 %
104 27-02-2020 17:18:18 8.9 C 71 %
105 27-02-2020 17:28:18 8.9 C 71 %
106 27-02-2020 17:38:17 8.9 C 71 %
107 27-02-2020 17:48:17 8.9 C 71 %
108 27-02-2020 17:58:17 8.9 C 71 %
109 27-02-2020 18:08:18 8.7 C 70 %
110 27-02-2020 18:18:17 8.6 C 69 %
111 27-02-2020 18:28:17 8.9 C 70 %
112 27-02-2020 18:38:17 9 C 70 %
113 27-02-2020 18:48:18 9.1 C 71 %
114 27-02-2020 18:58:18 9.2 C 72 %
115 27-02-2020 19:08:18 9.2 C 72 %
116 27-02-2020 19:18:18 9.2 C 73 %
117 27-02-2020 19:28:18 9.3 C 73 %
118 27-02-2020 19:38:18 9.3 C 73 %
119 27-02-2020 19:48:18 9.3 C 73 %
120 27-02-2020 19:58:18 9.3 C 74 %
121 27-02-2020 20:08:18 9.3 C 74 %
122 27-02-2020 20:18:18 9.4 C 74 %
123 27-02-2020 20:28:18 9.4 C 74 %
124 27-02-2020 20:38:17 9.4 C 74 %
125 27-02-2020 20:48:17 9.4 C 74 %
Sensor: Nr:Datum:Temp:Feuchte:
G-T/H 126 27-02-2020 20:58:17 9.3 C 74 %
127 27-02-2020 21:08:17 9.2 C 74 %
128 27-02-2020 21:18:17 9.3 C 74 %
129 27-02-2020 21:28:17 9.3 C 74 %
130 27-02-2020 21:38:17 9.2 C 74 %
131 27-02-2020 21:48:17 9.2 C 74 %
132 27-02-2020 21:58:17 9.2 C 74 %
133 27-02-2020 22:08:18 9.1 C 74 %
134 27-02-2020 22:18:17 9.1 C 74 %
135 27-02-2020 22:28:18 9.1 C 74 %
136 27-02-2020 22:38:18 9.1 C 74 %
137 27-02-2020 22:48:17 9 C 74 %
138 27-02-2020 22:58:18 9 C 74 %
139 27-02-2020 23:08:18 9 C 74 %
140 27-02-2020 23:18:18 9 C 74 %
141 27-02-2020 23:28:18 8.9 C 75 %
142 27-02-2020 23:38:18 8.9 C 75 %
143 27-02-2020 23:48:18 8.9 C 75 %
144 27-02-2020 23:58:18 8.9 C 75 %
145 28-02-2020 00:08:18 8.9 C 75 %
146 28-02-2020 00:18:17 8.9 C 75 %
147 28-02-2020 00:28:17 8.9 C 75 %
148 28-02-2020 00:38:18 8.8 C 75 %
149 28-02-2020 00:48:17 8.8 C 75 %
150 28-02-2020 00:58:17 8.8 C 75 %
Sensor: Nr:Datum:Temp:Feuchte:
G-T/H 151 28-02-2020 01:08:17 8.8 C 75 %
152 28-02-2020 01:18:17 8.8 C 75 %
153 28-02-2020 01:28:17 8.8 C 75 %
154 28-02-2020 01:38:17 8.8 C 75 %
155 28-02-2020 01:48:18 8.7 C 75 %
156 28-02-2020 01:58:18 8.7 C 75 %
157 28-02-2020 02:08:18 8.7 C 74 %
158 28-02-2020 02:18:18 8.7 C 74 %
159 28-02-2020 02:28:18 8.7 C 74 %
160 28-02-2020 02:38:18 8.6 C 74 %
161 28-02-2020 02:48:17 8.6 C 74 %
162 28-02-2020 02:58:18 8.6 C 74 %
163 28-02-2020 03:08:18 8.6 C 74 %
164 28-02-2020 03:18:18 8.6 C 74 %
165 28-02-2020 03:28:18 8.6 C 74 %
166 28-02-2020 03:38:18 8.5 C 74 %
167 28-02-2020 03:48:17 8.5 C 74 %
168 28-02-2020 03:58:17 8.5 C 74 %
169 28-02-2020 04:08:17 8.5 C 74 %
170 28-02-2020 04:18:17 8.5 C 74 %
171 28-02-2020 04:28:18 8.5 C 74 %
172 28-02-2020 04:38:18 8.4 C 74 %
173 28-02-2020 04:48:17 8.4 C 74 %
174 28-02-2020 04:58:17 8.4 C 74 %
175 28-02-2020 05:08:17 8.4 C 74 %
Sensor: Nr:Datum:Temp:Feuchte:
G-T/H 176 28-02-2020 05:18:17 8.4 C 74 %
177 28-02-2020 05:28:17 8.4 C 74 %
178 28-02-2020 05:38:17 8.4 C 74 %
179 28-02-2020 05:48:17 8.3 C 74 %
180 28-02-2020 05:58:17 8.3 C 74 %
181 28-02-2020 06:08:17 8.3 C 74 %
182 28-02-2020 06:18:17 8.3 C 74 %
183 28-02-2020 06:28:17 8.3 C 74 %
184 28-02-2020 06:38:18 8.3 C 74 %
185 28-02-2020 06:48:18 8.2 C 74 %
186 28-02-2020 06:58:18 8.2 C 74 %
187 28-02-2020 07:08:18 8.2 C 74 %
188 28-02-2020 07:18:17 8 C 73 %
189 28-02-2020 07:28:17 8.1 C 73 %
190 28-02-2020 07:38:17 8.1 C 73 %
191 28-02-2020 07:48:18 8.1 C 73 %
192 28-02-2020 07:58:18 8.1 C 73 %
193 28-02-2020 08:08:18 8.1 C 73 %
194 28-02-2020 08:18:18 8.1 C 73 %
195 28-02-2020 08:28:18 8.1 C 73 %
196 28-02-2020 08:38:17 8.1 C 73 %
197 28-02-2020 08:48:17 8.1 C 73 %
198 28-02-2020 08:58:17 8.1 C 73 %
199 28-02-2020 09:08:17 8.1 C 73 %
200 28-02-2020 09:18:17 8.1 C 73 %
Sensor: Nr:Datum:Temp:Feuchte:
G-T/H 201 28-02-2020 09:28:17 8.1 C 73 %
202 28-02-2020 09:38:17 8.1 C 73 %
203 28-02-2020 09:48:18 8.1 C 73 %
204 28-02-2020 09:58:18 8.1 C 73 %
205 28-02-2020 10:08:18 8 C 73 %
206 28-02-2020 10:18:18 8 C 73 %
207 28-02-2020 10:28:18 8 C 73 %
208 28-02-2020 10:38:17 8 C 73 %
209 28-02-2020 10:48:17 8 C 73 %
210 28-02-2020 10:58:17 8 C 73 %
211 28-02-2020 11:08:17 8 C 73 %
212 28-02-2020 11:18:17 8 C 73 %
213 28-02-2020 11:28:17 8 C 73 %
214 28-02-2020 11:38:17 8 C 73 %
215 28-02-2020 11:48:18 8 C 73 %
216 28-02-2020 11:58:18 8 C 73 %
217 28-02-2020 12:08:18 8 C 73 %
218 28-02-2020 12:18:18 8 C 73 %
219 28-02-2020 12:28:18 8 C 73 %
220 28-02-2020 12:38:18 8 C 73 %
221 28-02-2020 12:48:18 8 C 73 %
222 28-02-2020 12:58:18 8 C 73 %
223 28-02-2020 13:08:18 8 C 73 %
224 28-02-2020 13:18:18 8 C 73 %
225 28-02-2020 13:28:18 8 C 73 %
Sensor: Nr:Datum:Temp:Feuchte:
G-T/H 226 28-02-2020 13:38:18 8 C 73 %
227 28-02-2020 13:48:17 8 C 73 %
228 28-02-2020 13:58:17 8 C 73 %
229 28-02-2020 14:08:18 8 C 73 %
230 28-02-2020 14:18:18 8.1 C 73 %
231 28-02-2020 14:28:18 8.1 C 73 %
232 28-02-2020 14:38:18 8.1 C 73 %
233 28-02-2020 14:48:17 8.1 C 74 %
234 28-02-2020 14:58:18 8.1 C 74 %
235 28-02-2020 15:08:18 8.1 C 74 %
236 28-02-2020 15:18:17 8.1 C 74 %
237 28-02-2020 15:28:17 8.1 C 74 %
238 28-02-2020 15:38:18 8.1 C 74 %
239 28-02-2020 15:48:18 8.2 C 74 %
240 28-02-2020 15:58:18 8.1 C 74 %
241 28-02-2020 16:08:18 8.2 C 74 %
242 28-02-2020 16:18:18 8.2 C 74 %
243 28-02-2020 16:28:18 8.2 C 74 %
244 28-02-2020 16:38:18 8.2 C 74 %
245 28-02-2020 16:48:17 8.2 C 74 %
246 28-02-2020 16:58:18 8.2 C 74 %
247 28-02-2020 17:08:18 8.2 C 74 %
248 28-02-2020 17:18:18 8.3 C 74 %
249 28-02-2020 17:28:18 8.2 C 74 %
250 28-02-2020 17:38:18 8.3 C 74 %
Sensor: Nr:Datum:Temp:Feuchte:
G-T/H 251 28-02-2020 17:48:17 8.3 C 74 %
252 28-02-2020 17:58:18 8.3 C 74 %
253 28-02-2020 18:08:17 8.3 C 74 %
254 28-02-2020 18:18:17 8.3 C 74 %
255 28-02-2020 18:28:17 8.3 C 74 %
256 28-02-2020 18:38:18 8.3 C 74 %
257 28-02-2020 18:48:17 8.3 C 74 %
258 28-02-2020 18:58:17 8.3 C 74 %
259 28-02-2020 19:08:17 8.4 C 74 %
260 28-02-2020 19:18:17 8.4 C 74 %
261 28-02-2020 19:28:18 8.4 C 74 %
262 28-02-2020 19:38:17 8.4 C 74 %
263 28-02-2020 19:48:17 8.4 C 74 %
264 28-02-2020 19:58:17 8.4 C 74 %
265 28-02-2020 20:08:17 8.4 C 74 %
266 28-02-2020 20:18:18 8.4 C 74 %
267 28-02-2020 20:28:18 8.4 C 74 %
268 28-02-2020 20:38:18 8.4 C 74 %
269 28-02-2020 20:48:17 8.4 C 74 %
270 28-02-2020 20:58:17 8.5 C 74 %
271 28-02-2020 21:08:18 8.5 C 74 %
272 28-02-2020 21:18:18 8.4 C 74 %
273 28-02-2020 21:28:18 8.4 C 74 %
274 28-02-2020 21:38:18 8.5 C 74 %
275 28-02-2020 21:48:17 8.5 C 74 %
Sensor: Nr:Datum:Temp:Feuchte:
G-T/H 276 28-02-2020 21:58:17 8.5 C 74 %
277 28-02-2020 22:08:18 8.5 C 74 %
278 28-02-2020 22:18:18 8.5 C 74 %
279 28-02-2020 22:28:18 8.5 C 74 %
280 28-02-2020 22:38:17 8.5 C 74 %
281 28-02-2020 22:48:17 8.5 C 74 %
282 28-02-2020 22:58:17 8.5 C 74 %
283 28-02-2020 23:08:17 8.5 C 74 %
284 28-02-2020 23:18:17 8.5 C 74 %
285 28-02-2020 23:28:18 8.5 C 74 %
286 28-02-2020 23:38:18 8.5 C 74 %
287 28-02-2020 23:48:18 8.5 C 74 %
288 28-02-2020 23:58:18 8.5 C 74 %
289 29-02-2020 00:08:18 8.5 C 75 %
290 29-02-2020 00:18:18 8.5 C 75 %
291 29-02-2020 00:28:18 8.6 C 75 %
292 29-02-2020 00:38:18 8.6 C 75 %
293 29-02-2020 00:48:17 8.6 C 75 %
294 29-02-2020 00:58:17 8.6 C 75 %
295 29-02-2020 01:08:18 8.6 C 75 %
296 29-02-2020 01:18:18 8.6 C 75 %
297 29-02-2020 01:28:18 8.6 C 75 %
298 29-02-2020 01:38:18 8.6 C 75 %
299 29-02-2020 01:48:17 8.6 C 75 %
300 29-02-2020 01:58:17 8.6 C 75 %
Sensor: Nr:Datum:Temp:Feuchte:
G-T/H 301 29-02-2020 02:08:18 8.6 C 75 %
302 29-02-2020 02:18:18 8.6 C 75 %
303 29-02-2020 02:28:18 8.6 C 75 %
304 29-02-2020 02:38:18 8.6 C 75 %
305 29-02-2020 02:48:17 8.6 C 75 %
306 29-02-2020 02:58:17 8.6 C 75 %
307 29-02-2020 03:08:18 8.6 C 75 %
308 29-02-2020 03:18:18 8.6 C 75 %
309 29-02-2020 03:28:18 8.6 C 75 %
310 29-02-2020 03:38:18 8.6 C 75 %
311 29-02-2020 03:48:17 8.7 C 75 %
312 29-02-2020 03:58:17 8.7 C 75 %
313 29-02-2020 04:08:18 8.7 C 75 %
314 29-02-2020 04:18:17 8.7 C 75 %
315 29-02-2020 04:28:18 8.7 C 75 %
316 29-02-2020 04:38:18 8.7 C 75 %
317 29-02-2020 04:48:17 8.7 C 75 %
318 29-02-2020 04:58:17 8.7 C 75 %
319 29-02-2020 05:08:18 8.7 C 75 %
320 29-02-2020 05:18:17 8.7 C 75 %
321 29-02-2020 05:28:17 8.7 C 75 %
322 29-02-2020 05:38:17 8.7 C 75 %
323 29-02-2020 05:48:18 8.8 C 75 %
324 29-02-2020 05:58:18 8.7 C 75 %
325 29-02-2020 06:08:17 8.7 C 75 %
Sensor: Nr:Datum:Temp:Feuchte:
G-T/H 326 29-02-2020 06:18:17 8.8 C 75 %
327 29-02-2020 06:28:17 8.8 C 75 %
328 29-02-2020 06:38:17 8.8 C 76 %
329 29-02-2020 06:48:17 8.8 C 76 %
330 29-02-2020 06:58:17 8.8 C 76 %
331 29-02-2020 07:08:17 8.8 C 76 %
332 29-02-2020 07:18:17 8.8 C 76 %
333 29-02-2020 07:28:17 8.8 C 76 %
334 29-02-2020 07:38:17 8.8 C 76 %
335 29-02-2020 07:48:17 8.8 C 76 %
336 29-02-2020 07:58:17 8.9 C 76 %
337 29-02-2020 08:08:17 8.9 C 76 %
338 29-02-2020 08:18:17 8.9 C 76 %
339 29-02-2020 08:28:17 8.9 C 76 %
340 29-02-2020 08:38:17 8.9 C 76 %
341 29-02-2020 08:48:17 8.9 C 76 %
342 29-02-2020 08:58:17 8.9 C 76 %
343 29-02-2020 09:08:17 8.9 C 76 %
344 29-02-2020 09:18:17 8.9 C 76 %
345 29-02-2020 09:28:17 8.9 C 76 %
346 29-02-2020 09:38:17 8.9 C 76 %
347 29-02-2020 09:48:17 9 C 75 %
348 29-02-2020 09:58:17 8.9 C 76 %
349 29-02-2020 10:08:17 9 C 75 %
350 29-02-2020 10:18:17 9 C 75 %
Sensor: Nr:Datum:Temp:Feuchte:
G-T/H 351 29-02-2020 10:28:17 9 C 75 %
352 29-02-2020 10:38:18 9 C 75 %
353 29-02-2020 10:48:17 9 C 75 %
354 29-02-2020 10:58:17 9 C 75 %
355 29-02-2020 11:08:18 9 C 75 %
356 29-02-2020 11:18:17 9 C 75 %
357 29-02-2020 11:28:17 9.1 C 75 %
358 29-02-2020 11:38:17 9.1 C 75 %
359 29-02-2020 11:48:17 9.1 C 75 %
360 29-02-2020 11:58:17 9.3 C 75 %
361 29-02-2020 12:08:17 9.3 C 75 %
362 29-02-2020 12:18:18 9.3 C 75 %
363 29-02-2020 12:28:18 9.3 C 75 %
364 29-02-2020 12:38:17 9.4 C 75 %
365 29-02-2020 12:48:17 9.4 C 75 %
366 29-02-2020 12:58:17 9.4 C 75 %
367 29-02-2020 13:08:17 9.4 C 75 %
368 29-02-2020 13:18:17 9.4 C 75 %
369 29-02-2020 13:28:17 9.4 C 75 %
370 29-02-2020 13:38:18 9.5 C 75 %
371 29-02-2020 13:48:18 9.5 C 75 %
372 29-02-2020 13:58:18 9.5 C 75 %
373 29-02-2020 14:08:18 9.5 C 75 %
374 29-02-2020 14:18:17 9.5 C 75 %
375 29-02-2020 14:28:17 9.6 C 75 %
Sensor: Nr:Datum:Temp:Feuchte:
G-T/H 376 29-02-2020 14:38:17 9.6 C 75 %
377 29-02-2020 14:48:17 9.6 C 75 %
378 29-02-2020 14:58:17 9.6 C 75 %
379 29-02-2020 15:08:17 9.6 C 75 %
380 29-02-2020 15:18:17 9.6 C 75 %
381 29-02-2020 15:28:17 9.6 C 75 %
382 29-02-2020 15:38:18 9.7 C 75 %
383 29-02-2020 15:48:17 9.7 C 76 %
384 29-02-2020 15:58:17 9.7 C 76 %
385 29-02-2020 16:08:18 9.7 C 76 %
386 29-02-2020 16:18:17 9.7 C 76 %
387 29-02-2020 16:28:18 9.8 C 76 %
388 29-02-2020 16:38:18 9.8 C 76 %
389 29-02-2020 16:48:17 9.8 C 76 %
390 29-02-2020 16:58:17 9.8 C 76 %
391 29-02-2020 17:08:18 9.8 C 76 %
392 29-02-2020 17:18:17 9.8 C 76 %
393 29-02-2020 17:28:18 9.9 C 76 %
394 29-02-2020 17:38:18 9.9 C 76 %
395 29-02-2020 17:48:18 9.8 C 76 %
396 29-02-2020 17:58:18 9.9 C 76 %
397 29-02-2020 18:08:18 9.9 C 76 %
398 29-02-2020 18:18:18 9.9 C 76 %
399 29-02-2020 18:28:18 9.9 C 76 %
400 29-02-2020 18:38:18 10 C 75 %
Sensor: Nr:Datum:Temp:Feuchte:
G-T/H 401 29-02-2020 18:48:17 9.9 C 76 %
402 29-02-2020 18:58:17 9.9 C 76 %
403 29-02-2020 19:08:17 9.9 C 76 %
404 29-02-2020 19:18:18 9.9 C 76 %
405 29-02-2020 19:28:18 9.9 C 76 %
406 29-02-2020 19:38:18 9.9 C 76 %
407 29-02-2020 19:48:18 9.9 C 76 %
408 29-02-2020 19:58:18 10 C 74 %
409 29-02-2020 20:08:18 9.9 C 76 %
410 29-02-2020 20:18:18 10 C 74 %
411 29-02-2020 20:28:18 10 C 74 %
412 29-02-2020 20:38:18 10 C 74 %
413 29-02-2020 20:48:18 10 C 74 %
414 29-02-2020 20:58:18 10 C 74 %
415 29-02-2020 21:08:18 10 C 74 %
416 29-02-2020 21:18:17 10 C 74 %
417 29-02-2020 21:28:17 10 C 74 %
418 29-02-2020 21:38:17 10 C 74 %
419 29-02-2020 21:48:17 10 C 74 %
420 29-02-2020 21:58:17 10 C 74 %
421 29-02-2020 22:08:17 10 C 74 %
422 29-02-2020 22:18:18 10 C 74 %
423 29-02-2020 22:28:18 10 C 74 %
424 29-02-2020 22:38:18 10 C 74 %
425 29-02-2020 22:48:17 10 C 74 %
Sensor: Nr:Datum:Temp:Feuchte:
G-T/H 426 29-02-2020 22:58:18 10 C 74 %
427 29-02-2020 23:08:18 10 C 74 %
428 29-02-2020 23:18:18 10 C 74 %
429 29-02-2020 23:28:18 10 C 74 %
430 29-02-2020 23:38:18 9.9 C 75 %
431 29-02-2020 23:48:18 10 C 74 %
432 29-02-2020 23:58:18 9.9 C 75 %
433 01-03-2020 00:08:18 9.9 C 75 %
434 01-03-2020 00:18:18 9.9 C 75 %
435 01-03-2020 00:28:18 9.9 C 75 %
436 01-03-2020 00:38:18 9.9 C 75 %
437 01-03-2020 00:48:17 9.9 C 75 %
438 01-03-2020 00:58:18 9.9 C 75 %
439 01-03-2020 01:08:17 9.9 C 75 %
440 01-03-2020 01:18:18 9.9 C 75 %
441 01-03-2020 01:28:18 9.8 C 75 %
442 01-03-2020 01:38:18 9.8 C 74 %
443 01-03-2020 01:48:17 9.8 C 74 %
444 01-03-2020 01:58:17 9.8 C 74 %
445 01-03-2020 02:08:17 9.8 C 74 %
446 01-03-2020 02:18:17 9.8 C 74 %
447 01-03-2020 02:28:17 9.8 C 74 %
448 01-03-2020 02:38:17 9.8 C 74 %
449 01-03-2020 02:48:17 9.8 C 74 %
450 01-03-2020 02:58:17 9.8 C 74 %
Sensor: Nr:Datum:Temp:Feuchte:
G-T/H 451 01-03-2020 03:08:18 9.8 C 74 %
452 01-03-2020 03:18:17 9.8 C 74 %
453 01-03-2020 03:28:17 9.8 C 74 %
454 01-03-2020 03:38:18 9.8 C 74 %
455 01-03-2020 03:48:17 9.8 C 74 %
456 01-03-2020 03:58:17 9.7 C 74 %
457 01-03-2020 04:08:17 9.7 C 74 %
458 01-03-2020 04:18:17 9.7 C 74 %
459 01-03-2020 04:28:17 9.7 C 74 %
460 01-03-2020 04:38:18 9.7 C 74 %
461 01-03-2020 04:48:17 9.7 C 74 %
462 01-03-2020 04:58:17 9.7 C 74 %
463 01-03-2020 05:08:17 9.7 C 74 %
464 01-03-2020 05:18:18 9.7 C 74 %
465 01-03-2020 05:28:18 9.7 C 74 %
466 01-03-2020 05:38:18 9.7 C 74 %
467 01-03-2020 05:48:17 9.7 C 74 %
468 01-03-2020 05:58:18 9.7 C 74 %
469 01-03-2020 06:08:18 9.7 C 74 %
470 01-03-2020 06:18:17 9.7 C 74 %
471 01-03-2020 06:28:17 9.7 C 74 %
472 01-03-2020 06:38:17 9.7 C 74 %
473 01-03-2020 06:48:17 9.7 C 74 %
474 01-03-2020 06:58:17 9.7 C 74 %
475 01-03-2020 07:08:17 9.7 C 74 %
Sensor: Nr:Datum:Temp:Feuchte:
G-T/H 476 01-03-2020 07:18:17 9.7 C 74 %
477 01-03-2020 07:28:18 9.6 C 74 %
478 01-03-2020 07:38:18 9.7 C 74 %
479 01-03-2020 07:48:18 9.7 C 74 %
480 01-03-2020 07:58:18 9.7 C 74 %
481 01-03-2020 08:08:18 9.7 C 74 %
482 01-03-2020 08:18:17 9.7 C 74 %
483 01-03-2020 08:28:17 9.7 C 74 %
484 01-03-2020 08:38:17 9.6 C 74 %
485 01-03-2020 08:48:17 9.6 C 74 %
486 01-03-2020 08:58:17 9.6 C 74 %
487 01-03-2020 09:08:17 9.6 C 74 %
488 01-03-2020 09:18:17 9.6 C 74 %
489 01-03-2020 09:28:17 9.6 C 74 %
490 01-03-2020 09:38:17 9.6 C 74 %
491 01-03-2020 09:48:18 9.6 C 74 %
492 01-03-2020 09:58:18 9.6 C 74 %
493 01-03-2020 10:08:17 9.6 C 74 %
494 01-03-2020 10:18:17 9.6 C 74 %
495 01-03-2020 10:28:17 9.6 C 74 %
496 01-03-2020 10:38:17 9.6 C 74 %
497 01-03-2020 10:48:17 9.6 C 74 %
498 01-03-2020 10:58:17 9.6 C 74 %
499 01-03-2020 11:08:17 9.6 C 74 %
500 01-03-2020 11:18:17 9.6 C 74 %
Sensor: Nr:Datum:Temp:Feuchte:
G-T/H 501 01-03-2020 11:28:18 9.6 C 74 %
502